﻿<?xml version="1.0" encoding="utf-8"?><gpx creator="Garmin Desktop App" version="1.1" xsi:schemaLocation="http://www.topografix.com/GPX/1/1 http://www.topografix.com/GPX/1/1/gpx.xsd http://www.garmin.com/xmlschemas/WaypointExtension/v1 http://www8.garmin.com/xmlschemas/WaypointExtensionv1.xsd http://www.garmin.com/xmlschemas/TrackPointExtension/v1 http://www.garmin.com/xmlschemas/TrackPointExtensionv1.xsd http://www.garmin.com/xmlschemas/GpxExtensions/v3 http://www8.garmin.com/xmlschemas/GpxExtensionsv3.xsd http://www.garmin.com/xmlschemas/ActivityExtension/v1 http://www8.garmin.com/xmlschemas/ActivityExtensionv1.xsd http://www.garmin.com/xmlschemas/AdventuresExtensions/v1 http://www8.garmin.com/xmlschemas/AdventuresExtensionv1.xsd http://www.garmin.com/xmlschemas/PressureExtension/v1 http://www.garmin.com/xmlschemas/PressureExtensionv1.xsd http://www.garmin.com/xmlschemas/TripExtensions/v1 http://www.garmin.com/xmlschemas/TripExtensionsv1.xsd http://www.garmin.com/xmlschemas/TripMetaDataExtensions/v1 http://www.garmin.com/xmlschemas/TripMetaDataExtensionsv1.xsd http://www.garmin.com/xmlschemas/ViaPointTransportationModeExtensions/v1 http://www.garmin.com/xmlschemas/ViaPointTransportationModeExtensionsv1.xsd http://www.garmin.com/xmlschemas/CreationTimeExtension/v1 http://www.garmin.com/xmlschemas/CreationTimeExtensionsv1.xsd http://www.garmin.com/xmlschemas/AccelerationExtension/v1 http://www.garmin.com/xmlschemas/AccelerationExtensionv1.xsd http://www.garmin.com/xmlschemas/PowerExtension/v1 http://www.garmin.com/xmlschemas/PowerExtensionv1.xsd http://www.garmin.com/xmlschemas/VideoExtension/v1 http://www.garmin.com/xmlschemas/VideoExtensionv1.xsd" xmlns="http://www.topografix.com/GPX/1/1" xmlns:xsi="http://www.w3.org/2001/XMLSchema-instance" xmlns:wptx1="http://www.garmin.com/xmlschemas/WaypointExtension/v1" xmlns:gpxtrx="http://www.garmin.com/xmlschemas/GpxExtensions/v3" xmlns:gpxtpx="http://www.garmin.com/xmlschemas/TrackPointExtension/v1" xmlns:gpxx="http://www.garmin.com/xmlschemas/GpxExtensions/v3" xmlns:trp="http://www.garmin.com/xmlschemas/TripExtensions/v1" xmlns:adv="http://www.garmin.com/xmlschemas/AdventuresExtensions/v1" xmlns:prs="http://www.garmin.com/xmlschemas/PressureExtension/v1" xmlns:tmd="http://www.garmin.com/xmlschemas/TripMetaDataExtensions/v1" xmlns:vptm="http://www.garmin.com/xmlschemas/ViaPointTransportationModeExtensions/v1" xmlns:ctx="http://www.garmin.com/xmlschemas/CreationTimeExtension/v1" xmlns:gpxacc="http://www.garmin.com/xmlschemas/AccelerationExtension/v1" xmlns:gpxpx="http://www.garmin.com/xmlschemas/PowerExtension/v1" xmlns:vidx1="http://www.garmin.com/xmlschemas/VideoExtension/v1">

  <metadata>
    <link href="http://www.garmin.com">
      <text>Garmin International</text>
    </link>
    <time>2026-08-29T17:38:48Z</time>
    <bounds maxlat="60.254967212677002" maxlon="30.494248867034912" minlat="60.24528980255127" minlon="30.47757625579834" />
  </metadata>

  <trk>
    <name>Трек 051</name>
    <extensions>
      <gpxx:TrackExtension>
        <gpxx:DisplayColor>Red</gpxx:DisplayColor>
      </gpxx:TrackExtension>
    </extensions>
    <trkseg>
      <trkpt lat="60.253679752349854" lon="30.485107898712158">
        <time>2026-08-29T08:01:54Z</time>
      </trkpt>
      <trkpt lat="60.253615379333496" lon="30.485000610351563">
        <time>2026-08-29T08:01:57Z</time>
      </trkpt>
      <trkpt lat="60.253572463989258" lon="30.48530101776123">
        <time>2026-08-29T08:02:09Z</time>
      </trkpt>
      <trkpt lat="60.253465175628662" lon="30.485236644744873">
        <time>2026-08-29T08:02:14Z</time>
      </trkpt>
      <trkpt lat="60.253443717956543" lon="30.485386848449707">
        <time>2026-08-29T08:02:22Z</time>
      </trkpt>
      <trkpt lat="60.253422260284424" lon="30.485494136810303">
        <time>2026-08-29T08:02:24Z</time>
      </trkpt>
      <trkpt lat="60.253422260284424" lon="30.485494136810303">
        <time>2026-08-29T08:02:27Z</time>
      </trkpt>
      <trkpt lat="60.253465175628662" lon="30.485386848449707">
        <time>2026-08-29T08:02:29Z</time>
      </trkpt>
      <trkpt lat="60.253293514251709" lon="30.485343933105469">
        <time>2026-08-29T08:02:59Z</time>
      </trkpt>
      <trkpt lat="60.253186225891113" lon="30.48530101776123">
        <time>2026-08-29T08:03:29Z</time>
      </trkpt>
      <trkpt lat="60.253186225891113" lon="30.485279560089111">
        <time>2026-08-29T08:03:59Z</time>
      </trkpt>
      <trkpt lat="60.253164768218994" lon="30.485279560089111">
        <time>2026-08-29T08:04:02Z</time>
      </trkpt>
      <trkpt lat="60.253186225891113" lon="30.485343933105469">
        <time>2026-08-29T08:04:32Z</time>
      </trkpt>
      <trkpt lat="60.253186225891113" lon="30.485343933105469">
        <time>2026-08-29T08:04:44Z</time>
      </trkpt>
      <trkpt lat="60.253121852874756" lon="30.485579967498779">
        <time>2026-08-29T08:04:59Z</time>
      </trkpt>
      <trkpt lat="60.253121852874756" lon="30.485773086547852">
        <time>2026-08-29T08:05:29Z</time>
      </trkpt>
      <trkpt lat="60.25301456451416" lon="30.485966205596924">
        <time>2026-08-29T08:05:59Z</time>
      </trkpt>
      <trkpt lat="60.25301456451416" lon="30.486180782318115">
        <time>2026-08-29T08:06:29Z</time>
      </trkpt>
      <trkpt lat="60.253078937530518" lon="30.486631393432617">
        <time>2026-08-29T08:06:59Z</time>
      </trkpt>
      <trkpt lat="60.253057479858398" lon="30.486738681793213">
        <time>2026-08-29T08:07:02Z</time>
      </trkpt>
      <trkpt lat="60.253036022186279" lon="30.486824512481689">
        <time>2026-08-29T08:07:04Z</time>
      </trkpt>
      <trkpt lat="60.252928733825684" lon="30.486888885498047">
        <time>2026-08-29T08:07:09Z</time>
      </trkpt>
      <trkpt lat="60.252907276153564" lon="30.486845970153809">
        <time>2026-08-29T08:07:12Z</time>
      </trkpt>
      <trkpt lat="60.252864360809326" lon="30.486845970153809">
        <time>2026-08-29T08:07:14Z</time>
      </trkpt>
      <trkpt lat="60.252842903137207" lon="30.487017631530762">
        <time>2026-08-29T08:07:17Z</time>
      </trkpt>
      <trkpt lat="60.252842903137207" lon="30.487103462219238">
        <time>2026-08-29T08:07:19Z</time>
      </trkpt>
      <trkpt lat="60.252907276153564" lon="30.487017631530762">
        <time>2026-08-29T08:07:24Z</time>
      </trkpt>
      <trkpt lat="60.252971649169922" lon="30.487017631530762">
        <time>2026-08-29T08:07:27Z</time>
      </trkpt>
      <trkpt lat="60.252971649169922" lon="30.486931800842285">
        <time>2026-08-29T08:07:29Z</time>
      </trkpt>
      <trkpt lat="60.252993106842041" lon="30.486867427825928">
        <time>2026-08-29T08:07:32Z</time>
      </trkpt>
      <trkpt lat="60.253036022186279" lon="30.486996173858643">
        <time>2026-08-29T08:07:34Z</time>
      </trkpt>
      <trkpt lat="60.253036022186279" lon="30.487082004547119">
        <time>2026-08-29T08:07:37Z</time>
      </trkpt>
      <trkpt lat="60.253078937530518" lon="30.487103462219238">
        <time>2026-08-29T08:07:39Z</time>
      </trkpt>
      <trkpt lat="60.253121852874756" lon="30.487082004547119">
        <time>2026-08-29T08:07:42Z</time>
      </trkpt>
      <trkpt lat="60.253143310546875" lon="30.487060546875">
        <time>2026-08-29T08:07:44Z</time>
      </trkpt>
      <trkpt lat="60.253143310546875" lon="30.487275123596191">
        <time>2026-08-29T08:07:49Z</time>
      </trkpt>
      <trkpt lat="60.253164768218994" lon="30.487339496612549">
        <time>2026-08-29T08:07:52Z</time>
      </trkpt>
      <trkpt lat="60.253207683563232" lon="30.487360954284668">
        <time>2026-08-29T08:07:54Z</time>
      </trkpt>
      <trkpt lat="60.253229141235352" lon="30.487425327301025">
        <time>2026-08-29T08:07:57Z</time>
      </trkpt>
      <trkpt lat="60.253164768218994" lon="30.487446784973145">
        <time>2026-08-29T08:07:59Z</time>
      </trkpt>
      <trkpt lat="60.253143310546875" lon="30.487403869628906">
        <time>2026-08-29T08:08:02Z</time>
      </trkpt>
      <trkpt lat="60.253100395202637" lon="30.487275123596191">
        <time>2026-08-29T08:08:07Z</time>
      </trkpt>
      <trkpt lat="60.253057479858398" lon="30.487210750579834">
        <time>2026-08-29T08:08:09Z</time>
      </trkpt>
      <trkpt lat="60.253036022186279" lon="30.487296581268311">
        <time>2026-08-29T08:08:14Z</time>
      </trkpt>
      <trkpt lat="60.252993106842041" lon="30.487339496612549">
        <time>2026-08-29T08:08:17Z</time>
      </trkpt>
      <trkpt lat="60.252950191497803" lon="30.487339496612549">
        <time>2026-08-29T08:08:19Z</time>
      </trkpt>
      <trkpt lat="60.252907276153564" lon="30.487403869628906">
        <time>2026-08-29T08:08:22Z</time>
      </trkpt>
      <trkpt lat="60.252864360809326" lon="30.487446784973145">
        <time>2026-08-29T08:08:24Z</time>
      </trkpt>
      <trkpt lat="60.252821445465088" lon="30.487468242645264">
        <time>2026-08-29T08:08:27Z</time>
      </trkpt>
      <trkpt lat="60.25275707244873" lon="30.487425327301025">
        <time>2026-08-29T08:08:29Z</time>
      </trkpt>
      <trkpt lat="60.252735614776611" lon="30.487360954284668">
        <time>2026-08-29T08:08:32Z</time>
      </trkpt>
      <trkpt lat="60.252714157104492" lon="30.487360954284668">
        <time>2026-08-29T08:08:39Z</time>
      </trkpt>
      <trkpt lat="60.252671241760254" lon="30.487360954284668">
        <time>2026-08-29T08:08:42Z</time>
      </trkpt>
      <trkpt lat="60.252714157104492" lon="30.487446784973145">
        <time>2026-08-29T08:08:44Z</time>
      </trkpt>
      <trkpt lat="60.252735614776611" lon="30.487468242645264">
        <time>2026-08-29T08:08:47Z</time>
      </trkpt>
      <trkpt lat="60.25277853012085" lon="30.487511157989502">
        <time>2026-08-29T08:08:49Z</time>
      </trkpt>
      <trkpt lat="60.25275707244873" lon="30.48755407333374">
        <time>2026-08-29T08:08:52Z</time>
      </trkpt>
      <trkpt lat="60.252735614776611" lon="30.487639904022217">
        <time>2026-08-29T08:08:54Z</time>
      </trkpt>
      <trkpt lat="60.252735614776611" lon="30.487768650054932">
        <time>2026-08-29T08:08:57Z</time>
      </trkpt>
      <trkpt lat="60.252735614776611" lon="30.487854480743408">
        <time>2026-08-29T08:08:59Z</time>
      </trkpt>
      <trkpt lat="60.252714157104492" lon="30.487961769104004">
        <time>2026-08-29T08:09:02Z</time>
      </trkpt>
      <trkpt lat="60.252714157104492" lon="30.488090515136719">
        <time>2026-08-29T08:09:04Z</time>
      </trkpt>
      <trkpt lat="60.252735614776611" lon="30.488154888153076">
        <time>2026-08-29T08:09:07Z</time>
      </trkpt>
      <trkpt lat="60.25275707244873" lon="30.488176345825195">
        <time>2026-08-29T08:09:09Z</time>
      </trkpt>
      <trkpt lat="60.25277853012085" lon="30.488283634185791">
        <time>2026-08-29T08:09:12Z</time>
      </trkpt>
      <trkpt lat="60.25277853012085" lon="30.488262176513672">
        <time>2026-08-29T08:09:17Z</time>
      </trkpt>
      <trkpt lat="60.25277853012085" lon="30.488090515136719">
        <time>2026-08-29T08:09:19Z</time>
      </trkpt>
      <trkpt lat="60.252799987792969" lon="30.488026142120361">
        <time>2026-08-29T08:09:22Z</time>
      </trkpt>
      <trkpt lat="60.252799987792969" lon="30.488004684448242">
        <time>2026-08-29T08:09:24Z</time>
      </trkpt>
      <trkpt lat="60.252842903137207" lon="30.487961769104004">
        <time>2026-08-29T08:09:27Z</time>
      </trkpt>
      <trkpt lat="60.252864360809326" lon="30.487961769104004">
        <time>2026-08-29T08:09:29Z</time>
      </trkpt>
      <trkpt lat="60.252864360809326" lon="30.487961769104004">
        <time>2026-08-29T08:09:59Z</time>
      </trkpt>
      <trkpt lat="60.252842903137207" lon="30.487918853759766">
        <time>2026-08-29T08:10:19Z</time>
      </trkpt>
      <trkpt lat="60.252907276153564" lon="30.488176345825195">
        <time>2026-08-29T08:10:49Z</time>
      </trkpt>
      <trkpt lat="60.252971649169922" lon="30.488348007202148">
        <time>2026-08-29T08:10:52Z</time>
      </trkpt>
      <trkpt lat="60.252950191497803" lon="30.488519668579102">
        <time>2026-08-29T08:10:59Z</time>
      </trkpt>
      <trkpt lat="60.252971649169922" lon="30.488476753234863">
        <time>2026-08-29T08:11:02Z</time>
      </trkpt>
      <trkpt lat="60.252971649169922" lon="30.488390922546387">
        <time>2026-08-29T08:11:04Z</time>
      </trkpt>
      <trkpt lat="60.252950191497803" lon="30.48856258392334">
        <time>2026-08-29T08:11:14Z</time>
      </trkpt>
      <trkpt lat="60.252950191497803" lon="30.488648414611816">
        <time>2026-08-29T08:11:17Z</time>
      </trkpt>
      <trkpt lat="60.252907276153564" lon="30.488626956939697">
        <time>2026-08-29T08:11:19Z</time>
      </trkpt>
      <trkpt lat="60.252864360809326" lon="30.488648414611816">
        <time>2026-08-29T08:11:22Z</time>
      </trkpt>
      <trkpt lat="60.252735614776611" lon="30.48882007598877">
        <time>2026-08-29T08:11:52Z</time>
      </trkpt>
      <trkpt lat="60.252714157104492" lon="30.48905611038208">
        <time>2026-08-29T08:12:07Z</time>
      </trkpt>
      <trkpt lat="60.252735614776611" lon="30.489141941070557">
        <time>2026-08-29T08:12:09Z</time>
      </trkpt>
      <trkpt lat="60.25275707244873" lon="30.489206314086914">
        <time>2026-08-29T08:12:12Z</time>
      </trkpt>
      <trkpt lat="60.25275707244873" lon="30.489292144775391">
        <time>2026-08-29T08:12:14Z</time>
      </trkpt>
      <trkpt lat="60.25277853012085" lon="30.489356517791748">
        <time>2026-08-29T08:12:17Z</time>
      </trkpt>
      <trkpt lat="60.25275707244873" lon="30.489356517791748">
        <time>2026-08-29T08:12:19Z</time>
      </trkpt>
      <trkpt lat="60.252735614776611" lon="30.48931360244751">
        <time>2026-08-29T08:12:22Z</time>
      </trkpt>
      <trkpt lat="60.252692699432373" lon="30.489292144775391">
        <time>2026-08-29T08:12:24Z</time>
      </trkpt>
      <trkpt lat="60.252671241760254" lon="30.489356517791748">
        <time>2026-08-29T08:12:27Z</time>
      </trkpt>
      <trkpt lat="60.252671241760254" lon="30.489442348480225">
        <time>2026-08-29T08:12:29Z</time>
      </trkpt>
      <trkpt lat="60.252585411071777" lon="30.489592552185059">
        <time>2026-08-29T08:12:34Z</time>
      </trkpt>
      <trkpt lat="60.252499580383301" lon="30.489656925201416">
        <time>2026-08-29T08:12:39Z</time>
      </trkpt>
      <trkpt lat="60.252413749694824" lon="30.489592552185059">
        <time>2026-08-29T08:12:44Z</time>
      </trkpt>
      <trkpt lat="60.252370834350586" lon="30.489721298217773">
        <time>2026-08-29T08:12:49Z</time>
      </trkpt>
      <trkpt lat="60.252306461334229" lon="30.489656925201416">
        <time>2026-08-29T08:12:54Z</time>
      </trkpt>
      <trkpt lat="60.252177715301514" lon="30.489850044250488">
        <time>2026-08-29T08:13:02Z</time>
      </trkpt>
      <trkpt lat="60.252242088317871" lon="30.489764213562012">
        <time>2026-08-29T08:13:07Z</time>
      </trkpt>
      <trkpt lat="60.25226354598999" lon="30.489764213562012">
        <time>2026-08-29T08:13:09Z</time>
      </trkpt>
      <trkpt lat="60.252327919006348" lon="30.489699840545654">
        <time>2026-08-29T08:13:12Z</time>
      </trkpt>
      <trkpt lat="60.252370834350586" lon="30.489656925201416">
        <time>2026-08-29T08:13:14Z</time>
      </trkpt>
      <trkpt lat="60.252435207366943" lon="30.489635467529297">
        <time>2026-08-29T08:13:17Z</time>
      </trkpt>
      <trkpt lat="60.252499580383301" lon="30.489614009857178">
        <time>2026-08-29T08:13:19Z</time>
      </trkpt>
      <trkpt lat="60.252542495727539" lon="30.489571094512939">
        <time>2026-08-29T08:13:22Z</time>
      </trkpt>
      <trkpt lat="60.252563953399658" lon="30.489528179168701">
        <time>2026-08-29T08:13:24Z</time>
      </trkpt>
      <trkpt lat="60.252606868743896" lon="30.48954963684082">
        <time>2026-08-29T08:13:54Z</time>
      </trkpt>
      <trkpt lat="60.252671241760254" lon="30.489742755889893">
        <time>2026-08-29T08:14:22Z</time>
      </trkpt>
      <trkpt lat="60.252714157104492" lon="30.48980712890625">
        <time>2026-08-29T08:14:27Z</time>
      </trkpt>
      <trkpt lat="60.252735614776611" lon="30.489892959594727">
        <time>2026-08-29T08:14:29Z</time>
      </trkpt>
      <trkpt lat="60.252842903137207" lon="30.490214824676514">
        <time>2026-08-29T08:15:02Z</time>
      </trkpt>
      <trkpt lat="60.252821445465088" lon="30.490257740020752">
        <time>2026-08-29T08:15:09Z</time>
      </trkpt>
      <trkpt lat="60.252842903137207" lon="30.49030065536499">
        <time>2026-08-29T08:15:12Z</time>
      </trkpt>
      <trkpt lat="60.252907276153564" lon="30.490343570709229">
        <time>2026-08-29T08:15:14Z</time>
      </trkpt>
      <trkpt lat="60.252885818481445" lon="30.490343570709229">
        <time>2026-08-29T08:15:17Z</time>
      </trkpt>
      <trkpt lat="60.252842903137207" lon="30.49030065536499">
        <time>2026-08-29T08:15:19Z</time>
      </trkpt>
      <trkpt lat="60.252821445465088" lon="30.490236282348633">
        <time>2026-08-29T08:15:22Z</time>
      </trkpt>
      <trkpt lat="60.25277853012085" lon="30.490643978118896">
        <time>2026-08-29T08:15:49Z</time>
      </trkpt>
      <trkpt lat="60.252799987792969" lon="30.490922927856445">
        <time>2026-08-29T08:15:59Z</time>
      </trkpt>
      <trkpt lat="60.252821445465088" lon="30.491437911987305">
        <time>2026-08-29T08:16:04Z</time>
      </trkpt>
      <trkpt lat="60.252821445465088" lon="30.491609573364258">
        <time>2026-08-29T08:16:14Z</time>
      </trkpt>
      <trkpt lat="60.252864360809326" lon="30.491523742675781">
        <time>2026-08-29T08:16:17Z</time>
      </trkpt>
      <trkpt lat="60.252864360809326" lon="30.491416454315186">
        <time>2026-08-29T08:16:19Z</time>
      </trkpt>
      <trkpt lat="60.252842903137207" lon="30.491330623626709">
        <time>2026-08-29T08:16:22Z</time>
      </trkpt>
      <trkpt lat="60.252821445465088" lon="30.491223335266113">
        <time>2026-08-29T08:16:24Z</time>
      </trkpt>
      <trkpt lat="60.252821445465088" lon="30.491223335266113">
        <time>2026-08-29T08:16:54Z</time>
      </trkpt>
      <trkpt lat="60.25277853012085" lon="30.491244792938232">
        <time>2026-08-29T08:17:19Z</time>
      </trkpt>
      <trkpt lat="60.25275707244873" lon="30.49130916595459">
        <time>2026-08-29T08:17:49Z</time>
      </trkpt>
      <trkpt lat="60.252671241760254" lon="30.491502285003662">
        <time>2026-08-29T08:18:07Z</time>
      </trkpt>
      <trkpt lat="60.252649784088135" lon="30.491738319396973">
        <time>2026-08-29T08:18:37Z</time>
      </trkpt>
      <trkpt lat="60.252628326416016" lon="30.492124557495117">
        <time>2026-08-29T08:19:07Z</time>
      </trkpt>
      <trkpt lat="60.252692699432373" lon="30.492489337921143">
        <time>2026-08-29T08:19:37Z</time>
      </trkpt>
      <trkpt lat="60.25275707244873" lon="30.492768287658691">
        <time>2026-08-29T08:19:54Z</time>
      </trkpt>
      <trkpt lat="60.252842903137207" lon="30.493111610412598">
        <time>2026-08-29T08:20:07Z</time>
      </trkpt>
      <trkpt lat="60.252885818481445" lon="30.493261814117432">
        <time>2026-08-29T08:20:09Z</time>
      </trkpt>
      <trkpt lat="60.252864360809326" lon="30.493261814117432">
        <time>2026-08-29T08:20:12Z</time>
      </trkpt>
      <trkpt lat="60.252842903137207" lon="30.493261814117432">
        <time>2026-08-29T08:20:14Z</time>
      </trkpt>
      <trkpt lat="60.252821445465088" lon="30.493240356445313">
        <time>2026-08-29T08:20:17Z</time>
      </trkpt>
      <trkpt lat="60.252799987792969" lon="30.493261814117432">
        <time>2026-08-29T08:20:19Z</time>
      </trkpt>
      <trkpt lat="60.252799987792969" lon="30.493326187133789">
        <time>2026-08-29T08:20:22Z</time>
      </trkpt>
      <trkpt lat="60.252735614776611" lon="30.493733882904053">
        <time>2026-08-29T08:20:42Z</time>
      </trkpt>
      <trkpt lat="60.252628326416016" lon="30.493819713592529">
        <time>2026-08-29T08:21:12Z</time>
      </trkpt>
      <trkpt lat="60.252628326416016" lon="30.493819713592529">
        <time>2026-08-29T08:21:37Z</time>
      </trkpt>
      <trkpt lat="60.252563953399658" lon="30.493927001953125">
        <time>2026-08-29T08:22:07Z</time>
      </trkpt>
      <trkpt lat="60.252478122711182" lon="30.493991374969482">
        <time>2026-08-29T08:22:17Z</time>
      </trkpt>
      <trkpt lat="60.252349376678467" lon="30.494184494018555">
        <time>2026-08-29T08:22:42Z</time>
      </trkpt>
      <trkpt lat="60.252306461334229" lon="30.494248867034912">
        <time>2026-08-29T08:22:47Z</time>
      </trkpt>
      <trkpt lat="60.252285003662109" lon="30.494205951690674">
        <time>2026-08-29T08:22:49Z</time>
      </trkpt>
      <trkpt lat="60.252306461334229" lon="30.494163036346436">
        <time>2026-08-29T08:22:52Z</time>
      </trkpt>
      <trkpt lat="60.252285003662109" lon="30.494141578674316">
        <time>2026-08-29T08:23:22Z</time>
      </trkpt>
      <trkpt lat="60.252285003662109" lon="30.494141578674316">
        <time>2026-08-29T08:23:37Z</time>
      </trkpt>
      <trkpt lat="60.252199172973633" lon="30.494227409362793">
        <time>2026-08-29T08:24:07Z</time>
      </trkpt>
      <trkpt lat="60.252199172973633" lon="30.494205951690674">
        <time>2026-08-29T08:24:37Z</time>
      </trkpt>
      <trkpt lat="60.252177715301514" lon="30.494227409362793">
        <time>2026-08-29T08:25:07Z</time>
      </trkpt>
      <trkpt lat="60.252156257629395" lon="30.494205951690674">
        <time>2026-08-29T08:25:37Z</time>
      </trkpt>
      <trkpt lat="60.252113342285156" lon="30.493862628936768">
        <time>2026-08-29T08:26:02Z</time>
      </trkpt>
      <trkpt lat="60.252048969268799" lon="30.493454933166504">
        <time>2026-08-29T08:26:27Z</time>
      </trkpt>
      <trkpt lat="60.251963138580322" lon="30.492939949035645">
        <time>2026-08-29T08:26:54Z</time>
      </trkpt>
      <trkpt lat="60.252070426940918" lon="30.4925537109375">
        <time>2026-08-29T08:27:22Z</time>
      </trkpt>
      <trkpt lat="60.252048969268799" lon="30.492167472839355">
        <time>2026-08-29T08:27:52Z</time>
      </trkpt>
      <trkpt lat="60.25202751159668" lon="30.492038726806641">
        <time>2026-08-29T08:28:14Z</time>
      </trkpt>
      <trkpt lat="60.252070426940918" lon="30.49206018447876">
        <time>2026-08-29T08:28:17Z</time>
      </trkpt>
      <trkpt lat="60.252070426940918" lon="30.492081642150879">
        <time>2026-08-29T08:28:44Z</time>
      </trkpt>
      <trkpt lat="60.252091884613037" lon="30.492038726806641">
        <time>2026-08-29T08:29:15Z</time>
      </trkpt>
      <trkpt lat="60.252113342285156" lon="30.491952896118164">
        <time>2026-08-29T08:29:44Z</time>
      </trkpt>
      <trkpt lat="60.252113342285156" lon="30.491974353790283">
        <time>2026-08-29T08:30:14Z</time>
      </trkpt>
      <trkpt lat="60.252134799957275" lon="30.491888523101807">
        <time>2026-08-29T08:30:44Z</time>
      </trkpt>
      <trkpt lat="60.252199172973633" lon="30.491652488708496">
        <time>2026-08-29T08:31:09Z</time>
      </trkpt>
      <trkpt lat="60.252156257629395" lon="30.491223335266113">
        <time>2026-08-29T08:31:19Z</time>
      </trkpt>
      <trkpt lat="60.252113342285156" lon="30.49081563949585">
        <time>2026-08-29T08:31:44Z</time>
      </trkpt>
      <trkpt lat="60.252091884613037" lon="30.490343570709229">
        <time>2026-08-29T08:32:09Z</time>
      </trkpt>
      <trkpt lat="60.252048969268799" lon="30.490214824676514">
        <time>2026-08-29T08:32:17Z</time>
      </trkpt>
      <trkpt lat="60.251984596252441" lon="30.490128993988037">
        <time>2026-08-29T08:32:22Z</time>
      </trkpt>
      <trkpt lat="60.251898765563965" lon="30.489850044250488">
        <time>2026-08-29T08:32:34Z</time>
      </trkpt>
      <trkpt lat="60.251834392547607" lon="30.489764213562012">
        <time>2026-08-29T08:32:37Z</time>
      </trkpt>
      <trkpt lat="60.251791477203369" lon="30.489678382873535">
        <time>2026-08-29T08:32:39Z</time>
      </trkpt>
      <trkpt lat="60.251727104187012" lon="30.489635467529297">
        <time>2026-08-29T08:32:42Z</time>
      </trkpt>
      <trkpt lat="60.251684188842773" lon="30.489635467529297">
        <time>2026-08-29T08:32:44Z</time>
      </trkpt>
      <trkpt lat="60.251641273498535" lon="30.489571094512939">
        <time>2026-08-29T08:32:49Z</time>
      </trkpt>
      <trkpt lat="60.251662731170654" lon="30.489592552185059">
        <time>2026-08-29T08:32:52Z</time>
      </trkpt>
      <trkpt lat="60.251662731170654" lon="30.489592552185059">
        <time>2026-08-29T08:32:54Z</time>
      </trkpt>
      <trkpt lat="60.251791477203369" lon="30.489592552185059">
        <time>2026-08-29T08:32:59Z</time>
      </trkpt>
      <trkpt lat="60.251855850219727" lon="30.489678382873535">
        <time>2026-08-29T08:33:02Z</time>
      </trkpt>
      <trkpt lat="60.251877307891846" lon="30.489678382873535">
        <time>2026-08-29T08:33:04Z</time>
      </trkpt>
      <trkpt lat="60.251898765563965" lon="30.489571094512939">
        <time>2026-08-29T08:33:07Z</time>
      </trkpt>
      <trkpt lat="60.251920223236084" lon="30.489485263824463">
        <time>2026-08-29T08:33:09Z</time>
      </trkpt>
      <trkpt lat="60.251984596252441" lon="30.489571094512939">
        <time>2026-08-29T08:33:17Z</time>
      </trkpt>
      <trkpt lat="60.252006053924561" lon="30.489635467529297">
        <time>2026-08-29T08:33:19Z</time>
      </trkpt>
      <trkpt lat="60.252048969268799" lon="30.489678382873535">
        <time>2026-08-29T08:33:22Z</time>
      </trkpt>
      <trkpt lat="60.252070426940918" lon="30.489571094512939">
        <time>2026-08-29T08:33:24Z</time>
      </trkpt>
      <trkpt lat="60.252091884613037" lon="30.489463806152344">
        <time>2026-08-29T08:33:27Z</time>
      </trkpt>
      <trkpt lat="60.252091884613037" lon="30.489399433135986">
        <time>2026-08-29T08:33:29Z</time>
      </trkpt>
      <trkpt lat="60.252113342285156" lon="30.489356517791748">
        <time>2026-08-29T08:33:32Z</time>
      </trkpt>
      <trkpt lat="60.252156257629395" lon="30.489463806152344">
        <time>2026-08-29T08:33:34Z</time>
      </trkpt>
      <trkpt lat="60.252220630645752" lon="30.489463806152344">
        <time>2026-08-29T08:33:37Z</time>
      </trkpt>
      <trkpt lat="60.252306461334229" lon="30.489442348480225">
        <time>2026-08-29T08:33:39Z</time>
      </trkpt>
      <trkpt lat="60.252349376678467" lon="30.489335060119629">
        <time>2026-08-29T08:33:42Z</time>
      </trkpt>
      <trkpt lat="60.252413749694824" lon="30.489270687103271">
        <time>2026-08-29T08:33:44Z</time>
      </trkpt>
      <trkpt lat="60.252435207366943" lon="30.489227771759033">
        <time>2026-08-29T08:33:47Z</time>
      </trkpt>
      <trkpt lat="60.252478122711182" lon="30.489227771759033">
        <time>2026-08-29T08:33:49Z</time>
      </trkpt>
      <trkpt lat="60.252499580383301" lon="30.489292144775391">
        <time>2026-08-29T08:33:52Z</time>
      </trkpt>
      <trkpt lat="60.252456665039063" lon="30.489249229431152">
        <time>2026-08-29T08:33:54Z</time>
      </trkpt>
      <trkpt lat="60.252392292022705" lon="30.489227771759033">
        <time>2026-08-29T08:33:57Z</time>
      </trkpt>
      <trkpt lat="60.252349376678467" lon="30.489249229431152">
        <time>2026-08-29T08:33:59Z</time>
      </trkpt>
      <trkpt lat="60.252285003662109" lon="30.489206314086914">
        <time>2026-08-29T08:34:04Z</time>
      </trkpt>
      <trkpt lat="60.252242088317871" lon="30.489163398742676">
        <time>2026-08-29T08:34:07Z</time>
      </trkpt>
      <trkpt lat="60.252177715301514" lon="30.489120483398437">
        <time>2026-08-29T08:34:09Z</time>
      </trkpt>
      <trkpt lat="60.252177715301514" lon="30.488991737365723">
        <time>2026-08-29T08:34:17Z</time>
      </trkpt>
      <trkpt lat="60.252199172973633" lon="30.488927364349365">
        <time>2026-08-29T08:34:19Z</time>
      </trkpt>
      <trkpt lat="60.252156257629395" lon="30.48882007598877">
        <time>2026-08-29T08:34:49Z</time>
      </trkpt>
      <trkpt lat="60.252199172973633" lon="30.488841533660889">
        <time>2026-08-29T08:35:14Z</time>
      </trkpt>
      <trkpt lat="60.252199172973633" lon="30.488777160644531">
        <time>2026-08-29T08:35:37Z</time>
      </trkpt>
      <trkpt lat="60.252113342285156" lon="30.488412380218506">
        <time>2026-08-29T08:35:44Z</time>
      </trkpt>
      <trkpt lat="60.252091884613037" lon="30.488348007202148">
        <time>2026-08-29T08:35:47Z</time>
      </trkpt>
      <trkpt lat="60.252048969268799" lon="30.488240718841553">
        <time>2026-08-29T08:35:49Z</time>
      </trkpt>
      <trkpt lat="60.252006053924561" lon="30.48830509185791">
        <time>2026-08-29T08:35:52Z</time>
      </trkpt>
      <trkpt lat="60.251963138580322" lon="30.488455295562744">
        <time>2026-08-29T08:35:54Z</time>
      </trkpt>
      <trkpt lat="60.251984596252441" lon="30.488519668579102">
        <time>2026-08-29T08:35:57Z</time>
      </trkpt>
      <trkpt lat="60.252070426940918" lon="30.488412380218506">
        <time>2026-08-29T08:36:04Z</time>
      </trkpt>
      <trkpt lat="60.252134799957275" lon="30.488348007202148">
        <time>2026-08-29T08:36:07Z</time>
      </trkpt>
      <trkpt lat="60.252156257629395" lon="30.488283634185791">
        <time>2026-08-29T08:36:09Z</time>
      </trkpt>
      <trkpt lat="60.252199172973633" lon="30.4880690574646">
        <time>2026-08-29T08:36:19Z</time>
      </trkpt>
      <trkpt lat="60.252220630645752" lon="30.488004684448242">
        <time>2026-08-29T08:36:22Z</time>
      </trkpt>
      <trkpt lat="60.252199172973633" lon="30.487897396087646">
        <time>2026-08-29T08:36:27Z</time>
      </trkpt>
      <trkpt lat="60.252156257629395" lon="30.48781156539917">
        <time>2026-08-29T08:36:29Z</time>
      </trkpt>
      <trkpt lat="60.252134799957275" lon="30.487704277038574">
        <time>2026-08-29T08:36:32Z</time>
      </trkpt>
      <trkpt lat="60.252113342285156" lon="30.487618446350098">
        <time>2026-08-29T08:36:34Z</time>
      </trkpt>
      <trkpt lat="60.252091884613037" lon="30.487532615661621">
        <time>2026-08-29T08:36:37Z</time>
      </trkpt>
      <trkpt lat="60.252113342285156" lon="30.487446784973145">
        <time>2026-08-29T08:36:39Z</time>
      </trkpt>
      <trkpt lat="60.252156257629395" lon="30.487403869628906">
        <time>2026-08-29T08:36:42Z</time>
      </trkpt>
      <trkpt lat="60.252177715301514" lon="30.487446784973145">
        <time>2026-08-29T08:36:44Z</time>
      </trkpt>
      <trkpt lat="60.252177715301514" lon="30.487339496612549">
        <time>2026-08-29T08:36:49Z</time>
      </trkpt>
      <trkpt lat="60.252177715301514" lon="30.487210750579834">
        <time>2026-08-29T08:36:52Z</time>
      </trkpt>
      <trkpt lat="60.252134799957275" lon="30.487167835235596">
        <time>2026-08-29T08:36:54Z</time>
      </trkpt>
      <trkpt lat="60.252070426940918" lon="30.487210750579834">
        <time>2026-08-29T08:36:57Z</time>
      </trkpt>
      <trkpt lat="60.25202751159668" lon="30.48731803894043">
        <time>2026-08-29T08:36:59Z</time>
      </trkpt>
      <trkpt lat="60.25202751159668" lon="30.487446784973145">
        <time>2026-08-29T08:37:02Z</time>
      </trkpt>
      <trkpt lat="60.252048969268799" lon="30.487489700317383">
        <time>2026-08-29T08:37:04Z</time>
      </trkpt>
      <trkpt lat="60.252070426940918" lon="30.487446784973145">
        <time>2026-08-29T08:37:07Z</time>
      </trkpt>
      <trkpt lat="60.252091884613037" lon="30.487382411956787">
        <time>2026-08-29T08:37:09Z</time>
      </trkpt>
      <trkpt lat="60.252177715301514" lon="30.487189292907715">
        <time>2026-08-29T08:37:14Z</time>
      </trkpt>
      <trkpt lat="60.252199172973633" lon="30.487060546875">
        <time>2026-08-29T08:37:17Z</time>
      </trkpt>
      <trkpt lat="60.252199172973633" lon="30.486953258514404">
        <time>2026-08-29T08:37:19Z</time>
      </trkpt>
      <trkpt lat="60.252177715301514" lon="30.486824512481689">
        <time>2026-08-29T08:37:22Z</time>
      </trkpt>
      <trkpt lat="60.252113342285156" lon="30.486717224121094">
        <time>2026-08-29T08:37:24Z</time>
      </trkpt>
      <trkpt lat="60.252048969268799" lon="30.486717224121094">
        <time>2026-08-29T08:37:27Z</time>
      </trkpt>
      <trkpt lat="60.25202751159668" lon="30.48680305480957">
        <time>2026-08-29T08:37:29Z</time>
      </trkpt>
      <trkpt lat="60.252048969268799" lon="30.486888885498047">
        <time>2026-08-29T08:37:32Z</time>
      </trkpt>
      <trkpt lat="60.252091884613037" lon="30.486867427825928">
        <time>2026-08-29T08:37:34Z</time>
      </trkpt>
      <trkpt lat="60.252113342285156" lon="30.486845970153809">
        <time>2026-08-29T08:37:37Z</time>
      </trkpt>
      <trkpt lat="60.252134799957275" lon="30.48680305480957">
        <time>2026-08-29T08:37:39Z</time>
      </trkpt>
      <trkpt lat="60.252134799957275" lon="30.486781597137451">
        <time>2026-08-29T08:37:42Z</time>
      </trkpt>
      <trkpt lat="60.252220630645752" lon="30.486373901367188">
        <time>2026-08-29T08:37:59Z</time>
      </trkpt>
      <trkpt lat="60.25226354598999" lon="30.486352443695068">
        <time>2026-08-29T08:38:09Z</time>
      </trkpt>
      <trkpt lat="60.252285003662109" lon="30.486395359039307">
        <time>2026-08-29T08:38:12Z</time>
      </trkpt>
      <trkpt lat="60.252306461334229" lon="30.486416816711426">
        <time>2026-08-29T08:38:14Z</time>
      </trkpt>
      <trkpt lat="60.252327919006348" lon="30.486352443695068">
        <time>2026-08-29T08:38:17Z</time>
      </trkpt>
      <trkpt lat="60.252327919006348" lon="30.486288070678711">
        <time>2026-08-29T08:38:19Z</time>
      </trkpt>
      <trkpt lat="60.252349376678467" lon="30.48607349395752">
        <time>2026-08-29T08:38:49Z</time>
      </trkpt>
      <trkpt lat="60.252370834350586" lon="30.4860520362854">
        <time>2026-08-29T08:39:19Z</time>
      </trkpt>
      <trkpt lat="60.252370834350586" lon="30.4860520362854">
        <time>2026-08-29T08:39:49Z</time>
      </trkpt>
      <trkpt lat="60.252392292022705" lon="30.486030578613281">
        <time>2026-08-29T08:40:19Z</time>
      </trkpt>
      <trkpt lat="60.252435207366943" lon="30.485880374908447">
        <time>2026-08-29T08:40:49Z</time>
      </trkpt>
      <trkpt lat="60.252478122711182" lon="30.485622882843018">
        <time>2026-08-29T08:40:57Z</time>
      </trkpt>
      <trkpt lat="60.252542495727539" lon="30.485365390777588">
        <time>2026-08-29T08:41:27Z</time>
      </trkpt>
      <trkpt lat="60.252499580383301" lon="30.485343933105469">
        <time>2026-08-29T08:41:54Z</time>
      </trkpt>
      <trkpt lat="60.252456665039063" lon="30.48532247543335">
        <time>2026-08-29T08:41:59Z</time>
      </trkpt>
      <trkpt lat="60.252392292022705" lon="30.485172271728516">
        <time>2026-08-29T08:42:12Z</time>
      </trkpt>
      <trkpt lat="60.252242088317871" lon="30.485086441040039">
        <time>2026-08-29T08:42:42Z</time>
      </trkpt>
      <trkpt lat="60.252156257629395" lon="30.485150814056396">
        <time>2026-08-29T08:43:12Z</time>
      </trkpt>
      <trkpt lat="60.252134799957275" lon="30.484893321990967">
        <time>2026-08-29T08:43:42Z</time>
      </trkpt>
      <trkpt lat="60.252113342285156" lon="30.484871864318848">
        <time>2026-08-29T08:44:12Z</time>
      </trkpt>
      <trkpt lat="60.252091884613037" lon="30.484914779663086">
        <time>2026-08-29T08:44:42Z</time>
      </trkpt>
      <trkpt lat="60.252048969268799" lon="30.485043525695801">
        <time>2026-08-29T08:45:12Z</time>
      </trkpt>
      <trkpt lat="60.25202751159668" lon="30.485215187072754">
        <time>2026-08-29T08:45:17Z</time>
      </trkpt>
      <trkpt lat="60.251941680908203" lon="30.48555850982666">
        <time>2026-08-29T08:45:47Z</time>
      </trkpt>
      <trkpt lat="60.251812934875488" lon="30.485944747924805">
        <time>2026-08-29T08:46:09Z</time>
      </trkpt>
      <trkpt lat="60.251834392547607" lon="30.485966205596924">
        <time>2026-08-29T08:46:12Z</time>
      </trkpt>
      <trkpt lat="60.251855850219727" lon="30.486030578613281">
        <time>2026-08-29T08:46:14Z</time>
      </trkpt>
      <trkpt lat="60.251791477203369" lon="30.486352443695068">
        <time>2026-08-29T08:46:37Z</time>
      </trkpt>
      <trkpt lat="60.25177001953125" lon="30.486459732055664">
        <time>2026-08-29T08:46:39Z</time>
      </trkpt>
      <trkpt lat="60.25177001953125" lon="30.48656702041626">
        <time>2026-08-29T08:46:42Z</time>
      </trkpt>
      <trkpt lat="60.251791477203369" lon="30.486652851104736">
        <time>2026-08-29T08:46:44Z</time>
      </trkpt>
      <trkpt lat="60.251684188842773" lon="30.486695766448975">
        <time>2026-08-29T08:46:57Z</time>
      </trkpt>
      <trkpt lat="60.251641273498535" lon="30.486738681793213">
        <time>2026-08-29T08:46:59Z</time>
      </trkpt>
      <trkpt lat="60.251555442810059" lon="30.48680305480957">
        <time>2026-08-29T08:47:04Z</time>
      </trkpt>
      <trkpt lat="60.25151252746582" lon="30.486867427825928">
        <time>2026-08-29T08:47:07Z</time>
      </trkpt>
      <trkpt lat="60.251555442810059" lon="30.486931800842285">
        <time>2026-08-29T08:47:09Z</time>
      </trkpt>
      <trkpt lat="60.251598358154297" lon="30.486953258514404">
        <time>2026-08-29T08:47:12Z</time>
      </trkpt>
      <trkpt lat="60.251662731170654" lon="30.486931800842285">
        <time>2026-08-29T08:47:14Z</time>
      </trkpt>
      <trkpt lat="60.251705646514893" lon="30.486931800842285">
        <time>2026-08-29T08:47:17Z</time>
      </trkpt>
      <trkpt lat="60.251684188842773" lon="30.487082004547119">
        <time>2026-08-29T08:47:24Z</time>
      </trkpt>
      <trkpt lat="60.251684188842773" lon="30.487124919891357">
        <time>2026-08-29T08:47:27Z</time>
      </trkpt>
      <trkpt lat="60.251641273498535" lon="30.487232208251953">
        <time>2026-08-29T08:47:37Z</time>
      </trkpt>
      <trkpt lat="60.251727104187012" lon="30.487146377563477">
        <time>2026-08-29T08:47:44Z</time>
      </trkpt>
      <trkpt lat="60.251748561859131" lon="30.487210750579834">
        <time>2026-08-29T08:47:47Z</time>
      </trkpt>
      <trkpt lat="60.25177001953125" lon="30.487296581268311">
        <time>2026-08-29T08:47:49Z</time>
      </trkpt>
      <trkpt lat="60.251791477203369" lon="30.487360954284668">
        <time>2026-08-29T08:47:52Z</time>
      </trkpt>
      <trkpt lat="60.251834392547607" lon="30.487511157989502">
        <time>2026-08-29T08:47:54Z</time>
      </trkpt>
      <trkpt lat="60.251812934875488" lon="30.487575531005859">
        <time>2026-08-29T08:47:57Z</time>
      </trkpt>
      <trkpt lat="60.25177001953125" lon="30.487575531005859">
        <time>2026-08-29T08:47:59Z</time>
      </trkpt>
      <trkpt lat="60.251748561859131" lon="30.487489700317383">
        <time>2026-08-29T08:48:02Z</time>
      </trkpt>
      <trkpt lat="60.251727104187012" lon="30.487446784973145">
        <time>2026-08-29T08:48:04Z</time>
      </trkpt>
      <trkpt lat="60.251684188842773" lon="30.487446784973145">
        <time>2026-08-29T08:48:07Z</time>
      </trkpt>
      <trkpt lat="60.251641273498535" lon="30.487425327301025">
        <time>2026-08-29T08:48:09Z</time>
      </trkpt>
      <trkpt lat="60.251641273498535" lon="30.487446784973145">
        <time>2026-08-29T08:48:39Z</time>
      </trkpt>
      <trkpt lat="60.251619815826416" lon="30.487446784973145">
        <time>2026-08-29T08:49:02Z</time>
      </trkpt>
      <trkpt lat="60.251619815826416" lon="30.487425327301025">
        <time>2026-08-29T08:49:32Z</time>
      </trkpt>
      <trkpt lat="60.251533985137939" lon="30.487382411956787">
        <time>2026-08-29T08:50:02Z</time>
      </trkpt>
      <trkpt lat="60.251469612121582" lon="30.487425327301025">
        <time>2026-08-29T08:50:14Z</time>
      </trkpt>
      <trkpt lat="60.251448154449463" lon="30.487790107727051">
        <time>2026-08-29T08:50:42Z</time>
      </trkpt>
      <trkpt lat="60.251469612121582" lon="30.487833023071289">
        <time>2026-08-29T08:50:44Z</time>
      </trkpt>
      <trkpt lat="60.251491069793701" lon="30.487875938415527">
        <time>2026-08-29T08:50:47Z</time>
      </trkpt>
      <trkpt lat="60.251491069793701" lon="30.487983226776123">
        <time>2026-08-29T08:50:49Z</time>
      </trkpt>
      <trkpt lat="60.251533985137939" lon="30.488026142120361">
        <time>2026-08-29T08:50:52Z</time>
      </trkpt>
      <trkpt lat="60.251555442810059" lon="30.488133430480957">
        <time>2026-08-29T08:50:54Z</time>
      </trkpt>
      <trkpt lat="60.251576900482178" lon="30.488262176513672">
        <time>2026-08-29T08:50:57Z</time>
      </trkpt>
      <trkpt lat="60.251598358154297" lon="30.488390922546387">
        <time>2026-08-29T08:50:59Z</time>
      </trkpt>
      <trkpt lat="60.251619815826416" lon="30.488476753234863">
        <time>2026-08-29T08:51:02Z</time>
      </trkpt>
      <trkpt lat="60.251576900482178" lon="30.488498210906982">
        <time>2026-08-29T08:51:04Z</time>
      </trkpt>
      <trkpt lat="60.251576900482178" lon="30.488455295562744">
        <time>2026-08-29T08:51:07Z</time>
      </trkpt>
      <trkpt lat="60.251598358154297" lon="30.488390922546387">
        <time>2026-08-29T08:51:09Z</time>
      </trkpt>
      <trkpt lat="60.251598358154297" lon="30.48830509185791">
        <time>2026-08-29T08:51:12Z</time>
      </trkpt>
      <trkpt lat="60.251641273498535" lon="30.488369464874268">
        <time>2026-08-29T08:51:24Z</time>
      </trkpt>
      <trkpt lat="60.251705646514893" lon="30.488412380218506">
        <time>2026-08-29T08:51:29Z</time>
      </trkpt>
      <trkpt lat="60.251834392547607" lon="30.488519668579102">
        <time>2026-08-29T08:51:47Z</time>
      </trkpt>
      <trkpt lat="60.251791477203369" lon="30.48856258392334">
        <time>2026-08-29T08:51:49Z</time>
      </trkpt>
      <trkpt lat="60.25177001953125" lon="30.488648414611816">
        <time>2026-08-29T08:51:52Z</time>
      </trkpt>
      <trkpt lat="60.251791477203369" lon="30.48882007598877">
        <time>2026-08-29T08:51:54Z</time>
      </trkpt>
      <trkpt lat="60.251834392547607" lon="30.48882007598877">
        <time>2026-08-29T08:51:57Z</time>
      </trkpt>
      <trkpt lat="60.251812934875488" lon="30.48879861831665">
        <time>2026-08-29T08:51:59Z</time>
      </trkpt>
      <trkpt lat="60.251791477203369" lon="30.488841533660889">
        <time>2026-08-29T08:52:02Z</time>
      </trkpt>
      <trkpt lat="60.251727104187012" lon="30.488884449005127">
        <time>2026-08-29T08:52:04Z</time>
      </trkpt>
      <trkpt lat="60.251684188842773" lon="30.488927364349365">
        <time>2026-08-29T08:52:07Z</time>
      </trkpt>
      <trkpt lat="60.251705646514893" lon="30.488948822021484">
        <time>2026-08-29T08:52:14Z</time>
      </trkpt>
      <trkpt lat="60.251748561859131" lon="30.488905906677246">
        <time>2026-08-29T08:52:17Z</time>
      </trkpt>
      <trkpt lat="60.251748561859131" lon="30.488927364349365">
        <time>2026-08-29T08:52:22Z</time>
      </trkpt>
      <trkpt lat="60.251705646514893" lon="30.488970279693604">
        <time>2026-08-29T08:52:27Z</time>
      </trkpt>
      <trkpt lat="60.251727104187012" lon="30.488970279693604">
        <time>2026-08-29T08:52:34Z</time>
      </trkpt>
      <trkpt lat="60.25177001953125" lon="30.488927364349365">
        <time>2026-08-29T08:52:37Z</time>
      </trkpt>
      <trkpt lat="60.251812934875488" lon="30.488905906677246">
        <time>2026-08-29T08:52:39Z</time>
      </trkpt>
      <trkpt lat="60.251791477203369" lon="30.488905906677246">
        <time>2026-08-29T08:52:42Z</time>
      </trkpt>
      <trkpt lat="60.251812934875488" lon="30.488905906677246">
        <time>2026-08-29T08:53:02Z</time>
      </trkpt>
      <trkpt lat="60.251791477203369" lon="30.488905906677246">
        <time>2026-08-29T08:53:14Z</time>
      </trkpt>
      <trkpt lat="60.251748561859131" lon="30.488884449005127">
        <time>2026-08-29T08:53:22Z</time>
      </trkpt>
      <trkpt lat="60.251705646514893" lon="30.488884449005127">
        <time>2026-08-29T08:53:24Z</time>
      </trkpt>
      <trkpt lat="60.251684188842773" lon="30.488927364349365">
        <time>2026-08-29T08:53:27Z</time>
      </trkpt>
      <trkpt lat="60.251705646514893" lon="30.488970279693604">
        <time>2026-08-29T08:53:29Z</time>
      </trkpt>
      <trkpt lat="60.251748561859131" lon="30.489013195037842">
        <time>2026-08-29T08:53:32Z</time>
      </trkpt>
      <trkpt lat="60.25177001953125" lon="30.488991737365723">
        <time>2026-08-29T08:54:02Z</time>
      </trkpt>
      <trkpt lat="60.251727104187012" lon="30.489227771759033">
        <time>2026-08-29T08:54:12Z</time>
      </trkpt>
      <trkpt lat="60.251684188842773" lon="30.489356517791748">
        <time>2026-08-29T08:54:42Z</time>
      </trkpt>
      <trkpt lat="60.251576900482178" lon="30.489656925201416">
        <time>2026-08-29T08:55:12Z</time>
      </trkpt>
      <trkpt lat="60.251491069793701" lon="30.489828586578369">
        <time>2026-08-29T08:55:42Z</time>
      </trkpt>
      <trkpt lat="60.251383781433105" lon="30.490193367004395">
        <time>2026-08-29T08:56:07Z</time>
      </trkpt>
      <trkpt lat="60.251212120056152" lon="30.490429401397705">
        <time>2026-08-29T08:56:29Z</time>
      </trkpt>
      <trkpt lat="60.251147747039795" lon="30.490450859069824">
        <time>2026-08-29T08:56:32Z</time>
      </trkpt>
      <trkpt lat="60.251126289367676" lon="30.490493774414063">
        <time>2026-08-29T08:56:34Z</time>
      </trkpt>
      <trkpt lat="60.251083374023438" lon="30.490515232086182">
        <time>2026-08-29T08:56:37Z</time>
      </trkpt>
      <trkpt lat="60.251061916351318" lon="30.490472316741943">
        <time>2026-08-29T08:56:39Z</time>
      </trkpt>
      <trkpt lat="60.251083374023438" lon="30.490493774414063">
        <time>2026-08-29T08:56:42Z</time>
      </trkpt>
      <trkpt lat="60.251169204711914" lon="30.490622520446777">
        <time>2026-08-29T08:56:54Z</time>
      </trkpt>
      <trkpt lat="60.251169204711914" lon="30.490708351135254">
        <time>2026-08-29T08:56:57Z</time>
      </trkpt>
      <trkpt lat="60.251169204711914" lon="30.490751266479492">
        <time>2026-08-29T08:56:59Z</time>
      </trkpt>
      <trkpt lat="60.251319408416748" lon="30.491116046905518">
        <time>2026-08-29T08:57:27Z</time>
      </trkpt>
      <trkpt lat="60.251297950744629" lon="30.491416454315186">
        <time>2026-08-29T08:57:57Z</time>
      </trkpt>
      <trkpt lat="60.251340866088867" lon="30.49156665802002">
        <time>2026-08-29T08:58:17Z</time>
      </trkpt>
      <trkpt lat="60.251340866088867" lon="30.491480827331543">
        <time>2026-08-29T08:58:47Z</time>
      </trkpt>
      <trkpt lat="60.251340866088867" lon="30.491502285003662">
        <time>2026-08-29T08:58:54Z</time>
      </trkpt>
      <trkpt lat="60.251297950744629" lon="30.491824150085449">
        <time>2026-08-29T08:59:17Z</time>
      </trkpt>
      <trkpt lat="60.251362323760986" lon="30.492081642150879">
        <time>2026-08-29T08:59:32Z</time>
      </trkpt>
      <trkpt lat="60.251340866088867" lon="30.492167472839355">
        <time>2026-08-29T08:59:34Z</time>
      </trkpt>
      <trkpt lat="60.251362323760986" lon="30.492253303527832">
        <time>2026-08-29T08:59:42Z</time>
      </trkpt>
      <trkpt lat="60.251383781433105" lon="30.492317676544189">
        <time>2026-08-29T08:59:44Z</time>
      </trkpt>
      <trkpt lat="60.251426696777344" lon="30.492382049560547">
        <time>2026-08-29T08:59:49Z</time>
      </trkpt>
      <trkpt lat="60.251448154449463" lon="30.492446422576904">
        <time>2026-08-29T08:59:52Z</time>
      </trkpt>
      <trkpt lat="60.251469612121582" lon="30.492467880249023">
        <time>2026-08-29T09:00:09Z</time>
      </trkpt>
      <trkpt lat="60.25151252746582" lon="30.492510795593262">
        <time>2026-08-29T09:00:12Z</time>
      </trkpt>
      <trkpt lat="60.251576900482178" lon="30.492618083953857">
        <time>2026-08-29T09:00:14Z</time>
      </trkpt>
      <trkpt lat="60.251619815826416" lon="30.492768287658691">
        <time>2026-08-29T09:00:17Z</time>
      </trkpt>
      <trkpt lat="60.251619815826416" lon="30.492854118347168">
        <time>2026-08-29T09:00:19Z</time>
      </trkpt>
      <trkpt lat="60.251598358154297" lon="30.492897033691406">
        <time>2026-08-29T09:00:22Z</time>
      </trkpt>
      <trkpt lat="60.251576900482178" lon="30.49281120300293">
        <time>2026-08-29T09:00:24Z</time>
      </trkpt>
      <trkpt lat="60.251555442810059" lon="30.492746829986572">
        <time>2026-08-29T09:00:27Z</time>
      </trkpt>
      <trkpt lat="60.25151252746582" lon="30.492918491363525">
        <time>2026-08-29T09:00:42Z</time>
      </trkpt>
      <trkpt lat="60.251405239105225" lon="30.493240356445313">
        <time>2026-08-29T09:01:12Z</time>
      </trkpt>
      <trkpt lat="60.251405239105225" lon="30.493261814117432">
        <time>2026-08-29T09:01:42Z</time>
      </trkpt>
      <trkpt lat="60.251405239105225" lon="30.493261814117432">
        <time>2026-08-29T09:02:02Z</time>
      </trkpt>
      <trkpt lat="60.251297950744629" lon="30.49330472946167">
        <time>2026-08-29T09:02:24Z</time>
      </trkpt>
      <trkpt lat="60.251255035400391" lon="30.493390560150146">
        <time>2026-08-29T09:02:29Z</time>
      </trkpt>
      <trkpt lat="60.251147747039795" lon="30.493497848510742">
        <time>2026-08-29T09:02:39Z</time>
      </trkpt>
      <trkpt lat="60.25101900100708" lon="30.493454933166504">
        <time>2026-08-29T09:03:09Z</time>
      </trkpt>
      <trkpt lat="60.251040458679199" lon="30.493497848510742">
        <time>2026-08-29T09:03:12Z</time>
      </trkpt>
      <trkpt lat="60.25101900100708" lon="30.493454933166504">
        <time>2026-08-29T09:03:42Z</time>
      </trkpt>
      <trkpt lat="60.250997543334961" lon="30.493025779724121">
        <time>2026-08-29T09:04:04Z</time>
      </trkpt>
      <trkpt lat="60.250933170318604" lon="30.492768287658691">
        <time>2026-08-29T09:04:14Z</time>
      </trkpt>
      <trkpt lat="60.250890254974365" lon="30.492725372314453">
        <time>2026-08-29T09:04:17Z</time>
      </trkpt>
      <trkpt lat="60.250825881958008" lon="30.492639541625977">
        <time>2026-08-29T09:04:19Z</time>
      </trkpt>
      <trkpt lat="60.250718593597412" lon="30.492274761199951">
        <time>2026-08-29T09:04:39Z</time>
      </trkpt>
      <trkpt lat="60.250697135925293" lon="30.492188930511475">
        <time>2026-08-29T09:04:42Z</time>
      </trkpt>
      <trkpt lat="60.250718593597412" lon="30.492124557495117">
        <time>2026-08-29T09:04:44Z</time>
      </trkpt>
      <trkpt lat="60.250718593597412" lon="30.492146015167236">
        <time>2026-08-29T09:04:47Z</time>
      </trkpt>
      <trkpt lat="60.250740051269531" lon="30.492146015167236">
        <time>2026-08-29T09:04:54Z</time>
      </trkpt>
      <trkpt lat="60.250718593597412" lon="30.492081642150879">
        <time>2026-08-29T09:04:57Z</time>
      </trkpt>
      <trkpt lat="60.250718593597412" lon="30.491974353790283">
        <time>2026-08-29T09:04:59Z</time>
      </trkpt>
      <trkpt lat="60.250718593597412" lon="30.491931438446045">
        <time>2026-08-29T09:05:02Z</time>
      </trkpt>
      <trkpt lat="60.25076150894165" lon="30.491867065429688">
        <time>2026-08-29T09:05:04Z</time>
      </trkpt>
      <trkpt lat="60.25078296661377" lon="30.491845607757568">
        <time>2026-08-29T09:05:07Z</time>
      </trkpt>
      <trkpt lat="60.250804424285889" lon="30.491845607757568">
        <time>2026-08-29T09:05:09Z</time>
      </trkpt>
      <trkpt lat="60.250847339630127" lon="30.491931438446045">
        <time>2026-08-29T09:05:14Z</time>
      </trkpt>
      <trkpt lat="60.250868797302246" lon="30.491995811462402">
        <time>2026-08-29T09:05:17Z</time>
      </trkpt>
      <trkpt lat="60.250911712646484" lon="30.491867065429688">
        <time>2026-08-29T09:05:29Z</time>
      </trkpt>
      <trkpt lat="60.250933170318604" lon="30.49180269241333">
        <time>2026-08-29T09:05:32Z</time>
      </trkpt>
      <trkpt lat="60.250933170318604" lon="30.491738319396973">
        <time>2026-08-29T09:05:34Z</time>
      </trkpt>
      <trkpt lat="60.250933170318604" lon="30.491652488708496">
        <time>2026-08-29T09:05:37Z</time>
      </trkpt>
      <trkpt lat="60.250954627990723" lon="30.491588115692139">
        <time>2026-08-29T09:05:39Z</time>
      </trkpt>
      <trkpt lat="60.250976085662842" lon="30.491502285003662">
        <time>2026-08-29T09:05:42Z</time>
      </trkpt>
      <trkpt lat="60.250954627990723" lon="30.491287708282471">
        <time>2026-08-29T09:05:57Z</time>
      </trkpt>
      <trkpt lat="60.250933170318604" lon="30.491223335266113">
        <time>2026-08-29T09:05:59Z</time>
      </trkpt>
      <trkpt lat="60.250868797302246" lon="30.491008758544922">
        <time>2026-08-29T09:06:09Z</time>
      </trkpt>
      <trkpt lat="60.250868797302246" lon="30.490922927856445">
        <time>2026-08-29T09:06:12Z</time>
      </trkpt>
      <trkpt lat="60.250847339630127" lon="30.490837097167969">
        <time>2026-08-29T09:06:14Z</time>
      </trkpt>
      <trkpt lat="60.250847339630127" lon="30.490880012512207">
        <time>2026-08-29T09:06:17Z</time>
      </trkpt>
      <trkpt lat="60.250868797302246" lon="30.490987300872803">
        <time>2026-08-29T09:06:19Z</time>
      </trkpt>
      <trkpt lat="60.250890254974365" lon="30.49105167388916">
        <time>2026-08-29T09:06:22Z</time>
      </trkpt>
      <trkpt lat="60.250890254974365" lon="30.491116046905518">
        <time>2026-08-29T09:06:24Z</time>
      </trkpt>
      <trkpt lat="60.250890254974365" lon="30.491094589233398">
        <time>2026-08-29T09:06:54Z</time>
      </trkpt>
      <trkpt lat="60.250911712646484" lon="30.491094589233398">
        <time>2026-08-29T09:07:07Z</time>
      </trkpt>
      <trkpt lat="60.250911712646484" lon="30.491094589233398">
        <time>2026-08-29T09:07:37Z</time>
      </trkpt>
      <trkpt lat="60.250976085662842" lon="30.490772724151611">
        <time>2026-08-29T09:07:49Z</time>
      </trkpt>
      <trkpt lat="60.250976085662842" lon="30.490343570709229">
        <time>2026-08-29T09:08:17Z</time>
      </trkpt>
      <trkpt lat="60.250976085662842" lon="30.489892959594727">
        <time>2026-08-29T09:08:47Z</time>
      </trkpt>
      <trkpt lat="60.250997543334961" lon="30.489764213562012">
        <time>2026-08-29T09:08:49Z</time>
      </trkpt>
      <trkpt lat="60.25101900100708" lon="30.489656925201416">
        <time>2026-08-29T09:08:52Z</time>
      </trkpt>
      <trkpt lat="60.25101900100708" lon="30.489528179168701">
        <time>2026-08-29T09:08:54Z</time>
      </trkpt>
      <trkpt lat="60.251061916351318" lon="30.489506721496582">
        <time>2026-08-29T09:09:02Z</time>
      </trkpt>
      <trkpt lat="60.251104831695557" lon="30.489506721496582">
        <time>2026-08-29T09:09:04Z</time>
      </trkpt>
      <trkpt lat="60.251147747039795" lon="30.489442348480225">
        <time>2026-08-29T09:09:07Z</time>
      </trkpt>
      <trkpt lat="60.251147747039795" lon="30.489335060119629">
        <time>2026-08-29T09:09:09Z</time>
      </trkpt>
      <trkpt lat="60.251147747039795" lon="30.489227771759033">
        <time>2026-08-29T09:09:12Z</time>
      </trkpt>
      <trkpt lat="60.251169204711914" lon="30.489292144775391">
        <time>2026-08-29T09:09:22Z</time>
      </trkpt>
      <trkpt lat="60.251212120056152" lon="30.489292144775391">
        <time>2026-08-29T09:09:24Z</time>
      </trkpt>
      <trkpt lat="60.251212120056152" lon="30.489227771759033">
        <time>2026-08-29T09:09:27Z</time>
      </trkpt>
      <trkpt lat="60.251255035400391" lon="30.489163398742676">
        <time>2026-08-29T09:09:29Z</time>
      </trkpt>
      <trkpt lat="60.251297950744629" lon="30.489077568054199">
        <time>2026-08-29T09:09:32Z</time>
      </trkpt>
      <trkpt lat="60.251319408416748" lon="30.488991737365723">
        <time>2026-08-29T09:09:34Z</time>
      </trkpt>
      <trkpt lat="60.251340866088867" lon="30.488905906677246">
        <time>2026-08-29T09:09:37Z</time>
      </trkpt>
      <trkpt lat="60.251362323760986" lon="30.48879861831665">
        <time>2026-08-29T09:09:39Z</time>
      </trkpt>
      <trkpt lat="60.251340866088867" lon="30.488648414611816">
        <time>2026-08-29T09:09:44Z</time>
      </trkpt>
      <trkpt lat="60.251297950744629" lon="30.488605499267578">
        <time>2026-08-29T09:09:47Z</time>
      </trkpt>
      <trkpt lat="60.251297950744629" lon="30.488669872283936">
        <time>2026-08-29T09:09:49Z</time>
      </trkpt>
      <trkpt lat="60.251319408416748" lon="30.488734245300293">
        <time>2026-08-29T09:09:52Z</time>
      </trkpt>
      <trkpt lat="60.251340866088867" lon="30.488755702972412">
        <time>2026-08-29T09:09:54Z</time>
      </trkpt>
      <trkpt lat="60.251297950744629" lon="30.488777160644531">
        <time>2026-08-29T09:09:59Z</time>
      </trkpt>
      <trkpt lat="60.251255035400391" lon="30.488755702972412">
        <time>2026-08-29T09:10:02Z</time>
      </trkpt>
      <trkpt lat="60.251255035400391" lon="30.488669872283936">
        <time>2026-08-29T09:10:12Z</time>
      </trkpt>
      <trkpt lat="60.251190662384033" lon="30.488476753234863">
        <time>2026-08-29T09:10:19Z</time>
      </trkpt>
      <trkpt lat="60.251169204711914" lon="30.488369464874268">
        <time>2026-08-29T09:10:22Z</time>
      </trkpt>
      <trkpt lat="60.251169204711914" lon="30.48830509185791">
        <time>2026-08-29T09:10:24Z</time>
      </trkpt>
      <trkpt lat="60.251190662384033" lon="30.488283634185791">
        <time>2026-08-29T09:10:27Z</time>
      </trkpt>
      <trkpt lat="60.251190662384033" lon="30.488326549530029">
        <time>2026-08-29T09:10:29Z</time>
      </trkpt>
      <trkpt lat="60.251190662384033" lon="30.488369464874268">
        <time>2026-08-29T09:10:32Z</time>
      </trkpt>
      <trkpt lat="60.251169204711914" lon="30.488476753234863">
        <time>2026-08-29T09:10:39Z</time>
      </trkpt>
      <trkpt lat="60.251212120056152" lon="30.48856258392334">
        <time>2026-08-29T09:10:44Z</time>
      </trkpt>
      <trkpt lat="60.251212120056152" lon="30.488605499267578">
        <time>2026-08-29T09:11:14Z</time>
      </trkpt>
      <trkpt lat="60.251147747039795" lon="30.488519668579102">
        <time>2026-08-29T09:11:32Z</time>
      </trkpt>
      <trkpt lat="60.251040458679199" lon="30.488412380218506">
        <time>2026-08-29T09:11:42Z</time>
      </trkpt>
      <trkpt lat="60.250868797302246" lon="30.488240718841553">
        <time>2026-08-29T09:11:59Z</time>
      </trkpt>
      <trkpt lat="60.250890254974365" lon="30.48830509185791">
        <time>2026-08-29T09:12:04Z</time>
      </trkpt>
      <trkpt lat="60.250933170318604" lon="30.488369464874268">
        <time>2026-08-29T09:12:07Z</time>
      </trkpt>
      <trkpt lat="60.25101900100708" lon="30.488004684448242">
        <time>2026-08-29T09:12:37Z</time>
      </trkpt>
      <trkpt lat="60.251040458679199" lon="30.487704277038574">
        <time>2026-08-29T09:13:07Z</time>
      </trkpt>
      <trkpt lat="60.251083374023438" lon="30.487296581268311">
        <time>2026-08-29T09:13:27Z</time>
      </trkpt>
      <trkpt lat="60.251083374023438" lon="30.487210750579834">
        <time>2026-08-29T09:13:29Z</time>
      </trkpt>
      <trkpt lat="60.251104831695557" lon="30.487060546875">
        <time>2026-08-29T09:13:34Z</time>
      </trkpt>
      <trkpt lat="60.251126289367676" lon="30.486910343170166">
        <time>2026-08-29T09:13:39Z</time>
      </trkpt>
      <trkpt lat="60.251147747039795" lon="30.486674308776855">
        <time>2026-08-29T09:13:44Z</time>
      </trkpt>
      <trkpt lat="60.251147747039795" lon="30.486524105072021">
        <time>2026-08-29T09:13:47Z</time>
      </trkpt>
      <trkpt lat="60.251147747039795" lon="30.486438274383545">
        <time>2026-08-29T09:13:49Z</time>
      </trkpt>
      <trkpt lat="60.251169204711914" lon="30.486459732055664">
        <time>2026-08-29T09:13:52Z</time>
      </trkpt>
      <trkpt lat="60.251212120056152" lon="30.486502647399902">
        <time>2026-08-29T09:13:54Z</time>
      </trkpt>
      <trkpt lat="60.251190662384033" lon="30.48656702041626">
        <time>2026-08-29T09:13:57Z</time>
      </trkpt>
      <trkpt lat="60.251190662384033" lon="30.486609935760498">
        <time>2026-08-29T09:13:59Z</time>
      </trkpt>
      <trkpt lat="60.251190662384033" lon="30.486652851104736">
        <time>2026-08-29T09:14:02Z</time>
      </trkpt>
      <trkpt lat="60.251212120056152" lon="30.486717224121094">
        <time>2026-08-29T09:14:04Z</time>
      </trkpt>
      <trkpt lat="60.251233577728271" lon="30.486781597137451">
        <time>2026-08-29T09:14:07Z</time>
      </trkpt>
      <trkpt lat="60.25127649307251" lon="30.486760139465332">
        <time>2026-08-29T09:14:09Z</time>
      </trkpt>
      <trkpt lat="60.25127649307251" lon="30.486738681793213">
        <time>2026-08-29T09:14:12Z</time>
      </trkpt>
      <trkpt lat="60.251297950744629" lon="30.48680305480957">
        <time>2026-08-29T09:14:14Z</time>
      </trkpt>
      <trkpt lat="60.251383781433105" lon="30.486781597137451">
        <time>2026-08-29T09:14:22Z</time>
      </trkpt>
      <trkpt lat="60.251405239105225" lon="30.486910343170166">
        <time>2026-08-29T09:14:27Z</time>
      </trkpt>
      <trkpt lat="60.251405239105225" lon="30.486931800842285">
        <time>2026-08-29T09:14:29Z</time>
      </trkpt>
      <trkpt lat="60.251362323760986" lon="30.486910343170166">
        <time>2026-08-29T09:14:32Z</time>
      </trkpt>
      <trkpt lat="60.251340866088867" lon="30.486824512481689">
        <time>2026-08-29T09:14:34Z</time>
      </trkpt>
      <trkpt lat="60.25127649307251" lon="30.486760139465332">
        <time>2026-08-29T09:14:37Z</time>
      </trkpt>
      <trkpt lat="60.251233577728271" lon="30.486717224121094">
        <time>2026-08-29T09:14:39Z</time>
      </trkpt>
      <trkpt lat="60.251255035400391" lon="30.486717224121094">
        <time>2026-08-29T09:15:09Z</time>
      </trkpt>
      <trkpt lat="60.251233577728271" lon="30.486717224121094">
        <time>2026-08-29T09:15:19Z</time>
      </trkpt>
      <trkpt lat="60.251126289367676" lon="30.486631393432617">
        <time>2026-08-29T09:15:39Z</time>
      </trkpt>
      <trkpt lat="60.251190662384033" lon="30.486524105072021">
        <time>2026-08-29T09:15:47Z</time>
      </trkpt>
      <trkpt lat="60.251212120056152" lon="30.486481189727783">
        <time>2026-08-29T09:15:49Z</time>
      </trkpt>
      <trkpt lat="60.251233577728271" lon="30.486481189727783">
        <time>2026-08-29T09:15:54Z</time>
      </trkpt>
      <trkpt lat="60.251340866088867" lon="30.486137866973877">
        <time>2026-08-29T09:16:19Z</time>
      </trkpt>
      <trkpt lat="60.251340866088867" lon="30.48607349395752">
        <time>2026-08-29T09:16:22Z</time>
      </trkpt>
      <trkpt lat="60.251340866088867" lon="30.485665798187256">
        <time>2026-08-29T09:16:47Z</time>
      </trkpt>
      <trkpt lat="60.251405239105225" lon="30.485429763793945">
        <time>2026-08-29T09:17:17Z</time>
      </trkpt>
      <trkpt lat="60.251448154449463" lon="30.485279560089111">
        <time>2026-08-29T09:17:47Z</time>
      </trkpt>
      <trkpt lat="60.251448154449463" lon="30.485107898712158">
        <time>2026-08-29T09:18:07Z</time>
      </trkpt>
      <trkpt lat="60.251491069793701" lon="30.484914779663086">
        <time>2026-08-29T09:18:37Z</time>
      </trkpt>
      <trkpt lat="60.251448154449463" lon="30.484871864318848">
        <time>2026-08-29T09:18:44Z</time>
      </trkpt>
      <trkpt lat="60.251426696777344" lon="30.484786033630371">
        <time>2026-08-29T09:19:14Z</time>
      </trkpt>
      <trkpt lat="60.251426696777344" lon="30.484828948974609">
        <time>2026-08-29T09:19:44Z</time>
      </trkpt>
      <trkpt lat="60.251426696777344" lon="30.484828948974609">
        <time>2026-08-29T09:20:14Z</time>
      </trkpt>
      <trkpt lat="60.251426696777344" lon="30.484828948974609">
        <time>2026-08-29T09:20:44Z</time>
      </trkpt>
      <trkpt lat="60.251362323760986" lon="30.484850406646729">
        <time>2026-08-29T09:23:12Z</time>
      </trkpt>
      <trkpt lat="60.251362323760986" lon="30.484850406646729">
        <time>2026-08-29T09:23:42Z</time>
      </trkpt>
      <trkpt lat="60.251340866088867" lon="30.484850406646729">
        <time>2026-08-29T09:24:12Z</time>
      </trkpt>
      <trkpt lat="60.251147747039795" lon="30.484764575958252">
        <time>2026-08-29T09:24:19Z</time>
      </trkpt>
      <trkpt lat="60.250933170318604" lon="30.48480749130249">
        <time>2026-08-29T09:24:49Z</time>
      </trkpt>
      <trkpt lat="60.250847339630127" lon="30.484743118286133">
        <time>2026-08-29T09:25:19Z</time>
      </trkpt>
      <trkpt lat="60.250868797302246" lon="30.484828948974609">
        <time>2026-08-29T09:25:44Z</time>
      </trkpt>
      <trkpt lat="60.250890254974365" lon="30.484850406646729">
        <time>2026-08-29T09:26:14Z</time>
      </trkpt>
      <trkpt lat="60.250868797302246" lon="30.484850406646729">
        <time>2026-08-29T09:26:44Z</time>
      </trkpt>
      <trkpt lat="60.250868797302246" lon="30.484828948974609">
        <time>2026-08-29T09:27:14Z</time>
      </trkpt>
      <trkpt lat="60.250847339630127" lon="30.485043525695801">
        <time>2026-08-29T09:27:44Z</time>
      </trkpt>
      <trkpt lat="60.250825881958008" lon="30.485150814056396">
        <time>2026-08-29T09:27:52Z</time>
      </trkpt>
      <trkpt lat="60.25076150894165" lon="30.485429763793945">
        <time>2026-08-29T09:28:22Z</time>
      </trkpt>
      <trkpt lat="60.25076150894165" lon="30.485537052154541">
        <time>2026-08-29T09:28:34Z</time>
      </trkpt>
      <trkpt lat="60.25076150894165" lon="30.485773086547852">
        <time>2026-08-29T09:29:04Z</time>
      </trkpt>
      <trkpt lat="60.250654220581055" lon="30.486137866973877">
        <time>2026-08-29T09:29:29Z</time>
      </trkpt>
      <trkpt lat="60.250632762908936" lon="30.486481189727783">
        <time>2026-08-29T09:29:52Z</time>
      </trkpt>
      <trkpt lat="60.250611305236816" lon="30.486545562744141">
        <time>2026-08-29T09:29:54Z</time>
      </trkpt>
      <trkpt lat="60.250568389892578" lon="30.486588478088379">
        <time>2026-08-29T09:29:57Z</time>
      </trkpt>
      <trkpt lat="60.250589847564697" lon="30.486524105072021">
        <time>2026-08-29T09:29:59Z</time>
      </trkpt>
      <trkpt lat="60.250504016876221" lon="30.486867427825928">
        <time>2026-08-29T09:30:29Z</time>
      </trkpt>
      <trkpt lat="60.250504016876221" lon="30.486931800842285">
        <time>2026-08-29T09:30:59Z</time>
      </trkpt>
      <trkpt lat="60.250568389892578" lon="30.487339496612549">
        <time>2026-08-29T09:31:29Z</time>
      </trkpt>
      <trkpt lat="60.25052547454834" lon="30.487468242645264">
        <time>2026-08-29T09:31:59Z</time>
      </trkpt>
      <trkpt lat="60.250589847564697" lon="30.487532615661621">
        <time>2026-08-29T09:32:27Z</time>
      </trkpt>
      <trkpt lat="60.25052547454834" lon="30.487639904022217">
        <time>2026-08-29T09:32:57Z</time>
      </trkpt>
      <trkpt lat="60.250568389892578" lon="30.487532615661621">
        <time>2026-08-29T09:33:27Z</time>
      </trkpt>
      <trkpt lat="60.250589847564697" lon="30.487532615661621">
        <time>2026-08-29T09:33:57Z</time>
      </trkpt>
      <trkpt lat="60.250589847564697" lon="30.487532615661621">
        <time>2026-08-29T09:34:27Z</time>
      </trkpt>
      <trkpt lat="60.250546932220459" lon="30.487875938415527">
        <time>2026-08-29T09:34:47Z</time>
      </trkpt>
      <trkpt lat="60.250589847564697" lon="30.487961769104004">
        <time>2026-08-29T09:34:54Z</time>
      </trkpt>
      <trkpt lat="60.250611305236816" lon="30.488004684448242">
        <time>2026-08-29T09:34:57Z</time>
      </trkpt>
      <trkpt lat="60.250568389892578" lon="30.488433837890625">
        <time>2026-08-29T09:35:19Z</time>
      </trkpt>
      <trkpt lat="60.250546932220459" lon="30.488905906677246">
        <time>2026-08-29T09:35:44Z</time>
      </trkpt>
      <trkpt lat="60.250568389892578" lon="30.489034652709961">
        <time>2026-08-29T09:35:49Z</time>
      </trkpt>
      <trkpt lat="60.250504016876221" lon="30.489163398742676">
        <time>2026-08-29T09:35:59Z</time>
      </trkpt>
      <trkpt lat="60.250482559204102" lon="30.489227771759033">
        <time>2026-08-29T09:36:02Z</time>
      </trkpt>
      <trkpt lat="60.250439643859863" lon="30.48931360244751">
        <time>2026-08-29T09:36:04Z</time>
      </trkpt>
      <trkpt lat="60.250418186187744" lon="30.489270687103271">
        <time>2026-08-29T09:36:07Z</time>
      </trkpt>
      <trkpt lat="60.250396728515625" lon="30.489721298217773">
        <time>2026-08-29T09:36:34Z</time>
      </trkpt>
      <trkpt lat="60.250396728515625" lon="30.48980712890625">
        <time>2026-08-29T09:36:37Z</time>
      </trkpt>
      <trkpt lat="60.250375270843506" lon="30.489914417266846">
        <time>2026-08-29T09:36:39Z</time>
      </trkpt>
      <trkpt lat="60.250418186187744" lon="30.489957332611084">
        <time>2026-08-29T09:36:42Z</time>
      </trkpt>
      <trkpt lat="60.250482559204102" lon="30.490043163299561">
        <time>2026-08-29T09:36:47Z</time>
      </trkpt>
      <trkpt lat="60.250546932220459" lon="30.490150451660156">
        <time>2026-08-29T09:36:49Z</time>
      </trkpt>
      <trkpt lat="60.25052547454834" lon="30.490236282348633">
        <time>2026-08-29T09:36:52Z</time>
      </trkpt>
      <trkpt lat="60.250546932220459" lon="30.490279197692871">
        <time>2026-08-29T09:36:54Z</time>
      </trkpt>
      <trkpt lat="60.250632762908936" lon="30.490407943725586">
        <time>2026-08-29T09:37:04Z</time>
      </trkpt>
      <trkpt lat="60.250611305236816" lon="30.490450859069824">
        <time>2026-08-29T09:37:07Z</time>
      </trkpt>
      <trkpt lat="60.250568389892578" lon="30.490472316741943">
        <time>2026-08-29T09:37:09Z</time>
      </trkpt>
      <trkpt lat="60.250568389892578" lon="30.490450859069824">
        <time>2026-08-29T09:37:12Z</time>
      </trkpt>
      <trkpt lat="60.250504016876221" lon="30.490472316741943">
        <time>2026-08-29T09:37:42Z</time>
      </trkpt>
      <trkpt lat="60.250504016876221" lon="30.490472316741943">
        <time>2026-08-29T09:37:52Z</time>
      </trkpt>
      <trkpt lat="60.250504016876221" lon="30.490450859069824">
        <time>2026-08-29T09:37:57Z</time>
      </trkpt>
      <trkpt lat="60.250482559204102" lon="30.490472316741943">
        <time>2026-08-29T09:38:27Z</time>
      </trkpt>
      <trkpt lat="60.250418186187744" lon="30.490601062774658">
        <time>2026-08-29T09:38:39Z</time>
      </trkpt>
      <trkpt lat="60.250396728515625" lon="30.490665435791016">
        <time>2026-08-29T09:38:42Z</time>
      </trkpt>
      <trkpt lat="60.250353813171387" lon="30.490751266479492">
        <time>2026-08-29T09:38:44Z</time>
      </trkpt>
      <trkpt lat="60.250353813171387" lon="30.49079418182373">
        <time>2026-08-29T09:38:47Z</time>
      </trkpt>
      <trkpt lat="60.250375270843506" lon="30.49081563949585">
        <time>2026-08-29T09:38:49Z</time>
      </trkpt>
      <trkpt lat="60.250289440155029" lon="30.491030216217041">
        <time>2026-08-29T09:39:09Z</time>
      </trkpt>
      <trkpt lat="60.250246524810791" lon="30.491008758544922">
        <time>2026-08-29T09:39:12Z</time>
      </trkpt>
      <trkpt lat="60.250310897827148" lon="30.491116046905518">
        <time>2026-08-29T09:39:19Z</time>
      </trkpt>
      <trkpt lat="60.25026798248291" lon="30.491244792938232">
        <time>2026-08-29T09:39:29Z</time>
      </trkpt>
      <trkpt lat="60.250246524810791" lon="30.49130916595459">
        <time>2026-08-29T09:39:32Z</time>
      </trkpt>
      <trkpt lat="60.250182151794434" lon="30.491480827331543">
        <time>2026-08-29T09:39:47Z</time>
      </trkpt>
      <trkpt lat="60.250225067138672" lon="30.4915452003479">
        <time>2026-08-29T09:39:49Z</time>
      </trkpt>
      <trkpt lat="60.25026798248291" lon="30.491867065429688">
        <time>2026-08-29T09:40:04Z</time>
      </trkpt>
      <trkpt lat="60.250289440155029" lon="30.491952896118164">
        <time>2026-08-29T09:40:07Z</time>
      </trkpt>
      <trkpt lat="60.250246524810791" lon="30.49206018447876">
        <time>2026-08-29T09:40:09Z</time>
      </trkpt>
      <trkpt lat="60.250225067138672" lon="30.492103099822998">
        <time>2026-08-29T09:40:12Z</time>
      </trkpt>
      <trkpt lat="60.250182151794434" lon="30.492103099822998">
        <time>2026-08-29T09:40:19Z</time>
      </trkpt>
      <trkpt lat="60.250182151794434" lon="30.492146015167236">
        <time>2026-08-29T09:40:29Z</time>
      </trkpt>
      <trkpt lat="60.250203609466553" lon="30.492146015167236">
        <time>2026-08-29T09:40:32Z</time>
      </trkpt>
      <trkpt lat="60.25026798248291" lon="30.492210388183594">
        <time>2026-08-29T09:40:37Z</time>
      </trkpt>
      <trkpt lat="60.250289440155029" lon="30.49229621887207">
        <time>2026-08-29T09:40:39Z</time>
      </trkpt>
      <trkpt lat="60.250482559204102" lon="30.492489337921143">
        <time>2026-08-29T09:41:02Z</time>
      </trkpt>
      <trkpt lat="60.250504016876221" lon="30.492403507232666">
        <time>2026-08-29T09:41:04Z</time>
      </trkpt>
      <trkpt lat="60.250568389892578" lon="30.492317676544189">
        <time>2026-08-29T09:41:07Z</time>
      </trkpt>
      <trkpt lat="60.250589847564697" lon="30.492210388183594">
        <time>2026-08-29T09:41:09Z</time>
      </trkpt>
      <trkpt lat="60.250611305236816" lon="30.492231845855713">
        <time>2026-08-29T09:41:12Z</time>
      </trkpt>
      <trkpt lat="60.250611305236816" lon="30.492274761199951">
        <time>2026-08-29T09:41:14Z</time>
      </trkpt>
      <trkpt lat="60.250568389892578" lon="30.492317676544189">
        <time>2026-08-29T09:41:17Z</time>
      </trkpt>
      <trkpt lat="60.250375270843506" lon="30.492575168609619">
        <time>2026-08-29T09:41:39Z</time>
      </trkpt>
      <trkpt lat="60.250418186187744" lon="30.4925537109375">
        <time>2026-08-29T09:41:42Z</time>
      </trkpt>
      <trkpt lat="60.250418186187744" lon="30.4925537109375">
        <time>2026-08-29T09:41:44Z</time>
      </trkpt>
      <trkpt lat="60.250353813171387" lon="30.493004322052002">
        <time>2026-08-29T09:42:09Z</time>
      </trkpt>
      <trkpt lat="60.250375270843506" lon="30.493111610412598">
        <time>2026-08-29T09:42:12Z</time>
      </trkpt>
      <trkpt lat="60.250396728515625" lon="30.493090152740479">
        <time>2026-08-29T09:42:14Z</time>
      </trkpt>
      <trkpt lat="60.250439643859863" lon="30.493090152740479">
        <time>2026-08-29T09:42:17Z</time>
      </trkpt>
      <trkpt lat="60.250504016876221" lon="30.493197441101074">
        <time>2026-08-29T09:42:22Z</time>
      </trkpt>
      <trkpt lat="60.250439643859863" lon="30.493218898773193">
        <time>2026-08-29T09:42:27Z</time>
      </trkpt>
      <trkpt lat="60.250396728515625" lon="30.493154525756836">
        <time>2026-08-29T09:42:29Z</time>
      </trkpt>
      <trkpt lat="60.250332355499268" lon="30.493068695068359">
        <time>2026-08-29T09:42:32Z</time>
      </trkpt>
      <trkpt lat="60.250396728515625" lon="30.492961406707764">
        <time>2026-08-29T09:42:39Z</time>
      </trkpt>
      <trkpt lat="60.250353813171387" lon="30.492961406707764">
        <time>2026-08-29T09:42:49Z</time>
      </trkpt>
      <trkpt lat="60.250396728515625" lon="30.493090152740479">
        <time>2026-08-29T09:42:52Z</time>
      </trkpt>
      <trkpt lat="60.250353813171387" lon="30.493090152740479">
        <time>2026-08-29T09:42:54Z</time>
      </trkpt>
      <trkpt lat="60.250310897827148" lon="30.493133068084717">
        <time>2026-08-29T09:42:57Z</time>
      </trkpt>
      <trkpt lat="60.250289440155029" lon="30.493197441101074">
        <time>2026-08-29T09:42:59Z</time>
      </trkpt>
      <trkpt lat="60.250225067138672" lon="30.493175983428955">
        <time>2026-08-29T09:43:02Z</time>
      </trkpt>
      <trkpt lat="60.250160694122314" lon="30.493133068084717">
        <time>2026-08-29T09:43:04Z</time>
      </trkpt>
      <trkpt lat="60.250139236450195" lon="30.493090152740479">
        <time>2026-08-29T09:43:07Z</time>
      </trkpt>
      <trkpt lat="60.250139236450195" lon="30.493175983428955">
        <time>2026-08-29T09:43:37Z</time>
      </trkpt>
      <trkpt lat="60.250139236450195" lon="30.493197441101074">
        <time>2026-08-29T09:44:02Z</time>
      </trkpt>
      <trkpt lat="60.250139236450195" lon="30.493197441101074">
        <time>2026-08-29T09:44:32Z</time>
      </trkpt>
      <trkpt lat="60.249989032745361" lon="30.493347644805908">
        <time>2026-08-29T09:44:39Z</time>
      </trkpt>
      <trkpt lat="60.249946117401123" lon="30.49330472946167">
        <time>2026-08-29T09:45:09Z</time>
      </trkpt>
      <trkpt lat="60.249967575073242" lon="30.493218898773193">
        <time>2026-08-29T09:45:19Z</time>
      </trkpt>
      <trkpt lat="60.249989032745361" lon="30.493154525756836">
        <time>2026-08-29T09:45:22Z</time>
      </trkpt>
      <trkpt lat="60.2500319480896" lon="30.493068695068359">
        <time>2026-08-29T09:45:24Z</time>
      </trkpt>
      <trkpt lat="60.2500319480896" lon="30.492982864379883">
        <time>2026-08-29T09:45:27Z</time>
      </trkpt>
      <trkpt lat="60.249989032745361" lon="30.492918491363525">
        <time>2026-08-29T09:45:29Z</time>
      </trkpt>
      <trkpt lat="60.249946117401123" lon="30.492897033691406">
        <time>2026-08-29T09:45:32Z</time>
      </trkpt>
      <trkpt lat="60.249946117401123" lon="30.492789745330811">
        <time>2026-08-29T09:45:44Z</time>
      </trkpt>
      <trkpt lat="60.249967575073242" lon="30.492768287658691">
        <time>2026-08-29T09:45:47Z</time>
      </trkpt>
      <trkpt lat="60.25001049041748" lon="30.492832660675049">
        <time>2026-08-29T09:45:49Z</time>
      </trkpt>
      <trkpt lat="60.250053405761719" lon="30.492897033691406">
        <time>2026-08-29T09:45:52Z</time>
      </trkpt>
      <trkpt lat="60.2500319480896" lon="30.492982864379883">
        <time>2026-08-29T09:45:54Z</time>
      </trkpt>
      <trkpt lat="60.249989032745361" lon="30.49304723739624">
        <time>2026-08-29T09:45:57Z</time>
      </trkpt>
      <trkpt lat="60.249989032745361" lon="30.492918491363525">
        <time>2026-08-29T09:46:27Z</time>
      </trkpt>
      <trkpt lat="60.249860286712646" lon="30.49281120300293">
        <time>2026-08-29T09:46:57Z</time>
      </trkpt>
      <trkpt lat="60.249817371368408" lon="30.493133068084717">
        <time>2026-08-29T09:47:27Z</time>
      </trkpt>
      <trkpt lat="60.249838829040527" lon="30.493111610412598">
        <time>2026-08-29T09:47:57Z</time>
      </trkpt>
      <trkpt lat="60.249838829040527" lon="30.493133068084717">
        <time>2026-08-29T09:48:09Z</time>
      </trkpt>
      <trkpt lat="60.249817371368408" lon="30.493111610412598">
        <time>2026-08-29T09:48:39Z</time>
      </trkpt>
      <trkpt lat="60.249667167663574" lon="30.492982864379883">
        <time>2026-08-29T09:48:54Z</time>
      </trkpt>
      <trkpt lat="60.249624252319336" lon="30.492832660675049">
        <time>2026-08-29T09:49:02Z</time>
      </trkpt>
      <trkpt lat="60.249688625335693" lon="30.492682456970215">
        <time>2026-08-29T09:49:32Z</time>
      </trkpt>
      <trkpt lat="60.249688625335693" lon="30.492618083953857">
        <time>2026-08-29T09:50:02Z</time>
      </trkpt>
      <trkpt lat="60.249624252319336" lon="30.492274761199951">
        <time>2026-08-29T09:50:27Z</time>
      </trkpt>
      <trkpt lat="60.249581336975098" lon="30.492081642150879">
        <time>2026-08-29T09:50:34Z</time>
      </trkpt>
      <trkpt lat="60.249559879302979" lon="30.492017269134521">
        <time>2026-08-29T09:50:37Z</time>
      </trkpt>
      <trkpt lat="60.249559879302979" lon="30.491909980773926">
        <time>2026-08-29T09:50:39Z</time>
      </trkpt>
      <trkpt lat="60.24951696395874" lon="30.491824150085449">
        <time>2026-08-29T09:50:42Z</time>
      </trkpt>
      <trkpt lat="60.249474048614502" lon="30.491695404052734">
        <time>2026-08-29T09:50:52Z</time>
      </trkpt>
      <trkpt lat="60.249538421630859" lon="30.491738319396973">
        <time>2026-08-29T09:51:02Z</time>
      </trkpt>
      <trkpt lat="60.249602794647217" lon="30.49130916595459">
        <time>2026-08-29T09:51:29Z</time>
      </trkpt>
      <trkpt lat="60.249731540679932" lon="30.491116046905518">
        <time>2026-08-29T09:51:59Z</time>
      </trkpt>
      <trkpt lat="60.249795913696289" lon="30.490708351135254">
        <time>2026-08-29T09:52:24Z</time>
      </trkpt>
      <trkpt lat="60.249752998352051" lon="30.490279197692871">
        <time>2026-08-29T09:52:44Z</time>
      </trkpt>
      <trkpt lat="60.24977445602417" lon="30.490193367004395">
        <time>2026-08-29T09:53:14Z</time>
      </trkpt>
      <trkpt lat="60.249752998352051" lon="30.490171909332275">
        <time>2026-08-29T09:53:42Z</time>
      </trkpt>
      <trkpt lat="60.249752998352051" lon="30.489914417266846">
        <time>2026-08-29T09:54:07Z</time>
      </trkpt>
      <trkpt lat="60.24977445602417" lon="30.489892959594727">
        <time>2026-08-29T09:54:09Z</time>
      </trkpt>
      <trkpt lat="60.249881744384766" lon="30.489571094512939">
        <time>2026-08-29T09:54:39Z</time>
      </trkpt>
      <trkpt lat="60.249817371368408" lon="30.489141941070557">
        <time>2026-08-29T09:55:02Z</time>
      </trkpt>
      <trkpt lat="60.249795913696289" lon="30.488841533660889">
        <time>2026-08-29T09:55:32Z</time>
      </trkpt>
      <trkpt lat="60.249817371368408" lon="30.488648414611816">
        <time>2026-08-29T09:55:49Z</time>
      </trkpt>
      <trkpt lat="60.249860286712646" lon="30.488197803497314">
        <time>2026-08-29T09:56:19Z</time>
      </trkpt>
      <trkpt lat="60.249838829040527" lon="30.487833023071289">
        <time>2026-08-29T09:56:49Z</time>
      </trkpt>
      <trkpt lat="60.249860286712646" lon="30.487747192382813">
        <time>2026-08-29T09:56:52Z</time>
      </trkpt>
      <trkpt lat="60.249924659729004" lon="30.487682819366455">
        <time>2026-08-29T09:57:02Z</time>
      </trkpt>
      <trkpt lat="60.249946117401123" lon="30.487618446350098">
        <time>2026-08-29T09:57:07Z</time>
      </trkpt>
      <trkpt lat="60.25001049041748" lon="30.48731803894043">
        <time>2026-08-29T09:57:37Z</time>
      </trkpt>
      <trkpt lat="60.250074863433838" lon="30.487189292907715">
        <time>2026-08-29T09:58:07Z</time>
      </trkpt>
      <trkpt lat="60.250053405761719" lon="30.486953258514404">
        <time>2026-08-29T09:58:37Z</time>
      </trkpt>
      <trkpt lat="60.2500319480896" lon="30.486910343170166">
        <time>2026-08-29T09:58:59Z</time>
      </trkpt>
      <trkpt lat="60.2500319480896" lon="30.486910343170166">
        <time>2026-08-29T09:59:02Z</time>
      </trkpt>
      <trkpt lat="60.2500319480896" lon="30.486888885498047">
        <time>2026-08-29T09:59:32Z</time>
      </trkpt>
      <trkpt lat="60.250053405761719" lon="30.486867427825928">
        <time>2026-08-29T10:00:02Z</time>
      </trkpt>
      <trkpt lat="60.250074863433838" lon="30.486845970153809">
        <time>2026-08-29T10:00:32Z</time>
      </trkpt>
      <trkpt lat="60.250053405761719" lon="30.486824512481689">
        <time>2026-08-29T10:01:02Z</time>
      </trkpt>
      <trkpt lat="60.250053405761719" lon="30.486845970153809">
        <time>2026-08-29T10:01:32Z</time>
      </trkpt>
      <trkpt lat="60.2500319480896" lon="30.486845970153809">
        <time>2026-08-29T10:02:02Z</time>
      </trkpt>
      <trkpt lat="60.250053405761719" lon="30.486652851104736">
        <time>2026-08-29T10:02:32Z</time>
      </trkpt>
      <trkpt lat="60.2500319480896" lon="30.486631393432617">
        <time>2026-08-29T10:03:02Z</time>
      </trkpt>
      <trkpt lat="60.2500319480896" lon="30.48656702041626">
        <time>2026-08-29T10:03:32Z</time>
      </trkpt>
      <trkpt lat="60.250053405761719" lon="30.486545562744141">
        <time>2026-08-29T10:04:02Z</time>
      </trkpt>
      <trkpt lat="60.2500319480896" lon="30.486524105072021">
        <time>2026-08-29T10:04:32Z</time>
      </trkpt>
      <trkpt lat="60.249989032745361" lon="30.48630952835083">
        <time>2026-08-29T10:05:02Z</time>
      </trkpt>
      <trkpt lat="60.249989032745361" lon="30.486223697662354">
        <time>2026-08-29T10:05:09Z</time>
      </trkpt>
      <trkpt lat="60.249903202056885" lon="30.485730171203613">
        <time>2026-08-29T10:05:39Z</time>
      </trkpt>
      <trkpt lat="60.25001049041748" lon="30.485365390777588">
        <time>2026-08-29T10:05:59Z</time>
      </trkpt>
      <trkpt lat="60.249946117401123" lon="30.485129356384277">
        <time>2026-08-29T10:06:29Z</time>
      </trkpt>
      <trkpt lat="60.249838829040527" lon="30.48480749130249">
        <time>2026-08-29T10:06:59Z</time>
      </trkpt>
      <trkpt lat="60.24977445602417" lon="30.484635829925537">
        <time>2026-08-29T10:07:29Z</time>
      </trkpt>
      <trkpt lat="60.24977445602417" lon="30.484635829925537">
        <time>2026-08-29T10:07:54Z</time>
      </trkpt>
      <trkpt lat="60.249752998352051" lon="30.484635829925537">
        <time>2026-08-29T10:08:24Z</time>
      </trkpt>
      <trkpt lat="60.24977445602417" lon="30.484657287597656">
        <time>2026-08-29T10:08:54Z</time>
      </trkpt>
      <trkpt lat="60.249752998352051" lon="30.484657287597656">
        <time>2026-08-29T10:09:24Z</time>
      </trkpt>
      <trkpt lat="60.24977445602417" lon="30.484657287597656">
        <time>2026-08-29T10:09:54Z</time>
      </trkpt>
      <trkpt lat="60.249752998352051" lon="30.484657287597656">
        <time>2026-08-29T10:10:24Z</time>
      </trkpt>
      <trkpt lat="60.249752998352051" lon="30.484635829925537">
        <time>2026-08-29T10:10:54Z</time>
      </trkpt>
      <trkpt lat="60.249731540679932" lon="30.484635829925537">
        <time>2026-08-29T10:11:24Z</time>
      </trkpt>
      <trkpt lat="60.249538421630859" lon="30.484485626220703">
        <time>2026-08-29T10:11:34Z</time>
      </trkpt>
      <trkpt lat="60.249431133270264" lon="30.484421253204346">
        <time>2026-08-29T10:11:49Z</time>
      </trkpt>
      <trkpt lat="60.249409675598145" lon="30.484378337860107">
        <time>2026-08-29T10:11:52Z</time>
      </trkpt>
      <trkpt lat="60.249345302581787" lon="30.48431396484375">
        <time>2026-08-29T10:12:22Z</time>
      </trkpt>
      <trkpt lat="60.249345302581787" lon="30.48431396484375">
        <time>2026-08-29T10:12:42Z</time>
      </trkpt>
      <trkpt lat="60.249345302581787" lon="30.48431396484375">
        <time>2026-08-29T10:13:12Z</time>
      </trkpt>
      <trkpt lat="60.249345302581787" lon="30.484335422515869">
        <time>2026-08-29T10:13:42Z</time>
      </trkpt>
      <trkpt lat="60.249323844909668" lon="30.484356880187988">
        <time>2026-08-29T10:14:12Z</time>
      </trkpt>
      <trkpt lat="60.249259471893311" lon="30.484421253204346">
        <time>2026-08-29T10:14:27Z</time>
      </trkpt>
      <trkpt lat="60.249195098876953" lon="30.484528541564941">
        <time>2026-08-29T10:14:32Z</time>
      </trkpt>
      <trkpt lat="60.249238014221191" lon="30.484914779663086">
        <time>2026-08-29T10:14:49Z</time>
      </trkpt>
      <trkpt lat="60.249195098876953" lon="30.485386848449707">
        <time>2026-08-29T10:15:02Z</time>
      </trkpt>
      <trkpt lat="60.249216556549072" lon="30.485343933105469">
        <time>2026-08-29T10:15:14Z</time>
      </trkpt>
      <trkpt lat="60.249216556549072" lon="30.485236644744873">
        <time>2026-08-29T10:15:17Z</time>
      </trkpt>
      <trkpt lat="60.24928092956543" lon="30.485365390777588">
        <time>2026-08-29T10:15:27Z</time>
      </trkpt>
      <trkpt lat="60.249152183532715" lon="30.485687255859375">
        <time>2026-08-29T10:15:37Z</time>
      </trkpt>
      <trkpt lat="60.249087810516357" lon="30.485837459564209">
        <time>2026-08-29T10:15:44Z</time>
      </trkpt>
      <trkpt lat="60.249066352844238" lon="30.485944747924805">
        <time>2026-08-29T10:15:47Z</time>
      </trkpt>
      <trkpt lat="60.249130725860596" lon="30.486202239990234">
        <time>2026-08-29T10:15:57Z</time>
      </trkpt>
      <trkpt lat="60.249130725860596" lon="30.486137866973877">
        <time>2026-08-29T10:15:59Z</time>
      </trkpt>
      <trkpt lat="60.249130725860596" lon="30.486094951629639">
        <time>2026-08-29T10:16:02Z</time>
      </trkpt>
      <trkpt lat="60.249195098876953" lon="30.486094951629639">
        <time>2026-08-29T10:16:07Z</time>
      </trkpt>
      <trkpt lat="60.249259471893311" lon="30.486030578613281">
        <time>2026-08-29T10:16:09Z</time>
      </trkpt>
      <trkpt lat="60.249323844909668" lon="30.486009120941162">
        <time>2026-08-29T10:16:12Z</time>
      </trkpt>
      <trkpt lat="60.249388217926025" lon="30.485966205596924">
        <time>2026-08-29T10:16:17Z</time>
      </trkpt>
      <trkpt lat="60.249345302581787" lon="30.486395359039307">
        <time>2026-08-29T10:16:47Z</time>
      </trkpt>
      <trkpt lat="60.249302387237549" lon="30.486674308776855">
        <time>2026-08-29T10:17:04Z</time>
      </trkpt>
      <trkpt lat="60.249259471893311" lon="30.486717224121094">
        <time>2026-08-29T10:17:07Z</time>
      </trkpt>
      <trkpt lat="60.249259471893311" lon="30.486760139465332">
        <time>2026-08-29T10:17:09Z</time>
      </trkpt>
      <trkpt lat="60.24928092956543" lon="30.48680305480957">
        <time>2026-08-29T10:17:12Z</time>
      </trkpt>
      <trkpt lat="60.249216556549072" lon="30.486760139465332">
        <time>2026-08-29T10:17:24Z</time>
      </trkpt>
      <trkpt lat="60.249259471893311" lon="30.48680305480957">
        <time>2026-08-29T10:17:34Z</time>
      </trkpt>
      <trkpt lat="60.24928092956543" lon="30.486717224121094">
        <time>2026-08-29T10:17:37Z</time>
      </trkpt>
      <trkpt lat="60.249238014221191" lon="30.486717224121094">
        <time>2026-08-29T10:18:04Z</time>
      </trkpt>
      <trkpt lat="60.249195098876953" lon="30.486717224121094">
        <time>2026-08-29T10:18:07Z</time>
      </trkpt>
      <trkpt lat="60.249195098876953" lon="30.486781597137451">
        <time>2026-08-29T10:18:09Z</time>
      </trkpt>
      <trkpt lat="60.249152183532715" lon="30.486888885498047">
        <time>2026-08-29T10:18:14Z</time>
      </trkpt>
      <trkpt lat="60.249130725860596" lon="30.487017631530762">
        <time>2026-08-29T10:18:22Z</time>
      </trkpt>
      <trkpt lat="60.2490234375" lon="30.48731803894043">
        <time>2026-08-29T10:18:47Z</time>
      </trkpt>
      <trkpt lat="60.248959064483643" lon="30.487339496612549">
        <time>2026-08-29T10:18:49Z</time>
      </trkpt>
      <trkpt lat="60.248980522155762" lon="30.487382411956787">
        <time>2026-08-29T10:18:52Z</time>
      </trkpt>
      <trkpt lat="60.248959064483643" lon="30.487425327301025">
        <time>2026-08-29T10:18:54Z</time>
      </trkpt>
      <trkpt lat="60.248937606811523" lon="30.487446784973145">
        <time>2026-08-29T10:19:24Z</time>
      </trkpt>
      <trkpt lat="60.249001979827881" lon="30.487511157989502">
        <time>2026-08-29T10:19:29Z</time>
      </trkpt>
      <trkpt lat="60.2490234375" lon="30.487532615661621">
        <time>2026-08-29T10:19:32Z</time>
      </trkpt>
      <trkpt lat="60.2490234375" lon="30.487618446350098">
        <time>2026-08-29T10:19:34Z</time>
      </trkpt>
      <trkpt lat="60.249001979827881" lon="30.487661361694336">
        <time>2026-08-29T10:19:37Z</time>
      </trkpt>
      <trkpt lat="60.248873233795166" lon="30.487768650054932">
        <time>2026-08-29T10:19:42Z</time>
      </trkpt>
      <trkpt lat="60.248873233795166" lon="30.487833023071289">
        <time>2026-08-29T10:19:44Z</time>
      </trkpt>
      <trkpt lat="60.248851776123047" lon="30.487897396087646">
        <time>2026-08-29T10:19:47Z</time>
      </trkpt>
      <trkpt lat="60.248873233795166" lon="30.487790107727051">
        <time>2026-08-29T10:19:54Z</time>
      </trkpt>
      <trkpt lat="60.248894691467285" lon="30.487725734710693">
        <time>2026-08-29T10:19:57Z</time>
      </trkpt>
      <trkpt lat="60.248937606811523" lon="30.487661361694336">
        <time>2026-08-29T10:19:59Z</time>
      </trkpt>
      <trkpt lat="60.248980522155762" lon="30.487639904022217">
        <time>2026-08-29T10:20:02Z</time>
      </trkpt>
      <trkpt lat="60.248980522155762" lon="30.487596988677979">
        <time>2026-08-29T10:20:32Z</time>
      </trkpt>
      <trkpt lat="60.248980522155762" lon="30.487596988677979">
        <time>2026-08-29T10:20:52Z</time>
      </trkpt>
      <trkpt lat="60.249001979827881" lon="30.487833023071289">
        <time>2026-08-29T10:21:22Z</time>
      </trkpt>
      <trkpt lat="60.249001979827881" lon="30.487875938415527">
        <time>2026-08-29T10:21:27Z</time>
      </trkpt>
      <trkpt lat="60.249044895172119" lon="30.488004684448242">
        <time>2026-08-29T10:21:29Z</time>
      </trkpt>
      <trkpt lat="60.2490234375" lon="30.48830509185791">
        <time>2026-08-29T10:21:39Z</time>
      </trkpt>
      <trkpt lat="60.249044895172119" lon="30.488390922546387">
        <time>2026-08-29T10:21:42Z</time>
      </trkpt>
      <trkpt lat="60.249066352844238" lon="30.488412380218506">
        <time>2026-08-29T10:21:44Z</time>
      </trkpt>
      <trkpt lat="60.249066352844238" lon="30.488412380218506">
        <time>2026-08-29T10:21:47Z</time>
      </trkpt>
      <trkpt lat="60.249173641204834" lon="30.488541126251221">
        <time>2026-08-29T10:22:04Z</time>
      </trkpt>
      <trkpt lat="60.24928092956543" lon="30.488498210906982">
        <time>2026-08-29T10:22:19Z</time>
      </trkpt>
      <trkpt lat="60.249388217926025" lon="30.48856258392334">
        <time>2026-08-29T10:22:29Z</time>
      </trkpt>
      <trkpt lat="60.249366760253906" lon="30.48856258392334">
        <time>2026-08-29T10:22:32Z</time>
      </trkpt>
      <trkpt lat="60.249388217926025" lon="30.488476753234863">
        <time>2026-08-29T10:23:02Z</time>
      </trkpt>
      <trkpt lat="60.249388217926025" lon="30.488476753234863">
        <time>2026-08-29T10:23:17Z</time>
      </trkpt>
      <trkpt lat="60.249366760253906" lon="30.488412380218506">
        <time>2026-08-29T10:23:47Z</time>
      </trkpt>
      <trkpt lat="60.249388217926025" lon="30.488498210906982">
        <time>2026-08-29T10:24:17Z</time>
      </trkpt>
      <trkpt lat="60.249409675598145" lon="30.488390922546387">
        <time>2026-08-29T10:24:47Z</time>
      </trkpt>
      <trkpt lat="60.249388217926025" lon="30.488369464874268">
        <time>2026-08-29T10:25:17Z</time>
      </trkpt>
      <trkpt lat="60.249366760253906" lon="30.488369464874268">
        <time>2026-08-29T10:25:47Z</time>
      </trkpt>
      <trkpt lat="60.249302387237549" lon="30.488390922546387">
        <time>2026-08-29T10:26:17Z</time>
      </trkpt>
      <trkpt lat="60.249259471893311" lon="30.488498210906982">
        <time>2026-08-29T10:26:19Z</time>
      </trkpt>
      <trkpt lat="60.249259471893311" lon="30.48856258392334">
        <time>2026-08-29T10:26:22Z</time>
      </trkpt>
      <trkpt lat="60.249238014221191" lon="30.488648414611816">
        <time>2026-08-29T10:26:24Z</time>
      </trkpt>
      <trkpt lat="60.249195098876953" lon="30.488712787628174">
        <time>2026-08-29T10:26:32Z</time>
      </trkpt>
      <trkpt lat="60.2490234375" lon="30.48882007598877">
        <time>2026-08-29T10:26:42Z</time>
      </trkpt>
      <trkpt lat="60.249066352844238" lon="30.488841533660889">
        <time>2026-08-29T10:26:47Z</time>
      </trkpt>
      <trkpt lat="60.249087810516357" lon="30.488927364349365">
        <time>2026-08-29T10:26:49Z</time>
      </trkpt>
      <trkpt lat="60.249044895172119" lon="30.488970279693604">
        <time>2026-08-29T10:26:52Z</time>
      </trkpt>
      <trkpt lat="60.249001979827881" lon="30.489077568054199">
        <time>2026-08-29T10:27:22Z</time>
      </trkpt>
      <trkpt lat="60.248959064483643" lon="30.489120483398437">
        <time>2026-08-29T10:27:52Z</time>
      </trkpt>
      <trkpt lat="60.248916149139404" lon="30.489141941070557">
        <time>2026-08-29T10:28:22Z</time>
      </trkpt>
      <trkpt lat="60.248916149139404" lon="30.489120483398437">
        <time>2026-08-29T10:28:52Z</time>
      </trkpt>
      <trkpt lat="60.248916149139404" lon="30.489141941070557">
        <time>2026-08-29T10:29:22Z</time>
      </trkpt>
      <trkpt lat="60.248959064483643" lon="30.489141941070557">
        <time>2026-08-29T10:29:52Z</time>
      </trkpt>
      <trkpt lat="60.248959064483643" lon="30.489184856414795">
        <time>2026-08-29T10:30:22Z</time>
      </trkpt>
      <trkpt lat="60.248959064483643" lon="30.489528179168701">
        <time>2026-08-29T10:30:34Z</time>
      </trkpt>
      <trkpt lat="60.248916149139404" lon="30.489463806152344">
        <time>2026-08-29T10:31:04Z</time>
      </trkpt>
      <trkpt lat="60.248916149139404" lon="30.489635467529297">
        <time>2026-08-29T10:31:34Z</time>
      </trkpt>
      <trkpt lat="60.248916149139404" lon="30.489678382873535">
        <time>2026-08-29T10:32:04Z</time>
      </trkpt>
      <trkpt lat="60.248894691467285" lon="30.489721298217773">
        <time>2026-08-29T10:32:34Z</time>
      </trkpt>
      <trkpt lat="60.248937606811523" lon="30.489935874938965">
        <time>2026-08-29T10:33:04Z</time>
      </trkpt>
      <trkpt lat="60.248916149139404" lon="30.489978790283203">
        <time>2026-08-29T10:33:07Z</time>
      </trkpt>
      <trkpt lat="60.248937606811523" lon="30.490407943725586">
        <time>2026-08-29T10:33:34Z</time>
      </trkpt>
      <trkpt lat="60.248916149139404" lon="30.49079418182373">
        <time>2026-08-29T10:34:04Z</time>
      </trkpt>
      <trkpt lat="60.248916149139404" lon="30.491116046905518">
        <time>2026-08-29T10:34:34Z</time>
      </trkpt>
      <trkpt lat="60.248980522155762" lon="30.491523742675781">
        <time>2026-08-29T10:34:59Z</time>
      </trkpt>
      <trkpt lat="60.2490234375" lon="30.491931438446045">
        <time>2026-08-29T10:35:29Z</time>
      </trkpt>
      <trkpt lat="60.2490234375" lon="30.49229621887207">
        <time>2026-08-29T10:35:59Z</time>
      </trkpt>
      <trkpt lat="60.2490234375" lon="30.492682456970215">
        <time>2026-08-29T10:36:29Z</time>
      </trkpt>
      <trkpt lat="60.2490234375" lon="30.492746829986572">
        <time>2026-08-29T10:36:59Z</time>
      </trkpt>
      <trkpt lat="60.2490234375" lon="30.492789745330811">
        <time>2026-08-29T10:37:17Z</time>
      </trkpt>
      <trkpt lat="60.249001979827881" lon="30.49281120300293">
        <time>2026-08-29T10:37:47Z</time>
      </trkpt>
      <trkpt lat="60.249001979827881" lon="30.492789745330811">
        <time>2026-08-29T10:38:17Z</time>
      </trkpt>
      <trkpt lat="60.248959064483643" lon="30.492768287658691">
        <time>2026-08-29T10:38:47Z</time>
      </trkpt>
      <trkpt lat="60.248937606811523" lon="30.492660999298096">
        <time>2026-08-29T10:39:09Z</time>
      </trkpt>
      <trkpt lat="60.248830318450928" lon="30.492618083953857">
        <time>2026-08-29T10:39:17Z</time>
      </trkpt>
      <trkpt lat="60.248787403106689" lon="30.492575168609619">
        <time>2026-08-29T10:39:19Z</time>
      </trkpt>
      <trkpt lat="60.248680114746094" lon="30.492618083953857">
        <time>2026-08-29T10:39:49Z</time>
      </trkpt>
      <trkpt lat="60.248637199401855" lon="30.4925537109375">
        <time>2026-08-29T10:40:19Z</time>
      </trkpt>
      <trkpt lat="60.248637199401855" lon="30.4925537109375">
        <time>2026-08-29T10:40:27Z</time>
      </trkpt>
      <trkpt lat="60.248594284057617" lon="30.492489337921143">
        <time>2026-08-29T10:40:57Z</time>
      </trkpt>
      <trkpt lat="60.248508453369141" lon="30.492253303527832">
        <time>2026-08-29T10:41:24Z</time>
      </trkpt>
      <trkpt lat="60.248444080352783" lon="30.492038726806641">
        <time>2026-08-29T10:41:54Z</time>
      </trkpt>
      <trkpt lat="60.248379707336426" lon="30.491673946380615">
        <time>2026-08-29T10:42:24Z</time>
      </trkpt>
      <trkpt lat="60.248358249664307" lon="30.491416454315186">
        <time>2026-08-29T10:42:34Z</time>
      </trkpt>
      <trkpt lat="60.248401165008545" lon="30.491094589233398">
        <time>2026-08-29T10:43:04Z</time>
      </trkpt>
      <trkpt lat="60.248358249664307" lon="30.490901470184326">
        <time>2026-08-29T10:43:34Z</time>
      </trkpt>
      <trkpt lat="60.248293876647949" lon="30.490729808807373">
        <time>2026-08-29T10:43:49Z</time>
      </trkpt>
      <trkpt lat="60.248250961303711" lon="30.490493774414063">
        <time>2026-08-29T10:44:27Z</time>
      </trkpt>
      <trkpt lat="60.248358249664307" lon="30.490150451660156">
        <time>2026-08-29T10:44:57Z</time>
      </trkpt>
      <trkpt lat="60.248358249664307" lon="30.490193367004395">
        <time>2026-08-29T10:45:27Z</time>
      </trkpt>
      <trkpt lat="60.248358249664307" lon="30.490171909332275">
        <time>2026-08-29T10:45:42Z</time>
      </trkpt>
      <trkpt lat="60.248358249664307" lon="30.490171909332275">
        <time>2026-08-29T10:46:12Z</time>
      </trkpt>
      <trkpt lat="60.248379707336426" lon="30.490128993988037">
        <time>2026-08-29T10:46:42Z</time>
      </trkpt>
      <trkpt lat="60.248401165008545" lon="30.490128993988037">
        <time>2026-08-29T10:47:12Z</time>
      </trkpt>
      <trkpt lat="60.248379707336426" lon="30.490128993988037">
        <time>2026-08-29T10:47:42Z</time>
      </trkpt>
      <trkpt lat="60.248379707336426" lon="30.490128993988037">
        <time>2026-08-29T10:48:12Z</time>
      </trkpt>
      <trkpt lat="60.248379707336426" lon="30.490128993988037">
        <time>2026-08-29T10:48:42Z</time>
      </trkpt>
      <trkpt lat="60.248379707336426" lon="30.490128993988037">
        <time>2026-08-29T10:49:12Z</time>
      </trkpt>
      <trkpt lat="60.248379707336426" lon="30.490128993988037">
        <time>2026-08-29T10:49:42Z</time>
      </trkpt>
      <trkpt lat="60.248379707336426" lon="30.490128993988037">
        <time>2026-08-29T10:50:12Z</time>
      </trkpt>
      <trkpt lat="60.248379707336426" lon="30.490128993988037">
        <time>2026-08-29T10:50:42Z</time>
      </trkpt>
      <trkpt lat="60.248486995697021" lon="30.490107536315918">
        <time>2026-08-29T10:51:12Z</time>
      </trkpt>
      <trkpt lat="60.248401165008545" lon="30.490257740020752">
        <time>2026-08-29T10:51:42Z</time>
      </trkpt>
      <trkpt lat="60.248401165008545" lon="30.490257740020752">
        <time>2026-08-29T10:52:12Z</time>
      </trkpt>
      <trkpt lat="60.248401165008545" lon="30.490279197692871">
        <time>2026-08-29T10:52:42Z</time>
      </trkpt>
      <trkpt lat="60.248379707336426" lon="30.490279197692871">
        <time>2026-08-29T10:53:12Z</time>
      </trkpt>
      <trkpt lat="60.248401165008545" lon="30.490279197692871">
        <time>2026-08-29T10:53:42Z</time>
      </trkpt>
      <trkpt lat="60.248401165008545" lon="30.490257740020752">
        <time>2026-08-29T10:54:12Z</time>
      </trkpt>
      <trkpt lat="60.248401165008545" lon="30.490236282348633">
        <time>2026-08-29T10:54:42Z</time>
      </trkpt>
      <trkpt lat="60.248422622680664" lon="30.490128993988037">
        <time>2026-08-29T10:55:12Z</time>
      </trkpt>
      <trkpt lat="60.248444080352783" lon="30.490021705627441">
        <time>2026-08-29T10:55:22Z</time>
      </trkpt>
      <trkpt lat="60.248444080352783" lon="30.489871501922607">
        <time>2026-08-29T10:55:24Z</time>
      </trkpt>
      <trkpt lat="60.248465538024902" lon="30.489442348480225">
        <time>2026-08-29T10:55:49Z</time>
      </trkpt>
      <trkpt lat="60.248358249664307" lon="30.489206314086914">
        <time>2026-08-29T10:56:19Z</time>
      </trkpt>
      <trkpt lat="60.248336791992188" lon="30.488927364349365">
        <time>2026-08-29T10:56:49Z</time>
      </trkpt>
      <trkpt lat="60.248315334320068" lon="30.488669872283936">
        <time>2026-08-29T10:57:19Z</time>
      </trkpt>
      <trkpt lat="60.248379707336426" lon="30.488326549530029">
        <time>2026-08-29T10:57:49Z</time>
      </trkpt>
      <trkpt lat="60.248465538024902" lon="30.488326549530029">
        <time>2026-08-29T10:58:19Z</time>
      </trkpt>
      <trkpt lat="60.248465538024902" lon="30.48830509185791">
        <time>2026-08-29T10:58:39Z</time>
      </trkpt>
      <trkpt lat="60.248465538024902" lon="30.48830509185791">
        <time>2026-08-29T10:59:09Z</time>
      </trkpt>
      <trkpt lat="60.248551368713379" lon="30.488369464874268">
        <time>2026-08-29T10:59:39Z</time>
      </trkpt>
      <trkpt lat="60.24852991104126" lon="30.488240718841553">
        <time>2026-08-29T11:00:09Z</time>
      </trkpt>
      <trkpt lat="60.24852991104126" lon="30.488111972808838">
        <time>2026-08-29T11:00:39Z</time>
      </trkpt>
      <trkpt lat="60.24852991104126" lon="30.48804759979248">
        <time>2026-08-29T11:00:44Z</time>
      </trkpt>
      <trkpt lat="60.248594284057617" lon="30.487725734710693">
        <time>2026-08-29T11:01:09Z</time>
      </trkpt>
      <trkpt lat="60.248615741729736" lon="30.48731803894043">
        <time>2026-08-29T11:01:29Z</time>
      </trkpt>
      <trkpt lat="60.248658657073975" lon="30.487253665924072">
        <time>2026-08-29T11:01:59Z</time>
      </trkpt>
      <trkpt lat="60.248658657073975" lon="30.487232208251953">
        <time>2026-08-29T11:02:17Z</time>
      </trkpt>
      <trkpt lat="60.248658657073975" lon="30.487232208251953">
        <time>2026-08-29T11:02:47Z</time>
      </trkpt>
      <trkpt lat="60.248680114746094" lon="30.486845970153809">
        <time>2026-08-29T11:02:59Z</time>
      </trkpt>
      <trkpt lat="60.248658657073975" lon="30.486502647399902">
        <time>2026-08-29T11:03:07Z</time>
      </trkpt>
      <trkpt lat="60.248680114746094" lon="30.486288070678711">
        <time>2026-08-29T11:03:24Z</time>
      </trkpt>
      <trkpt lat="60.248701572418213" lon="30.486266613006592">
        <time>2026-08-29T11:03:27Z</time>
      </trkpt>
      <trkpt lat="60.248701572418213" lon="30.486180782318115">
        <time>2026-08-29T11:03:29Z</time>
      </trkpt>
      <trkpt lat="60.248723030090332" lon="30.486159324645996">
        <time>2026-08-29T11:03:32Z</time>
      </trkpt>
      <trkpt lat="60.24876594543457" lon="30.486116409301758">
        <time>2026-08-29T11:03:34Z</time>
      </trkpt>
      <trkpt lat="60.248787403106689" lon="30.486116409301758">
        <time>2026-08-29T11:03:37Z</time>
      </trkpt>
      <trkpt lat="60.248787403106689" lon="30.48607349395752">
        <time>2026-08-29T11:03:47Z</time>
      </trkpt>
      <trkpt lat="60.248744487762451" lon="30.485987663269043">
        <time>2026-08-29T11:03:49Z</time>
      </trkpt>
      <trkpt lat="60.248701572418213" lon="30.485880374908447">
        <time>2026-08-29T11:03:52Z</time>
      </trkpt>
      <trkpt lat="60.248680114746094" lon="30.485794544219971">
        <time>2026-08-29T11:03:54Z</time>
      </trkpt>
      <trkpt lat="60.248723030090332" lon="30.485515594482422">
        <time>2026-08-29T11:04:24Z</time>
      </trkpt>
      <trkpt lat="60.248723030090332" lon="30.485086441040039">
        <time>2026-08-29T11:04:52Z</time>
      </trkpt>
      <trkpt lat="60.248701572418213" lon="30.484828948974609">
        <time>2026-08-29T11:05:02Z</time>
      </trkpt>
      <trkpt lat="60.248637199401855" lon="30.484635829925537">
        <time>2026-08-29T11:05:32Z</time>
      </trkpt>
      <trkpt lat="60.248615741729736" lon="30.484421253204346">
        <time>2026-08-29T11:06:02Z</time>
      </trkpt>
      <trkpt lat="60.248572826385498" lon="30.484356880187988">
        <time>2026-08-29T11:06:32Z</time>
      </trkpt>
      <trkpt lat="60.248572826385498" lon="30.484356880187988">
        <time>2026-08-29T11:06:39Z</time>
      </trkpt>
      <trkpt lat="60.248572826385498" lon="30.484356880187988">
        <time>2026-08-29T11:07:09Z</time>
      </trkpt>
      <trkpt lat="60.248594284057617" lon="30.484356880187988">
        <time>2026-08-29T11:07:39Z</time>
      </trkpt>
      <trkpt lat="60.248594284057617" lon="30.484335422515869">
        <time>2026-08-29T11:08:09Z</time>
      </trkpt>
      <trkpt lat="60.248572826385498" lon="30.484356880187988">
        <time>2026-08-29T11:08:39Z</time>
      </trkpt>
      <trkpt lat="60.248594284057617" lon="30.484378337860107">
        <time>2026-08-29T11:09:09Z</time>
      </trkpt>
      <trkpt lat="60.248508453369141" lon="30.484356880187988">
        <time>2026-08-29T11:09:39Z</time>
      </trkpt>
      <trkpt lat="60.248358249664307" lon="30.484378337860107">
        <time>2026-08-29T11:09:44Z</time>
      </trkpt>
      <trkpt lat="60.248293876647949" lon="30.484163761138916">
        <time>2026-08-29T11:09:59Z</time>
      </trkpt>
      <trkpt lat="60.24827241897583" lon="30.484120845794678">
        <time>2026-08-29T11:10:02Z</time>
      </trkpt>
      <trkpt lat="60.248208045959473" lon="30.484035015106201">
        <time>2026-08-29T11:10:14Z</time>
      </trkpt>
      <trkpt lat="60.2480149269104" lon="30.483798980712891">
        <time>2026-08-29T11:10:34Z</time>
      </trkpt>
      <trkpt lat="60.247800350189209" lon="30.483992099761963">
        <time>2026-08-29T11:10:54Z</time>
      </trkpt>
      <trkpt lat="60.247821807861328" lon="30.484013557434082">
        <time>2026-08-29T11:11:04Z</time>
      </trkpt>
      <trkpt lat="60.247907638549805" lon="30.484013557434082">
        <time>2026-08-29T11:11:09Z</time>
      </trkpt>
      <trkpt lat="60.247907638549805" lon="30.483992099761963">
        <time>2026-08-29T11:11:39Z</time>
      </trkpt>
      <trkpt lat="60.247907638549805" lon="30.484335422515869">
        <time>2026-08-29T11:12:09Z</time>
      </trkpt>
      <trkpt lat="60.247886180877686" lon="30.484614372253418">
        <time>2026-08-29T11:12:24Z</time>
      </trkpt>
      <trkpt lat="60.247886180877686" lon="30.484678745269775">
        <time>2026-08-29T11:12:27Z</time>
      </trkpt>
      <trkpt lat="60.247907638549805" lon="30.48506498336792">
        <time>2026-08-29T11:12:57Z</time>
      </trkpt>
      <trkpt lat="60.247950553894043" lon="30.485365390777588">
        <time>2026-08-29T11:13:12Z</time>
      </trkpt>
      <trkpt lat="60.247972011566162" lon="30.485751628875732">
        <time>2026-08-29T11:13:42Z</time>
      </trkpt>
      <trkpt lat="60.247929096221924" lon="30.486009120941162">
        <time>2026-08-29T11:13:54Z</time>
      </trkpt>
      <trkpt lat="60.247929096221924" lon="30.486094951629639">
        <time>2026-08-29T11:13:57Z</time>
      </trkpt>
      <trkpt lat="60.247929096221924" lon="30.486137866973877">
        <time>2026-08-29T11:13:59Z</time>
      </trkpt>
      <trkpt lat="60.247907638549805" lon="30.486202239990234">
        <time>2026-08-29T11:14:02Z</time>
      </trkpt>
      <trkpt lat="60.24803638458252" lon="30.486481189727783">
        <time>2026-08-29T11:14:24Z</time>
      </trkpt>
      <trkpt lat="60.24803638458252" lon="30.486717224121094">
        <time>2026-08-29T11:14:32Z</time>
      </trkpt>
      <trkpt lat="60.247972011566162" lon="30.486760139465332">
        <time>2026-08-29T11:14:42Z</time>
      </trkpt>
      <trkpt lat="60.247993469238281" lon="30.486652851104736">
        <time>2026-08-29T11:14:49Z</time>
      </trkpt>
      <trkpt lat="60.247907638549805" lon="30.486588478088379">
        <time>2026-08-29T11:14:57Z</time>
      </trkpt>
      <trkpt lat="60.247843265533447" lon="30.486631393432617">
        <time>2026-08-29T11:14:59Z</time>
      </trkpt>
      <trkpt lat="60.247843265533447" lon="30.486845970153809">
        <time>2026-08-29T11:15:17Z</time>
      </trkpt>
      <trkpt lat="60.247800350189209" lon="30.486974716186523">
        <time>2026-08-29T11:15:47Z</time>
      </trkpt>
      <trkpt lat="60.247800350189209" lon="30.486974716186523">
        <time>2026-08-29T11:16:04Z</time>
      </trkpt>
      <trkpt lat="60.247800350189209" lon="30.486974716186523">
        <time>2026-08-29T11:16:34Z</time>
      </trkpt>
      <trkpt lat="60.247757434844971" lon="30.487017631530762">
        <time>2026-08-29T11:17:04Z</time>
      </trkpt>
      <trkpt lat="60.247650146484375" lon="30.487167835235596">
        <time>2026-08-29T11:17:24Z</time>
      </trkpt>
      <trkpt lat="60.247585773468018" lon="30.487146377563477">
        <time>2026-08-29T11:17:32Z</time>
      </trkpt>
      <trkpt lat="60.247671604156494" lon="30.487189292907715">
        <time>2026-08-29T11:17:52Z</time>
      </trkpt>
      <trkpt lat="60.247714519500732" lon="30.487167835235596">
        <time>2026-08-29T11:17:54Z</time>
      </trkpt>
      <trkpt lat="60.247693061828613" lon="30.487210750579834">
        <time>2026-08-29T11:18:24Z</time>
      </trkpt>
      <trkpt lat="60.247693061828613" lon="30.487189292907715">
        <time>2026-08-29T11:18:54Z</time>
      </trkpt>
      <trkpt lat="60.247671604156494" lon="30.487210750579834">
        <time>2026-08-29T11:19:07Z</time>
      </trkpt>
      <trkpt lat="60.247542858123779" lon="30.487575531005859">
        <time>2026-08-29T11:19:19Z</time>
      </trkpt>
      <trkpt lat="60.247478485107422" lon="30.487639904022217">
        <time>2026-08-29T11:19:22Z</time>
      </trkpt>
      <trkpt lat="60.247457027435303" lon="30.487661361694336">
        <time>2026-08-29T11:19:24Z</time>
      </trkpt>
      <trkpt lat="60.247478485107422" lon="30.487682819366455">
        <time>2026-08-29T11:19:27Z</time>
      </trkpt>
      <trkpt lat="60.24752140045166" lon="30.487639904022217">
        <time>2026-08-29T11:19:29Z</time>
      </trkpt>
      <trkpt lat="60.247478485107422" lon="30.48781156539917">
        <time>2026-08-29T11:19:59Z</time>
      </trkpt>
      <trkpt lat="60.247499942779541" lon="30.4880690574646">
        <time>2026-08-29T11:20:29Z</time>
      </trkpt>
      <trkpt lat="60.247628688812256" lon="30.488219261169434">
        <time>2026-08-29T11:20:59Z</time>
      </trkpt>
      <trkpt lat="60.247757434844971" lon="30.488584041595459">
        <time>2026-08-29T11:21:24Z</time>
      </trkpt>
      <trkpt lat="60.247757434844971" lon="30.488691329956055">
        <time>2026-08-29T11:21:54Z</time>
      </trkpt>
      <trkpt lat="60.247735977172852" lon="30.488691329956055">
        <time>2026-08-29T11:22:17Z</time>
      </trkpt>
      <trkpt lat="60.247671604156494" lon="30.488884449005127">
        <time>2026-08-29T11:22:47Z</time>
      </trkpt>
      <trkpt lat="60.247628688812256" lon="30.488970279693604">
        <time>2026-08-29T11:22:59Z</time>
      </trkpt>
      <trkpt lat="60.24752140045166" lon="30.48931360244751">
        <time>2026-08-29T11:23:14Z</time>
      </trkpt>
      <trkpt lat="60.247478485107422" lon="30.489356517791748">
        <time>2026-08-29T11:23:17Z</time>
      </trkpt>
      <trkpt lat="60.247478485107422" lon="30.489442348480225">
        <time>2026-08-29T11:23:19Z</time>
      </trkpt>
      <trkpt lat="60.247478485107422" lon="30.489506721496582">
        <time>2026-08-29T11:23:22Z</time>
      </trkpt>
      <trkpt lat="60.247499942779541" lon="30.489656925201416">
        <time>2026-08-29T11:23:52Z</time>
      </trkpt>
      <trkpt lat="60.247564315795898" lon="30.489785671234131">
        <time>2026-08-29T11:24:04Z</time>
      </trkpt>
      <trkpt lat="60.247564315795898" lon="30.489892959594727">
        <time>2026-08-29T11:24:12Z</time>
      </trkpt>
      <trkpt lat="60.247564315795898" lon="30.49030065536499">
        <time>2026-08-29T11:24:39Z</time>
      </trkpt>
      <trkpt lat="60.247650146484375" lon="30.490665435791016">
        <time>2026-08-29T11:25:09Z</time>
      </trkpt>
      <trkpt lat="60.247693061828613" lon="30.491073131561279">
        <time>2026-08-29T11:25:39Z</time>
      </trkpt>
      <trkpt lat="60.247693061828613" lon="30.491330623626709">
        <time>2026-08-29T11:26:09Z</time>
      </trkpt>
      <trkpt lat="60.247693061828613" lon="30.491502285003662">
        <time>2026-08-29T11:26:39Z</time>
      </trkpt>
      <trkpt lat="60.247693061828613" lon="30.491759777069092">
        <time>2026-08-29T11:27:09Z</time>
      </trkpt>
      <trkpt lat="60.247693061828613" lon="30.491974353790283">
        <time>2026-08-29T11:27:39Z</time>
      </trkpt>
      <trkpt lat="60.247693061828613" lon="30.491974353790283">
        <time>2026-08-29T11:28:04Z</time>
      </trkpt>
      <trkpt lat="60.247714519500732" lon="30.492017269134521">
        <time>2026-08-29T11:28:34Z</time>
      </trkpt>
      <trkpt lat="60.247714519500732" lon="30.492017269134521">
        <time>2026-08-29T11:29:04Z</time>
      </trkpt>
      <trkpt lat="60.247714519500732" lon="30.492017269134521">
        <time>2026-08-29T11:29:34Z</time>
      </trkpt>
      <trkpt lat="60.247714519500732" lon="30.492038726806641">
        <time>2026-08-29T11:30:04Z</time>
      </trkpt>
      <trkpt lat="60.247585773468018" lon="30.492017269134521">
        <time>2026-08-29T11:30:34Z</time>
      </trkpt>
      <trkpt lat="60.24752140045166" lon="30.492038726806641">
        <time>2026-08-29T11:30:39Z</time>
      </trkpt>
      <trkpt lat="60.247371196746826" lon="30.491931438446045">
        <time>2026-08-29T11:31:09Z</time>
      </trkpt>
      <trkpt lat="60.247199535369873" lon="30.49180269241333">
        <time>2026-08-29T11:31:39Z</time>
      </trkpt>
      <trkpt lat="60.247199535369873" lon="30.491888523101807">
        <time>2026-08-29T11:31:42Z</time>
      </trkpt>
      <trkpt lat="60.247178077697754" lon="30.491952896118164">
        <time>2026-08-29T11:31:44Z</time>
      </trkpt>
      <trkpt lat="60.247199535369873" lon="30.492038726806641">
        <time>2026-08-29T11:31:47Z</time>
      </trkpt>
      <trkpt lat="60.247199535369873" lon="30.49206018447876">
        <time>2026-08-29T11:31:49Z</time>
      </trkpt>
      <trkpt lat="60.247199535369873" lon="30.49206018447876">
        <time>2026-08-29T11:32:19Z</time>
      </trkpt>
      <trkpt lat="60.247220993041992" lon="30.49206018447876">
        <time>2026-08-29T11:32:39Z</time>
      </trkpt>
      <trkpt lat="60.247242450714111" lon="30.49206018447876">
        <time>2026-08-29T11:33:09Z</time>
      </trkpt>
      <trkpt lat="60.247242450714111" lon="30.49206018447876">
        <time>2026-08-29T11:33:39Z</time>
      </trkpt>
      <trkpt lat="60.247220993041992" lon="30.491781234741211">
        <time>2026-08-29T11:33:59Z</time>
      </trkpt>
      <trkpt lat="60.247220993041992" lon="30.491738319396973">
        <time>2026-08-29T11:34:02Z</time>
      </trkpt>
      <trkpt lat="60.247156620025635" lon="30.491330623626709">
        <time>2026-08-29T11:34:32Z</time>
      </trkpt>
      <trkpt lat="60.247156620025635" lon="30.490901470184326">
        <time>2026-08-29T11:35:02Z</time>
      </trkpt>
      <trkpt lat="60.247006416320801" lon="30.490708351135254">
        <time>2026-08-29T11:35:32Z</time>
      </trkpt>
      <trkpt lat="60.246920585632324" lon="30.490407943725586">
        <time>2026-08-29T11:36:02Z</time>
      </trkpt>
      <trkpt lat="60.246834754943848" lon="30.490021705627441">
        <time>2026-08-29T11:36:29Z</time>
      </trkpt>
      <trkpt lat="60.24677038192749" lon="30.489785671234131">
        <time>2026-08-29T11:36:59Z</time>
      </trkpt>
      <trkpt lat="60.24677038192749" lon="30.489721298217773">
        <time>2026-08-29T11:37:19Z</time>
      </trkpt>
      <trkpt lat="60.246856212615967" lon="30.48931360244751">
        <time>2026-08-29T11:37:47Z</time>
      </trkpt>
      <trkpt lat="60.246856212615967" lon="30.48931360244751">
        <time>2026-08-29T11:38:17Z</time>
      </trkpt>
      <trkpt lat="60.246877670288086" lon="30.489227771759033">
        <time>2026-08-29T11:38:39Z</time>
      </trkpt>
      <trkpt lat="60.246877670288086" lon="30.489206314086914">
        <time>2026-08-29T11:39:09Z</time>
      </trkpt>
      <trkpt lat="60.246877670288086" lon="30.489206314086914">
        <time>2026-08-29T11:39:39Z</time>
      </trkpt>
      <trkpt lat="60.246984958648682" lon="30.488884449005127">
        <time>2026-08-29T11:40:02Z</time>
      </trkpt>
      <trkpt lat="60.247006416320801" lon="30.488584041595459">
        <time>2026-08-29T11:40:32Z</time>
      </trkpt>
      <trkpt lat="60.247070789337158" lon="30.488197803497314">
        <time>2026-08-29T11:40:57Z</time>
      </trkpt>
      <trkpt lat="60.247178077697754" lon="30.487768650054932">
        <time>2026-08-29T11:41:17Z</time>
      </trkpt>
      <trkpt lat="60.247113704681396" lon="30.487618446350098">
        <time>2026-08-29T11:41:47Z</time>
      </trkpt>
      <trkpt lat="60.247113704681396" lon="30.487532615661621">
        <time>2026-08-29T11:41:54Z</time>
      </trkpt>
      <trkpt lat="60.24702787399292" lon="30.487339496612549">
        <time>2026-08-29T11:42:24Z</time>
      </trkpt>
      <trkpt lat="60.246856212615967" lon="30.487124919891357">
        <time>2026-08-29T11:42:54Z</time>
      </trkpt>
      <trkpt lat="60.246834754943848" lon="30.486931800842285">
        <time>2026-08-29T11:43:24Z</time>
      </trkpt>
      <trkpt lat="60.246791839599609" lon="30.486738681793213">
        <time>2026-08-29T11:43:54Z</time>
      </trkpt>
      <trkpt lat="60.246834754943848" lon="30.486781597137451">
        <time>2026-08-29T11:43:59Z</time>
      </trkpt>
      <trkpt lat="60.246834754943848" lon="30.486760139465332">
        <time>2026-08-29T11:44:02Z</time>
      </trkpt>
      <trkpt lat="60.246748924255371" lon="30.486717224121094">
        <time>2026-08-29T11:44:19Z</time>
      </trkpt>
      <trkpt lat="60.246748924255371" lon="30.486738681793213">
        <time>2026-08-29T11:44:49Z</time>
      </trkpt>
      <trkpt lat="60.24677038192749" lon="30.486717224121094">
        <time>2026-08-29T11:45:19Z</time>
      </trkpt>
      <trkpt lat="60.246791839599609" lon="30.486502647399902">
        <time>2026-08-29T11:45:49Z</time>
      </trkpt>
      <trkpt lat="60.24677038192749" lon="30.486416816711426">
        <time>2026-08-29T11:45:52Z</time>
      </trkpt>
      <trkpt lat="60.246706008911133" lon="30.486202239990234">
        <time>2026-08-29T11:46:04Z</time>
      </trkpt>
      <trkpt lat="60.246663093566895" lon="30.486159324645996">
        <time>2026-08-29T11:46:07Z</time>
      </trkpt>
      <trkpt lat="60.246641635894775" lon="30.486094951629639">
        <time>2026-08-29T11:46:09Z</time>
      </trkpt>
      <trkpt lat="60.246641635894775" lon="30.4860520362854">
        <time>2026-08-29T11:46:12Z</time>
      </trkpt>
      <trkpt lat="60.246512889862061" lon="30.48607349395752">
        <time>2026-08-29T11:46:42Z</time>
      </trkpt>
      <trkpt lat="60.246491432189941" lon="30.485966205596924">
        <time>2026-08-29T11:46:44Z</time>
      </trkpt>
      <trkpt lat="60.246491432189941" lon="30.485708713531494">
        <time>2026-08-29T11:47:02Z</time>
      </trkpt>
      <trkpt lat="60.24653434753418" lon="30.485601425170898">
        <time>2026-08-29T11:47:04Z</time>
      </trkpt>
      <trkpt lat="60.246641635894775" lon="30.485537052154541">
        <time>2026-08-29T11:47:17Z</time>
      </trkpt>
      <trkpt lat="60.246684551239014" lon="30.485622882843018">
        <time>2026-08-29T11:47:19Z</time>
      </trkpt>
      <trkpt lat="60.246834754943848" lon="30.485386848449707">
        <time>2026-08-29T11:47:47Z</time>
      </trkpt>
      <trkpt lat="60.246877670288086" lon="30.48530101776123">
        <time>2026-08-29T11:47:52Z</time>
      </trkpt>
      <trkpt lat="60.246920585632324" lon="30.48530101776123">
        <time>2026-08-29T11:47:54Z</time>
      </trkpt>
      <trkpt lat="60.24702787399292" lon="30.485279560089111">
        <time>2026-08-29T11:48:00Z</time>
      </trkpt>
      <trkpt lat="60.247070789337158" lon="30.485193729400635">
        <time>2026-08-29T11:48:02Z</time>
      </trkpt>
      <trkpt lat="60.246942043304443" lon="30.484828948974609">
        <time>2026-08-29T11:48:22Z</time>
      </trkpt>
      <trkpt lat="60.246899127960205" lon="30.48457145690918">
        <time>2026-08-29T11:48:34Z</time>
      </trkpt>
      <trkpt lat="60.246877670288086" lon="30.484464168548584">
        <time>2026-08-29T11:48:37Z</time>
      </trkpt>
      <trkpt lat="60.246877670288086" lon="30.484464168548584">
        <time>2026-08-29T11:48:42Z</time>
      </trkpt>
      <trkpt lat="60.246920585632324" lon="30.484528541564941">
        <time>2026-08-29T11:48:44Z</time>
      </trkpt>
      <trkpt lat="60.246963500976562" lon="30.484592914581299">
        <time>2026-08-29T11:48:47Z</time>
      </trkpt>
      <trkpt lat="60.246942043304443" lon="30.484507083892822">
        <time>2026-08-29T11:48:52Z</time>
      </trkpt>
      <trkpt lat="60.246877670288086" lon="30.484528541564941">
        <time>2026-08-29T11:48:54Z</time>
      </trkpt>
      <trkpt lat="60.246813297271729" lon="30.484549999237061">
        <time>2026-08-29T11:48:57Z</time>
      </trkpt>
      <trkpt lat="60.246727466583252" lon="30.484185218811035">
        <time>2026-08-29T11:49:27Z</time>
      </trkpt>
      <trkpt lat="60.246834754943848" lon="30.484206676483154">
        <time>2026-08-29T11:49:42Z</time>
      </trkpt>
      <trkpt lat="60.246942043304443" lon="30.483970642089844">
        <time>2026-08-29T11:49:59Z</time>
      </trkpt>
      <trkpt lat="60.246963500976562" lon="30.483906269073486">
        <time>2026-08-29T11:50:02Z</time>
      </trkpt>
      <trkpt lat="60.246984958648682" lon="30.483841896057129">
        <time>2026-08-29T11:50:04Z</time>
      </trkpt>
      <trkpt lat="60.24702787399292" lon="30.48382043838501">
        <time>2026-08-29T11:50:07Z</time>
      </trkpt>
      <trkpt lat="60.247070789337158" lon="30.483884811401367">
        <time>2026-08-29T11:50:12Z</time>
      </trkpt>
      <trkpt lat="60.24702787399292" lon="30.484013557434082">
        <time>2026-08-29T11:50:22Z</time>
      </trkpt>
      <trkpt lat="60.247049331665039" lon="30.483992099761963">
        <time>2026-08-29T11:50:52Z</time>
      </trkpt>
      <trkpt lat="60.247049331665039" lon="30.483992099761963">
        <time>2026-08-29T11:50:57Z</time>
      </trkpt>
      <trkpt lat="60.247092247009277" lon="30.483970642089844">
        <time>2026-08-29T11:51:27Z</time>
      </trkpt>
      <trkpt lat="60.247092247009277" lon="30.483970642089844">
        <time>2026-08-29T11:51:57Z</time>
      </trkpt>
      <trkpt lat="60.24702787399292" lon="30.483863353729248">
        <time>2026-08-29T11:52:27Z</time>
      </trkpt>
      <trkpt lat="60.246963500976562" lon="30.483691692352295">
        <time>2026-08-29T11:52:47Z</time>
      </trkpt>
      <trkpt lat="60.246942043304443" lon="30.483541488647461">
        <time>2026-08-29T11:53:17Z</time>
      </trkpt>
      <trkpt lat="60.246920585632324" lon="30.483112335205078">
        <time>2026-08-29T11:53:34Z</time>
      </trkpt>
      <trkpt lat="60.246877670288086" lon="30.482790470123291">
        <time>2026-08-29T11:54:04Z</time>
      </trkpt>
      <trkpt lat="60.246856212615967" lon="30.482726097106934">
        <time>2026-08-29T11:54:34Z</time>
      </trkpt>
      <trkpt lat="60.246877670288086" lon="30.482704639434814">
        <time>2026-08-29T11:54:44Z</time>
      </trkpt>
      <trkpt lat="60.246984958648682" lon="30.482683181762695">
        <time>2026-08-29T11:55:02Z</time>
      </trkpt>
      <trkpt lat="60.247049331665039" lon="30.482597351074219">
        <time>2026-08-29T11:55:09Z</time>
      </trkpt>
      <trkpt lat="60.247006416320801" lon="30.482339859008789">
        <time>2026-08-29T11:55:39Z</time>
      </trkpt>
      <trkpt lat="60.247070789337158" lon="30.482168197631836">
        <time>2026-08-29T11:55:59Z</time>
      </trkpt>
      <trkpt lat="60.247113704681396" lon="30.482168197631836">
        <time>2026-08-29T11:56:04Z</time>
      </trkpt>
      <trkpt lat="60.247156620025635" lon="30.482168197631836">
        <time>2026-08-29T11:56:07Z</time>
      </trkpt>
      <trkpt lat="60.247156620025635" lon="30.482146739959717">
        <time>2026-08-29T11:56:37Z</time>
      </trkpt>
      <trkpt lat="60.247156620025635" lon="30.482103824615479">
        <time>2026-08-29T11:56:59Z</time>
      </trkpt>
      <trkpt lat="60.247156620025635" lon="30.482082366943359">
        <time>2026-08-29T11:57:02Z</time>
      </trkpt>
      <trkpt lat="60.24702787399292" lon="30.482017993927002">
        <time>2026-08-29T11:57:22Z</time>
      </trkpt>
      <trkpt lat="60.246984958648682" lon="30.481803417205811">
        <time>2026-08-29T11:57:52Z</time>
      </trkpt>
      <trkpt lat="60.246963500976562" lon="30.481481552124023">
        <time>2026-08-29T11:58:22Z</time>
      </trkpt>
      <trkpt lat="60.246984958648682" lon="30.481202602386475">
        <time>2026-08-29T11:58:52Z</time>
      </trkpt>
      <trkpt lat="60.24702787399292" lon="30.480773448944092">
        <time>2026-08-29T11:59:14Z</time>
      </trkpt>
      <trkpt lat="60.247070789337158" lon="30.480601787567139">
        <time>2026-08-29T11:59:39Z</time>
      </trkpt>
      <trkpt lat="60.24702787399292" lon="30.4805588722229">
        <time>2026-08-29T11:59:42Z</time>
      </trkpt>
      <trkpt lat="60.24702787399292" lon="30.480451583862305">
        <time>2026-08-29T11:59:49Z</time>
      </trkpt>
      <trkpt lat="60.247070789337158" lon="30.480387210845947">
        <time>2026-08-29T11:59:57Z</time>
      </trkpt>
      <trkpt lat="60.247092247009277" lon="30.480451583862305">
        <time>2026-08-29T12:00:19Z</time>
      </trkpt>
      <trkpt lat="60.247049331665039" lon="30.480451583862305">
        <time>2026-08-29T12:00:49Z</time>
      </trkpt>
      <trkpt lat="60.247049331665039" lon="30.480451583862305">
        <time>2026-08-29T12:00:54Z</time>
      </trkpt>
      <trkpt lat="60.247049331665039" lon="30.480365753173828">
        <time>2026-08-29T12:01:17Z</time>
      </trkpt>
      <trkpt lat="60.247049331665039" lon="30.480279922485352">
        <time>2026-08-29T12:01:19Z</time>
      </trkpt>
      <trkpt lat="60.247049331665039" lon="30.480129718780518">
        <time>2026-08-29T12:01:24Z</time>
      </trkpt>
      <trkpt lat="60.247242450714111" lon="30.479915142059326">
        <time>2026-08-29T12:01:39Z</time>
      </trkpt>
      <trkpt lat="60.24728536605835" lon="30.479850769042969">
        <time>2026-08-29T12:01:42Z</time>
      </trkpt>
      <trkpt lat="60.24728536605835" lon="30.479722023010254">
        <time>2026-08-29T12:01:49Z</time>
      </trkpt>
      <trkpt lat="60.247306823730469" lon="30.47931432723999">
        <time>2026-08-29T12:02:37Z</time>
      </trkpt>
      <trkpt lat="60.247371196746826" lon="30.479249954223633">
        <time>2026-08-29T12:02:42Z</time>
      </trkpt>
      <trkpt lat="60.247349739074707" lon="30.479207038879395">
        <time>2026-08-29T12:02:44Z</time>
      </trkpt>
      <trkpt lat="60.24726390838623" lon="30.479164123535156">
        <time>2026-08-29T12:02:52Z</time>
      </trkpt>
      <trkpt lat="60.247178077697754" lon="30.47907829284668">
        <time>2026-08-29T12:03:22Z</time>
      </trkpt>
      <trkpt lat="60.247199535369873" lon="30.479099750518799">
        <time>2026-08-29T12:03:49Z</time>
      </trkpt>
      <trkpt lat="60.247220993041992" lon="30.479121208190918">
        <time>2026-08-29T12:04:19Z</time>
      </trkpt>
      <trkpt lat="60.247242450714111" lon="30.479056835174561">
        <time>2026-08-29T12:04:27Z</time>
      </trkpt>
      <trkpt lat="60.247306823730469" lon="30.478799343109131">
        <time>2026-08-29T12:04:39Z</time>
      </trkpt>
      <trkpt lat="60.247220993041992" lon="30.478734970092773">
        <time>2026-08-29T12:05:09Z</time>
      </trkpt>
      <trkpt lat="60.247049331665039" lon="30.478434562683105">
        <time>2026-08-29T12:05:19Z</time>
      </trkpt>
      <trkpt lat="60.24702787399292" lon="30.478370189666748">
        <time>2026-08-29T12:05:27Z</time>
      </trkpt>
      <trkpt lat="60.246877670288086" lon="30.478005409240723">
        <time>2026-08-29T12:05:57Z</time>
      </trkpt>
      <trkpt lat="60.246663093566895" lon="30.477705001831055">
        <time>2026-08-29T12:06:14Z</time>
      </trkpt>
      <trkpt lat="60.246448516845703" lon="30.477683544158936">
        <time>2026-08-29T12:07:04Z</time>
      </trkpt>
      <trkpt lat="60.246491432189941" lon="30.477683544158936">
        <time>2026-08-29T12:07:07Z</time>
      </trkpt>
      <trkpt lat="60.246577262878418" lon="30.477662086486816">
        <time>2026-08-29T12:07:14Z</time>
      </trkpt>
      <trkpt lat="60.246620178222656" lon="30.477662086486816">
        <time>2026-08-29T12:07:22Z</time>
      </trkpt>
      <trkpt lat="60.246706008911133" lon="30.477705001831055">
        <time>2026-08-29T12:07:24Z</time>
      </trkpt>
      <trkpt lat="60.24677038192749" lon="30.477662086486816">
        <time>2026-08-29T12:07:27Z</time>
      </trkpt>
      <trkpt lat="60.246791839599609" lon="30.477619171142578">
        <time>2026-08-29T12:07:29Z</time>
      </trkpt>
      <trkpt lat="60.246813297271729" lon="30.47757625579834">
        <time>2026-08-29T12:07:59Z</time>
      </trkpt>
      <trkpt lat="60.246834754943848" lon="30.477597713470459">
        <time>2026-08-29T12:08:27Z</time>
      </trkpt>
      <trkpt lat="60.246813297271729" lon="30.47757625579834">
        <time>2026-08-29T12:08:57Z</time>
      </trkpt>
      <trkpt lat="60.246684551239014" lon="30.477597713470459">
        <time>2026-08-29T12:09:24Z</time>
      </trkpt>
      <trkpt lat="60.246684551239014" lon="30.477640628814697">
        <time>2026-08-29T12:09:54Z</time>
      </trkpt>
      <trkpt lat="60.246684551239014" lon="30.477640628814697">
        <time>2026-08-29T12:10:24Z</time>
      </trkpt>
      <trkpt lat="60.246663093566895" lon="30.477662086486816">
        <time>2026-08-29T12:10:54Z</time>
      </trkpt>
      <trkpt lat="60.246577262878418" lon="30.477941036224365">
        <time>2026-08-29T12:11:24Z</time>
      </trkpt>
      <trkpt lat="60.246555805206299" lon="30.478005409240723">
        <time>2026-08-29T12:11:27Z</time>
      </trkpt>
      <trkpt lat="60.246469974517822" lon="30.478370189666748">
        <time>2026-08-29T12:11:57Z</time>
      </trkpt>
      <trkpt lat="60.246491432189941" lon="30.478477478027344">
        <time>2026-08-29T12:12:27Z</time>
      </trkpt>
      <trkpt lat="60.246427059173584" lon="30.478992462158203">
        <time>2026-08-29T12:12:44Z</time>
      </trkpt>
      <trkpt lat="60.246384143829346" lon="30.479271411895752">
        <time>2026-08-29T12:13:14Z</time>
      </trkpt>
      <trkpt lat="60.246469974517822" lon="30.479528903961182">
        <time>2026-08-29T12:13:44Z</time>
      </trkpt>
      <trkpt lat="60.246448516845703" lon="30.479936599731445">
        <time>2026-08-29T12:14:07Z</time>
      </trkpt>
      <trkpt lat="60.246362686157227" lon="30.48032283782959">
        <time>2026-08-29T12:14:37Z</time>
      </trkpt>
      <trkpt lat="60.246362686157227" lon="30.4805588722229">
        <time>2026-08-29T12:15:04Z</time>
      </trkpt>
      <trkpt lat="60.246384143829346" lon="30.480494499206543">
        <time>2026-08-29T12:15:07Z</time>
      </trkpt>
      <trkpt lat="60.246384143829346" lon="30.480430126190186">
        <time>2026-08-29T12:15:09Z</time>
      </trkpt>
      <trkpt lat="60.246405601501465" lon="30.480365753173828">
        <time>2026-08-29T12:15:39Z</time>
      </trkpt>
      <trkpt lat="60.246405601501465" lon="30.48032283782959">
        <time>2026-08-29T12:16:09Z</time>
      </trkpt>
      <trkpt lat="60.246427059173584" lon="30.48032283782959">
        <time>2026-08-29T12:16:39Z</time>
      </trkpt>
      <trkpt lat="60.246427059173584" lon="30.48032283782959">
        <time>2026-08-29T12:16:42Z</time>
      </trkpt>
      <trkpt lat="60.246448516845703" lon="30.480344295501709">
        <time>2026-08-29T12:17:12Z</time>
      </trkpt>
      <trkpt lat="60.246362686157227" lon="30.480279922485352">
        <time>2026-08-29T12:17:27Z</time>
      </trkpt>
      <trkpt lat="60.246362686157227" lon="30.480301380157471">
        <time>2026-08-29T12:17:29Z</time>
      </trkpt>
      <trkpt lat="60.246384143829346" lon="30.480301380157471">
        <time>2026-08-29T12:17:59Z</time>
      </trkpt>
      <trkpt lat="60.246405601501465" lon="30.480279922485352">
        <time>2026-08-29T12:18:19Z</time>
      </trkpt>
      <trkpt lat="60.246448516845703" lon="30.480537414550781">
        <time>2026-08-29T12:18:37Z</time>
      </trkpt>
      <trkpt lat="60.246405601501465" lon="30.480473041534424">
        <time>2026-08-29T12:18:39Z</time>
      </trkpt>
      <trkpt lat="60.246405601501465" lon="30.480387210845947">
        <time>2026-08-29T12:18:42Z</time>
      </trkpt>
      <trkpt lat="60.246405601501465" lon="30.480387210845947">
        <time>2026-08-29T12:19:12Z</time>
      </trkpt>
      <trkpt lat="60.246427059173584" lon="30.480365753173828">
        <time>2026-08-29T12:19:37Z</time>
      </trkpt>
      <trkpt lat="60.246427059173584" lon="30.480344295501709">
        <time>2026-08-29T12:20:07Z</time>
      </trkpt>
      <trkpt lat="60.246427059173584" lon="30.48032283782959">
        <time>2026-08-29T12:20:37Z</time>
      </trkpt>
      <trkpt lat="60.246427059173584" lon="30.480301380157471">
        <time>2026-08-29T12:21:07Z</time>
      </trkpt>
      <trkpt lat="60.246448516845703" lon="30.480301380157471">
        <time>2026-08-29T12:21:37Z</time>
      </trkpt>
      <trkpt lat="60.246427059173584" lon="30.480301380157471">
        <time>2026-08-29T12:22:04Z</time>
      </trkpt>
      <trkpt lat="60.246427059173584" lon="30.480301380157471">
        <time>2026-08-29T12:22:34Z</time>
      </trkpt>
      <trkpt lat="60.246427059173584" lon="30.480301380157471">
        <time>2026-08-29T12:23:04Z</time>
      </trkpt>
      <trkpt lat="60.246427059173584" lon="30.48032283782959">
        <time>2026-08-29T12:23:34Z</time>
      </trkpt>
      <trkpt lat="60.246427059173584" lon="30.48032283782959">
        <time>2026-08-29T12:24:04Z</time>
      </trkpt>
      <trkpt lat="60.246405601501465" lon="30.480515956878662">
        <time>2026-08-29T12:24:34Z</time>
      </trkpt>
      <trkpt lat="60.246384143829346" lon="30.480709075927734">
        <time>2026-08-29T12:24:39Z</time>
      </trkpt>
      <trkpt lat="60.246298313140869" lon="30.48107385635376">
        <time>2026-08-29T12:25:09Z</time>
      </trkpt>
      <trkpt lat="60.246319770812988" lon="30.481159687042236">
        <time>2026-08-29T12:25:34Z</time>
      </trkpt>
      <trkpt lat="60.246362686157227" lon="30.4815673828125">
        <time>2026-08-29T12:25:52Z</time>
      </trkpt>
      <trkpt lat="60.246384143829346" lon="30.48182487487793">
        <time>2026-08-29T12:26:22Z</time>
      </trkpt>
      <trkpt lat="60.246298313140869" lon="30.482103824615479">
        <time>2026-08-29T12:26:52Z</time>
      </trkpt>
      <trkpt lat="60.246298313140869" lon="30.48206090927124">
        <time>2026-08-29T12:27:22Z</time>
      </trkpt>
      <trkpt lat="60.24627685546875" lon="30.482082366943359">
        <time>2026-08-29T12:27:34Z</time>
      </trkpt>
      <trkpt lat="60.246298313140869" lon="30.482382774353027">
        <time>2026-08-29T12:27:57Z</time>
      </trkpt>
      <trkpt lat="60.246148109436035" lon="30.482704639434814">
        <time>2026-08-29T12:28:24Z</time>
      </trkpt>
      <trkpt lat="60.246083736419678" lon="30.482940673828125">
        <time>2026-08-29T12:28:54Z</time>
      </trkpt>
      <trkpt lat="60.246062278747559" lon="30.483133792877197">
        <time>2026-08-29T12:29:24Z</time>
      </trkpt>
      <trkpt lat="60.246148109436035" lon="30.48356294631958">
        <time>2026-08-29T12:29:54Z</time>
      </trkpt>
      <trkpt lat="60.246126651763916" lon="30.483627319335938">
        <time>2026-08-29T12:29:57Z</time>
      </trkpt>
      <trkpt lat="60.246105194091797" lon="30.483713150024414">
        <time>2026-08-29T12:29:59Z</time>
      </trkpt>
      <trkpt lat="60.246105194091797" lon="30.483841896057129">
        <time>2026-08-29T12:30:02Z</time>
      </trkpt>
      <trkpt lat="60.246105194091797" lon="30.483970642089844">
        <time>2026-08-29T12:30:04Z</time>
      </trkpt>
      <trkpt lat="60.246169567108154" lon="30.484464168548584">
        <time>2026-08-29T12:30:22Z</time>
      </trkpt>
      <trkpt lat="60.246169567108154" lon="30.484592914581299">
        <time>2026-08-29T12:30:27Z</time>
      </trkpt>
      <trkpt lat="60.246212482452393" lon="30.484549999237061">
        <time>2026-08-29T12:30:34Z</time>
      </trkpt>
      <trkpt lat="60.246169567108154" lon="30.484507083892822">
        <time>2026-08-29T12:30:37Z</time>
      </trkpt>
      <trkpt lat="60.246126651763916" lon="30.484507083892822">
        <time>2026-08-29T12:30:39Z</time>
      </trkpt>
      <trkpt lat="60.246105194091797" lon="30.484507083892822">
        <time>2026-08-29T12:30:42Z</time>
      </trkpt>
      <trkpt lat="60.245933532714844" lon="30.484700202941895">
        <time>2026-08-29T12:31:07Z</time>
      </trkpt>
      <trkpt lat="60.245718955993652" lon="30.484635829925537">
        <time>2026-08-29T12:31:24Z</time>
      </trkpt>
      <trkpt lat="60.245718955993652" lon="30.484721660614014">
        <time>2026-08-29T12:31:49Z</time>
      </trkpt>
      <trkpt lat="60.245740413665771" lon="30.484764575958252">
        <time>2026-08-29T12:31:52Z</time>
      </trkpt>
      <trkpt lat="60.245740413665771" lon="30.484828948974609">
        <time>2026-08-29T12:31:54Z</time>
      </trkpt>
      <trkpt lat="60.245761871337891" lon="30.484828948974609">
        <time>2026-08-29T12:32:24Z</time>
      </trkpt>
      <trkpt lat="60.245761871337891" lon="30.484828948974609">
        <time>2026-08-29T12:32:44Z</time>
      </trkpt>
      <trkpt lat="60.245718955993652" lon="30.484786033630371">
        <time>2026-08-29T12:33:04Z</time>
      </trkpt>
      <trkpt lat="60.245740413665771" lon="30.484743118286133">
        <time>2026-08-29T12:33:19Z</time>
      </trkpt>
      <trkpt lat="60.245761871337891" lon="30.484786033630371">
        <time>2026-08-29T12:33:22Z</time>
      </trkpt>
      <trkpt lat="60.245740413665771" lon="30.484871864318848">
        <time>2026-08-29T12:33:52Z</time>
      </trkpt>
      <trkpt lat="60.245676040649414" lon="30.485000610351563">
        <time>2026-08-29T12:34:02Z</time>
      </trkpt>
      <trkpt lat="60.245590209960938" lon="30.485129356384277">
        <time>2026-08-29T12:34:32Z</time>
      </trkpt>
      <trkpt lat="60.245547294616699" lon="30.485172271728516">
        <time>2026-08-29T12:34:37Z</time>
      </trkpt>
      <trkpt lat="60.245504379272461" lon="30.485494136810303">
        <time>2026-08-29T12:34:47Z</time>
      </trkpt>
      <trkpt lat="60.245504379272461" lon="30.485665798187256">
        <time>2026-08-29T12:34:49Z</time>
      </trkpt>
      <trkpt lat="60.245482921600342" lon="30.485730171203613">
        <time>2026-08-29T12:34:52Z</time>
      </trkpt>
      <trkpt lat="60.245504379272461" lon="30.485622882843018">
        <time>2026-08-29T12:34:59Z</time>
      </trkpt>
      <trkpt lat="60.24552583694458" lon="30.48555850982666">
        <time>2026-08-29T12:35:02Z</time>
      </trkpt>
      <trkpt lat="60.245461463928223" lon="30.485794544219971">
        <time>2026-08-29T12:35:19Z</time>
      </trkpt>
      <trkpt lat="60.245418548583984" lon="30.485837459564209">
        <time>2026-08-29T12:35:22Z</time>
      </trkpt>
      <trkpt lat="60.245354175567627" lon="30.485858917236328">
        <time>2026-08-29T12:35:24Z</time>
      </trkpt>
      <trkpt lat="60.24528980255127" lon="30.485901832580566">
        <time>2026-08-29T12:35:27Z</time>
      </trkpt>
      <trkpt lat="60.245332717895508" lon="30.485901832580566">
        <time>2026-08-29T12:35:34Z</time>
      </trkpt>
      <trkpt lat="60.245418548583984" lon="30.485880374908447">
        <time>2026-08-29T12:35:37Z</time>
      </trkpt>
      <trkpt lat="60.245482921600342" lon="30.485837459564209">
        <time>2026-08-29T12:35:39Z</time>
      </trkpt>
      <trkpt lat="60.245547294616699" lon="30.485858917236328">
        <time>2026-08-29T12:35:42Z</time>
      </trkpt>
      <trkpt lat="60.245568752288818" lon="30.485837459564209">
        <time>2026-08-29T12:35:44Z</time>
      </trkpt>
      <trkpt lat="60.245633125305176" lon="30.485858917236328">
        <time>2026-08-29T12:36:14Z</time>
      </trkpt>
      <trkpt lat="60.245633125305176" lon="30.485837459564209">
        <time>2026-08-29T12:36:42Z</time>
      </trkpt>
      <trkpt lat="60.245654582977295" lon="30.485880374908447">
        <time>2026-08-29T12:37:12Z</time>
      </trkpt>
      <trkpt lat="60.245654582977295" lon="30.485858917236328">
        <time>2026-08-29T12:37:42Z</time>
      </trkpt>
      <trkpt lat="60.245633125305176" lon="30.485837459564209">
        <time>2026-08-29T12:38:12Z</time>
      </trkpt>
      <trkpt lat="60.245633125305176" lon="30.485837459564209">
        <time>2026-08-29T12:38:42Z</time>
      </trkpt>
      <trkpt lat="60.245654582977295" lon="30.485858917236328">
        <time>2026-08-29T12:39:12Z</time>
      </trkpt>
      <trkpt lat="60.245654582977295" lon="30.485858917236328">
        <time>2026-08-29T12:39:42Z</time>
      </trkpt>
      <trkpt lat="60.245654582977295" lon="30.485837459564209">
        <time>2026-08-29T12:40:12Z</time>
      </trkpt>
      <trkpt lat="60.245654582977295" lon="30.485837459564209">
        <time>2026-08-29T12:40:42Z</time>
      </trkpt>
      <trkpt lat="60.245654582977295" lon="30.485837459564209">
        <time>2026-08-29T12:41:12Z</time>
      </trkpt>
      <trkpt lat="60.245654582977295" lon="30.485837459564209">
        <time>2026-08-29T12:41:42Z</time>
      </trkpt>
      <trkpt lat="60.245654582977295" lon="30.485837459564209">
        <time>2026-08-29T12:42:12Z</time>
      </trkpt>
      <trkpt lat="60.245676040649414" lon="30.485837459564209">
        <time>2026-08-29T12:42:42Z</time>
      </trkpt>
      <trkpt lat="60.245676040649414" lon="30.485837459564209">
        <time>2026-08-29T12:43:12Z</time>
      </trkpt>
      <trkpt lat="60.245654582977295" lon="30.485837459564209">
        <time>2026-08-29T12:43:42Z</time>
      </trkpt>
      <trkpt lat="60.245676040649414" lon="30.48581600189209">
        <time>2026-08-29T12:44:12Z</time>
      </trkpt>
      <trkpt lat="60.245654582977295" lon="30.485773086547852">
        <time>2026-08-29T12:44:42Z</time>
      </trkpt>
      <trkpt lat="60.245654582977295" lon="30.485751628875732">
        <time>2026-08-29T12:45:12Z</time>
      </trkpt>
      <trkpt lat="60.245633125305176" lon="30.485773086547852">
        <time>2026-08-29T12:45:42Z</time>
      </trkpt>
      <trkpt lat="60.245676040649414" lon="30.48581600189209">
        <time>2026-08-29T12:46:12Z</time>
      </trkpt>
      <trkpt lat="60.245697498321533" lon="30.485858917236328">
        <time>2026-08-29T12:46:42Z</time>
      </trkpt>
      <trkpt lat="60.245697498321533" lon="30.485837459564209">
        <time>2026-08-29T12:47:12Z</time>
      </trkpt>
      <trkpt lat="60.245697498321533" lon="30.485837459564209">
        <time>2026-08-29T12:47:42Z</time>
      </trkpt>
      <trkpt lat="60.245697498321533" lon="30.485837459564209">
        <time>2026-08-29T12:48:12Z</time>
      </trkpt>
      <trkpt lat="60.245718955993652" lon="30.485858917236328">
        <time>2026-08-29T12:48:42Z</time>
      </trkpt>
      <trkpt lat="60.245718955993652" lon="30.485858917236328">
        <time>2026-08-29T12:49:12Z</time>
      </trkpt>
      <trkpt lat="60.245697498321533" lon="30.485858917236328">
        <time>2026-08-29T12:49:42Z</time>
      </trkpt>
      <trkpt lat="60.245697498321533" lon="30.485858917236328">
        <time>2026-08-29T12:50:12Z</time>
      </trkpt>
      <trkpt lat="60.245697498321533" lon="30.485858917236328">
        <time>2026-08-29T12:50:42Z</time>
      </trkpt>
      <trkpt lat="60.245697498321533" lon="30.485858917236328">
        <time>2026-08-29T12:51:12Z</time>
      </trkpt>
      <trkpt lat="60.245697498321533" lon="30.485858917236328">
        <time>2026-08-29T12:51:42Z</time>
      </trkpt>
      <trkpt lat="60.245697498321533" lon="30.485858917236328">
        <time>2026-08-29T12:52:12Z</time>
      </trkpt>
      <trkpt lat="60.245697498321533" lon="30.485858917236328">
        <time>2026-08-29T12:52:42Z</time>
      </trkpt>
      <trkpt lat="60.245697498321533" lon="30.485858917236328">
        <time>2026-08-29T12:53:12Z</time>
      </trkpt>
      <trkpt lat="60.245697498321533" lon="30.485858917236328">
        <time>2026-08-29T12:53:42Z</time>
      </trkpt>
      <trkpt lat="60.245676040649414" lon="30.485858917236328">
        <time>2026-08-29T12:54:12Z</time>
      </trkpt>
      <trkpt lat="60.245676040649414" lon="30.485858917236328">
        <time>2026-08-29T12:54:42Z</time>
      </trkpt>
      <trkpt lat="60.245676040649414" lon="30.485837459564209">
        <time>2026-08-29T12:55:12Z</time>
      </trkpt>
      <trkpt lat="60.245676040649414" lon="30.485837459564209">
        <time>2026-08-29T12:55:42Z</time>
      </trkpt>
      <trkpt lat="60.245676040649414" lon="30.485837459564209">
        <time>2026-08-29T12:56:12Z</time>
      </trkpt>
      <trkpt lat="60.245676040649414" lon="30.485837459564209">
        <time>2026-08-29T12:56:42Z</time>
      </trkpt>
      <trkpt lat="60.245676040649414" lon="30.485837459564209">
        <time>2026-08-29T12:57:12Z</time>
      </trkpt>
      <trkpt lat="60.245676040649414" lon="30.485837459564209">
        <time>2026-08-29T12:57:42Z</time>
      </trkpt>
      <trkpt lat="60.245676040649414" lon="30.485837459564209">
        <time>2026-08-29T12:58:12Z</time>
      </trkpt>
      <trkpt lat="60.245676040649414" lon="30.485837459564209">
        <time>2026-08-29T12:58:42Z</time>
      </trkpt>
      <trkpt lat="60.245676040649414" lon="30.485837459564209">
        <time>2026-08-29T12:59:12Z</time>
      </trkpt>
      <trkpt lat="60.245676040649414" lon="30.485837459564209">
        <time>2026-08-29T12:59:42Z</time>
      </trkpt>
      <trkpt lat="60.245676040649414" lon="30.485837459564209">
        <time>2026-08-29T13:00:12Z</time>
      </trkpt>
      <trkpt lat="60.245568752288818" lon="30.485837459564209">
        <time>2026-08-29T13:00:29Z</time>
      </trkpt>
      <trkpt lat="60.24552583694458" lon="30.485794544219971">
        <time>2026-08-29T13:00:32Z</time>
      </trkpt>
      <trkpt lat="60.24552583694458" lon="30.485751628875732">
        <time>2026-08-29T13:01:04Z</time>
      </trkpt>
      <trkpt lat="60.24552583694458" lon="30.485794544219971">
        <time>2026-08-29T13:01:07Z</time>
      </trkpt>
      <trkpt lat="60.245590209960938" lon="30.485837459564209">
        <time>2026-08-29T13:01:09Z</time>
      </trkpt>
      <trkpt lat="60.245633125305176" lon="30.48581600189209">
        <time>2026-08-29T13:01:12Z</time>
      </trkpt>
      <trkpt lat="60.245568752288818" lon="30.48581600189209">
        <time>2026-08-29T13:01:17Z</time>
      </trkpt>
      <trkpt lat="60.245568752288818" lon="30.48581600189209">
        <time>2026-08-29T13:01:39Z</time>
      </trkpt>
      <trkpt lat="60.24552583694458" lon="30.485794544219971">
        <time>2026-08-29T13:01:42Z</time>
      </trkpt>
      <trkpt lat="60.245568752288818" lon="30.485794544219971">
        <time>2026-08-29T13:01:57Z</time>
      </trkpt>
      <trkpt lat="60.245590209960938" lon="30.485837459564209">
        <time>2026-08-29T13:02:27Z</time>
      </trkpt>
      <trkpt lat="60.245611667633057" lon="30.485858917236328">
        <time>2026-08-29T13:02:57Z</time>
      </trkpt>
      <trkpt lat="60.245611667633057" lon="30.485837459564209">
        <time>2026-08-29T13:03:27Z</time>
      </trkpt>
      <trkpt lat="60.245590209960938" lon="30.485837459564209">
        <time>2026-08-29T13:03:39Z</time>
      </trkpt>
      <trkpt lat="60.245633125305176" lon="30.485858917236328">
        <time>2026-08-29T13:04:09Z</time>
      </trkpt>
      <trkpt lat="60.245633125305176" lon="30.485858917236328">
        <time>2026-08-29T13:04:39Z</time>
      </trkpt>
      <trkpt lat="60.245633125305176" lon="30.485837459564209">
        <time>2026-08-29T13:05:09Z</time>
      </trkpt>
      <trkpt lat="60.245611667633057" lon="30.485794544219971">
        <time>2026-08-29T13:05:39Z</time>
      </trkpt>
      <trkpt lat="60.245633125305176" lon="30.485794544219971">
        <time>2026-08-29T13:06:09Z</time>
      </trkpt>
      <trkpt lat="60.245633125305176" lon="30.485794544219971">
        <time>2026-08-29T13:06:39Z</time>
      </trkpt>
      <trkpt lat="60.245654582977295" lon="30.48581600189209">
        <time>2026-08-29T13:07:09Z</time>
      </trkpt>
      <trkpt lat="60.245654582977295" lon="30.485773086547852">
        <time>2026-08-29T13:07:39Z</time>
      </trkpt>
      <trkpt lat="60.245654582977295" lon="30.485773086547852">
        <time>2026-08-29T13:08:09Z</time>
      </trkpt>
      <trkpt lat="60.245611667633057" lon="30.485751628875732">
        <time>2026-08-29T13:08:19Z</time>
      </trkpt>
      <trkpt lat="60.245590209960938" lon="30.485751628875732">
        <time>2026-08-29T13:08:27Z</time>
      </trkpt>
      <trkpt lat="60.245568752288818" lon="30.485687255859375">
        <time>2026-08-29T13:08:57Z</time>
      </trkpt>
      <trkpt lat="60.245568752288818" lon="30.485687255859375">
        <time>2026-08-29T13:09:27Z</time>
      </trkpt>
      <trkpt lat="60.245590209960938" lon="30.485687255859375">
        <time>2026-08-29T13:09:57Z</time>
      </trkpt>
      <trkpt lat="60.245590209960938" lon="30.485687255859375">
        <time>2026-08-29T13:10:27Z</time>
      </trkpt>
      <trkpt lat="60.245568752288818" lon="30.48555850982666">
        <time>2026-08-29T13:10:57Z</time>
      </trkpt>
      <trkpt lat="60.245568752288818" lon="30.485451221466064">
        <time>2026-08-29T13:11:02Z</time>
      </trkpt>
      <trkpt lat="60.245568752288818" lon="30.48532247543335">
        <time>2026-08-29T13:11:04Z</time>
      </trkpt>
      <trkpt lat="60.245590209960938" lon="30.485236644744873">
        <time>2026-08-29T13:11:07Z</time>
      </trkpt>
      <trkpt lat="60.245611667633057" lon="30.485107898712158">
        <time>2026-08-29T13:11:09Z</time>
      </trkpt>
      <trkpt lat="60.245633125305176" lon="30.48506498336792">
        <time>2026-08-29T13:11:12Z</time>
      </trkpt>
      <trkpt lat="60.245633125305176" lon="30.484914779663086">
        <time>2026-08-29T13:11:27Z</time>
      </trkpt>
      <trkpt lat="60.245633125305176" lon="30.484828948974609">
        <time>2026-08-29T13:11:29Z</time>
      </trkpt>
      <trkpt lat="60.245633125305176" lon="30.484743118286133">
        <time>2026-08-29T13:11:32Z</time>
      </trkpt>
      <trkpt lat="60.245633125305176" lon="30.484700202941895">
        <time>2026-08-29T13:11:34Z</time>
      </trkpt>
      <trkpt lat="60.245633125305176" lon="30.484721660614014">
        <time>2026-08-29T13:11:37Z</time>
      </trkpt>
      <trkpt lat="60.245633125305176" lon="30.484721660614014">
        <time>2026-08-29T13:12:07Z</time>
      </trkpt>
      <trkpt lat="60.245633125305176" lon="30.484721660614014">
        <time>2026-08-29T13:12:27Z</time>
      </trkpt>
      <trkpt lat="60.245590209960938" lon="30.484635829925537">
        <time>2026-08-29T13:12:54Z</time>
      </trkpt>
      <trkpt lat="60.245611667633057" lon="30.48457145690918">
        <time>2026-08-29T13:12:57Z</time>
      </trkpt>
      <trkpt lat="60.245611667633057" lon="30.484442710876465">
        <time>2026-08-29T13:12:59Z</time>
      </trkpt>
      <trkpt lat="60.245611667633057" lon="30.484335422515869">
        <time>2026-08-29T13:13:02Z</time>
      </trkpt>
      <trkpt lat="60.245633125305176" lon="30.484271049499512">
        <time>2026-08-29T13:13:04Z</time>
      </trkpt>
      <trkpt lat="60.245633125305176" lon="30.484271049499512">
        <time>2026-08-29T13:13:12Z</time>
      </trkpt>
      <trkpt lat="60.245633125305176" lon="30.484356880187988">
        <time>2026-08-29T13:13:14Z</time>
      </trkpt>
      <trkpt lat="60.245633125305176" lon="30.484421253204346">
        <time>2026-08-29T13:13:17Z</time>
      </trkpt>
      <trkpt lat="60.245611667633057" lon="30.484013557434082">
        <time>2026-08-29T13:13:44Z</time>
      </trkpt>
      <trkpt lat="60.245611667633057" lon="30.48405647277832">
        <time>2026-08-29T13:14:14Z</time>
      </trkpt>
      <trkpt lat="60.245590209960938" lon="30.483841896057129">
        <time>2026-08-29T13:14:24Z</time>
      </trkpt>
      <trkpt lat="60.245633125305176" lon="30.483798980712891">
        <time>2026-08-29T13:14:27Z</time>
      </trkpt>
      <trkpt lat="60.245633125305176" lon="30.483713150024414">
        <time>2026-08-29T13:14:29Z</time>
      </trkpt>
      <trkpt lat="60.245654582977295" lon="30.483627319335938">
        <time>2026-08-29T13:14:37Z</time>
      </trkpt>
      <trkpt lat="60.245654582977295" lon="30.483670234680176">
        <time>2026-08-29T13:14:39Z</time>
      </trkpt>
      <trkpt lat="60.245633125305176" lon="30.483391284942627">
        <time>2026-08-29T13:14:54Z</time>
      </trkpt>
      <trkpt lat="60.245718955993652" lon="30.483283996582031">
        <time>2026-08-29T13:15:24Z</time>
      </trkpt>
      <trkpt lat="60.245761871337891" lon="30.48330545425415">
        <time>2026-08-29T13:15:37Z</time>
      </trkpt>
      <trkpt lat="60.245718955993652" lon="30.483176708221436">
        <time>2026-08-29T13:15:49Z</time>
      </trkpt>
      <trkpt lat="60.245697498321533" lon="30.483133792877197">
        <time>2026-08-29T13:15:52Z</time>
      </trkpt>
      <trkpt lat="60.245697498321533" lon="30.482940673828125">
        <time>2026-08-29T13:16:07Z</time>
      </trkpt>
      <trkpt lat="60.245697498321533" lon="30.482833385467529">
        <time>2026-08-29T13:16:09Z</time>
      </trkpt>
      <trkpt lat="60.245697498321533" lon="30.482747554779053">
        <time>2026-08-29T13:16:12Z</time>
      </trkpt>
      <trkpt lat="60.245654582977295" lon="30.482661724090576">
        <time>2026-08-29T13:16:14Z</time>
      </trkpt>
      <trkpt lat="60.245676040649414" lon="30.482618808746338">
        <time>2026-08-29T13:16:17Z</time>
      </trkpt>
      <trkpt lat="60.245590209960938" lon="30.482661724090576">
        <time>2026-08-29T13:16:32Z</time>
      </trkpt>
      <trkpt lat="60.245568752288818" lon="30.48255443572998">
        <time>2026-08-29T13:16:34Z</time>
      </trkpt>
      <trkpt lat="60.245568752288818" lon="30.482468605041504">
        <time>2026-08-29T13:16:37Z</time>
      </trkpt>
      <trkpt lat="60.245568752288818" lon="30.482382774353027">
        <time>2026-08-29T13:16:39Z</time>
      </trkpt>
      <trkpt lat="60.245568752288818" lon="30.48231840133667">
        <time>2026-08-29T13:16:42Z</time>
      </trkpt>
      <trkpt lat="60.245547294616699" lon="30.482254028320312">
        <time>2026-08-29T13:16:49Z</time>
      </trkpt>
      <trkpt lat="60.245568752288818" lon="30.48231840133667">
        <time>2026-08-29T13:16:54Z</time>
      </trkpt>
      <trkpt lat="60.245590209960938" lon="30.482425689697266">
        <time>2026-08-29T13:16:57Z</time>
      </trkpt>
      <trkpt lat="60.245590209960938" lon="30.482511520385742">
        <time>2026-08-29T13:16:59Z</time>
      </trkpt>
      <trkpt lat="60.245633125305176" lon="30.482597351074219">
        <time>2026-08-29T13:17:02Z</time>
      </trkpt>
      <trkpt lat="60.245654582977295" lon="30.482511520385742">
        <time>2026-08-29T13:17:32Z</time>
      </trkpt>
      <trkpt lat="60.245633125305176" lon="30.48255443572998">
        <time>2026-08-29T13:17:34Z</time>
      </trkpt>
      <trkpt lat="60.245590209960938" lon="30.4825758934021">
        <time>2026-08-29T13:17:37Z</time>
      </trkpt>
      <trkpt lat="60.245547294616699" lon="30.482532978057861">
        <time>2026-08-29T13:17:57Z</time>
      </trkpt>
      <trkpt lat="60.245568752288818" lon="30.482511520385742">
        <time>2026-08-29T13:18:27Z</time>
      </trkpt>
      <trkpt lat="60.245547294616699" lon="30.482511520385742">
        <time>2026-08-29T13:18:57Z</time>
      </trkpt>
      <trkpt lat="60.24552583694458" lon="30.482511520385742">
        <time>2026-08-29T13:19:27Z</time>
      </trkpt>
      <trkpt lat="60.245590209960938" lon="30.48255443572998">
        <time>2026-08-29T13:19:57Z</time>
      </trkpt>
      <trkpt lat="60.245611667633057" lon="30.4825758934021">
        <time>2026-08-29T13:20:27Z</time>
      </trkpt>
      <trkpt lat="60.245676040649414" lon="30.482597351074219">
        <time>2026-08-29T13:20:57Z</time>
      </trkpt>
      <trkpt lat="60.24578332901001" lon="30.482726097106934">
        <time>2026-08-29T13:21:02Z</time>
      </trkpt>
      <trkpt lat="60.245847702026367" lon="30.482790470123291">
        <time>2026-08-29T13:21:07Z</time>
      </trkpt>
      <trkpt lat="60.245890617370605" lon="30.482854843139648">
        <time>2026-08-29T13:21:12Z</time>
      </trkpt>
      <trkpt lat="60.245890617370605" lon="30.482790470123291">
        <time>2026-08-29T13:21:17Z</time>
      </trkpt>
      <trkpt lat="60.245826244354248" lon="30.482683181762695">
        <time>2026-08-29T13:21:19Z</time>
      </trkpt>
      <trkpt lat="60.24578332901001" lon="30.482640266418457">
        <time>2026-08-29T13:21:22Z</time>
      </trkpt>
      <trkpt lat="60.245804786682129" lon="30.482683181762695">
        <time>2026-08-29T13:21:39Z</time>
      </trkpt>
      <trkpt lat="60.245761871337891" lon="30.482640266418457">
        <time>2026-08-29T13:21:47Z</time>
      </trkpt>
      <trkpt lat="60.245847702026367" lon="30.482726097106934">
        <time>2026-08-29T13:21:57Z</time>
      </trkpt>
      <trkpt lat="60.245869159698486" lon="30.482726097106934">
        <time>2026-08-29T13:22:12Z</time>
      </trkpt>
      <trkpt lat="60.245912075042725" lon="30.482726097106934">
        <time>2026-08-29T13:22:42Z</time>
      </trkpt>
      <trkpt lat="60.245912075042725" lon="30.482747554779053">
        <time>2026-08-29T13:22:52Z</time>
      </trkpt>
      <trkpt lat="60.245933532714844" lon="30.482726097106934">
        <time>2026-08-29T13:23:22Z</time>
      </trkpt>
      <trkpt lat="60.245912075042725" lon="30.48281192779541">
        <time>2026-08-29T13:23:52Z</time>
      </trkpt>
      <trkpt lat="60.245933532714844" lon="30.48281192779541">
        <time>2026-08-29T13:24:22Z</time>
      </trkpt>
      <trkpt lat="60.245954990386963" lon="30.482876300811768">
        <time>2026-08-29T13:24:52Z</time>
      </trkpt>
      <trkpt lat="60.245933532714844" lon="30.482962131500244">
        <time>2026-08-29T13:25:22Z</time>
      </trkpt>
      <trkpt lat="60.245890617370605" lon="30.48281192779541">
        <time>2026-08-29T13:25:52Z</time>
      </trkpt>
      <trkpt lat="60.245912075042725" lon="30.482833385467529">
        <time>2026-08-29T13:26:22Z</time>
      </trkpt>
      <trkpt lat="60.245912075042725" lon="30.482854843139648">
        <time>2026-08-29T13:26:52Z</time>
      </trkpt>
      <trkpt lat="60.245912075042725" lon="30.482897758483887">
        <time>2026-08-29T13:27:22Z</time>
      </trkpt>
      <trkpt lat="60.245933532714844" lon="30.482897758483887">
        <time>2026-08-29T13:27:52Z</time>
      </trkpt>
      <trkpt lat="60.245933532714844" lon="30.482897758483887">
        <time>2026-08-29T13:28:22Z</time>
      </trkpt>
      <trkpt lat="60.245997905731201" lon="30.483005046844482">
        <time>2026-08-29T13:28:52Z</time>
      </trkpt>
      <trkpt lat="60.24601936340332" lon="30.48306941986084">
        <time>2026-08-29T13:28:54Z</time>
      </trkpt>
      <trkpt lat="60.246062278747559" lon="30.483155250549316">
        <time>2026-08-29T13:29:02Z</time>
      </trkpt>
      <trkpt lat="60.246062278747559" lon="30.483219623565674">
        <time>2026-08-29T13:29:04Z</time>
      </trkpt>
      <trkpt lat="60.246083736419678" lon="30.483262538909912">
        <time>2026-08-29T13:29:07Z</time>
      </trkpt>
      <trkpt lat="60.246105194091797" lon="30.48330545425415">
        <time>2026-08-29T13:29:09Z</time>
      </trkpt>
      <trkpt lat="60.246148109436035" lon="30.483584403991699">
        <time>2026-08-29T13:29:22Z</time>
      </trkpt>
      <trkpt lat="60.246169567108154" lon="30.483670234680176">
        <time>2026-08-29T13:29:24Z</time>
      </trkpt>
      <trkpt lat="60.246169567108154" lon="30.483777523040771">
        <time>2026-08-29T13:29:27Z</time>
      </trkpt>
      <trkpt lat="60.246191024780273" lon="30.483992099761963">
        <time>2026-08-29T13:29:44Z</time>
      </trkpt>
      <trkpt lat="60.246212482452393" lon="30.484120845794678">
        <time>2026-08-29T13:29:49Z</time>
      </trkpt>
      <trkpt lat="60.246212482452393" lon="30.484185218811035">
        <time>2026-08-29T13:29:52Z</time>
      </trkpt>
      <trkpt lat="60.246233940124512" lon="30.484292507171631">
        <time>2026-08-29T13:29:54Z</time>
      </trkpt>
      <trkpt lat="60.246255397796631" lon="30.484378337860107">
        <time>2026-08-29T13:29:57Z</time>
      </trkpt>
      <trkpt lat="60.246233940124512" lon="30.484464168548584">
        <time>2026-08-29T13:29:59Z</time>
      </trkpt>
      <trkpt lat="60.246212482452393" lon="30.484399795532227">
        <time>2026-08-29T13:30:02Z</time>
      </trkpt>
      <trkpt lat="60.246191024780273" lon="30.484378337860107">
        <time>2026-08-29T13:30:04Z</time>
      </trkpt>
      <trkpt lat="60.246212482452393" lon="30.484399795532227">
        <time>2026-08-29T13:30:07Z</time>
      </trkpt>
      <trkpt lat="60.246212482452393" lon="30.484464168548584">
        <time>2026-08-29T13:30:09Z</time>
      </trkpt>
      <trkpt lat="60.246233940124512" lon="30.484549999237061">
        <time>2026-08-29T13:30:12Z</time>
      </trkpt>
      <trkpt lat="60.246233940124512" lon="30.484614372253418">
        <time>2026-08-29T13:30:14Z</time>
      </trkpt>
      <trkpt lat="60.246233940124512" lon="30.484678745269775">
        <time>2026-08-29T13:30:17Z</time>
      </trkpt>
      <trkpt lat="60.246233940124512" lon="30.484721660614014">
        <time>2026-08-29T13:30:19Z</time>
      </trkpt>
      <trkpt lat="60.24627685546875" lon="30.484764575958252">
        <time>2026-08-29T13:30:49Z</time>
      </trkpt>
      <trkpt lat="60.246298313140869" lon="30.484850406646729">
        <time>2026-08-29T13:30:54Z</time>
      </trkpt>
      <trkpt lat="60.246341228485107" lon="30.48506498336792">
        <time>2026-08-29T13:31:09Z</time>
      </trkpt>
      <trkpt lat="60.246384143829346" lon="30.48530101776123">
        <time>2026-08-29T13:31:14Z</time>
      </trkpt>
      <trkpt lat="60.246427059173584" lon="30.485408306121826">
        <time>2026-08-29T13:31:17Z</time>
      </trkpt>
      <trkpt lat="60.246491432189941" lon="30.485880374908447">
        <time>2026-08-29T13:31:37Z</time>
      </trkpt>
      <trkpt lat="60.246491432189941" lon="30.485966205596924">
        <time>2026-08-29T13:31:39Z</time>
      </trkpt>
      <trkpt lat="60.246577262878418" lon="30.486245155334473">
        <time>2026-08-29T13:32:02Z</time>
      </trkpt>
      <trkpt lat="60.246641635894775" lon="30.486330986022949">
        <time>2026-08-29T13:32:04Z</time>
      </trkpt>
      <trkpt lat="60.246684551239014" lon="30.486395359039307">
        <time>2026-08-29T13:32:07Z</time>
      </trkpt>
      <trkpt lat="60.246706008911133" lon="30.486459732055664">
        <time>2026-08-29T13:32:09Z</time>
      </trkpt>
      <trkpt lat="60.246748924255371" lon="30.486524105072021">
        <time>2026-08-29T13:32:12Z</time>
      </trkpt>
      <trkpt lat="60.246813297271729" lon="30.486674308776855">
        <time>2026-08-29T13:32:19Z</time>
      </trkpt>
      <trkpt lat="60.246856212615967" lon="30.486717224121094">
        <time>2026-08-29T13:32:22Z</time>
      </trkpt>
      <trkpt lat="60.246942043304443" lon="30.486845970153809">
        <time>2026-08-29T13:32:27Z</time>
      </trkpt>
      <trkpt lat="60.246899127960205" lon="30.486760139465332">
        <time>2026-08-29T13:32:34Z</time>
      </trkpt>
      <trkpt lat="60.246877670288086" lon="30.486717224121094">
        <time>2026-08-29T13:32:37Z</time>
      </trkpt>
      <trkpt lat="60.247049331665039" lon="30.486888885498047">
        <time>2026-08-29T13:32:57Z</time>
      </trkpt>
      <trkpt lat="60.247113704681396" lon="30.486953258514404">
        <time>2026-08-29T13:33:02Z</time>
      </trkpt>
      <trkpt lat="60.247178077697754" lon="30.486996173858643">
        <time>2026-08-29T13:33:04Z</time>
      </trkpt>
      <trkpt lat="60.247371196746826" lon="30.487103462219238">
        <time>2026-08-29T13:33:24Z</time>
      </trkpt>
      <trkpt lat="60.247585773468018" lon="30.487167835235596">
        <time>2026-08-29T13:33:49Z</time>
      </trkpt>
      <trkpt lat="60.247800350189209" lon="30.487339496612549">
        <time>2026-08-29T13:34:09Z</time>
      </trkpt>
      <trkpt lat="60.247821807861328" lon="30.487360954284668">
        <time>2026-08-29T13:34:12Z</time>
      </trkpt>
      <trkpt lat="60.247864723205566" lon="30.487425327301025">
        <time>2026-08-29T13:34:14Z</time>
      </trkpt>
      <trkpt lat="60.247886180877686" lon="30.487468242645264">
        <time>2026-08-29T13:34:17Z</time>
      </trkpt>
      <trkpt lat="60.247929096221924" lon="30.487511157989502">
        <time>2026-08-29T13:34:19Z</time>
      </trkpt>
      <trkpt lat="60.247950553894043" lon="30.48755407333374">
        <time>2026-08-29T13:34:22Z</time>
      </trkpt>
      <trkpt lat="60.247993469238281" lon="30.487639904022217">
        <time>2026-08-29T13:34:24Z</time>
      </trkpt>
      <trkpt lat="60.248057842254639" lon="30.487704277038574">
        <time>2026-08-29T13:34:27Z</time>
      </trkpt>
      <trkpt lat="60.248122215270996" lon="30.487790107727051">
        <time>2026-08-29T13:34:29Z</time>
      </trkpt>
      <trkpt lat="60.248143672943115" lon="30.48781156539917">
        <time>2026-08-29T13:34:32Z</time>
      </trkpt>
      <trkpt lat="60.248208045959473" lon="30.488004684448242">
        <time>2026-08-29T13:34:44Z</time>
      </trkpt>
      <trkpt lat="60.248250961303711" lon="30.48804759979248">
        <time>2026-08-29T13:34:47Z</time>
      </trkpt>
      <trkpt lat="60.24827241897583" lon="30.488111972808838">
        <time>2026-08-29T13:34:49Z</time>
      </trkpt>
      <trkpt lat="60.248315334320068" lon="30.488154888153076">
        <time>2026-08-29T13:34:52Z</time>
      </trkpt>
      <trkpt lat="60.248336791992188" lon="30.488219261169434">
        <time>2026-08-29T13:34:54Z</time>
      </trkpt>
      <trkpt lat="60.248336791992188" lon="30.488111972808838">
        <time>2026-08-29T13:35:24Z</time>
      </trkpt>
      <trkpt lat="60.248508453369141" lon="30.488369464874268">
        <time>2026-08-29T13:35:42Z</time>
      </trkpt>
      <trkpt lat="60.248572826385498" lon="30.488498210906982">
        <time>2026-08-29T13:35:47Z</time>
      </trkpt>
      <trkpt lat="60.248637199401855" lon="30.488648414611816">
        <time>2026-08-29T13:36:17Z</time>
      </trkpt>
      <trkpt lat="60.24876594543457" lon="30.488841533660889">
        <time>2026-08-29T13:36:24Z</time>
      </trkpt>
      <trkpt lat="60.248808860778809" lon="30.488905906677246">
        <time>2026-08-29T13:36:27Z</time>
      </trkpt>
      <trkpt lat="60.248851776123047" lon="30.488970279693604">
        <time>2026-08-29T13:36:29Z</time>
      </trkpt>
      <trkpt lat="60.249044895172119" lon="30.489292144775391">
        <time>2026-08-29T13:36:47Z</time>
      </trkpt>
      <trkpt lat="60.249216556549072" lon="30.489463806152344">
        <time>2026-08-29T13:37:17Z</time>
      </trkpt>
      <trkpt lat="60.249366760253906" lon="30.489463806152344">
        <time>2026-08-29T13:37:27Z</time>
      </trkpt>
      <trkpt lat="60.249388217926025" lon="30.489420890808105">
        <time>2026-08-29T13:37:29Z</time>
      </trkpt>
      <trkpt lat="60.249388217926025" lon="30.489420890808105">
        <time>2026-08-29T13:37:32Z</time>
      </trkpt>
      <trkpt lat="60.249495506286621" lon="30.489571094512939">
        <time>2026-08-29T13:37:39Z</time>
      </trkpt>
      <trkpt lat="60.249559879302979" lon="30.489635467529297">
        <time>2026-08-29T13:37:42Z</time>
      </trkpt>
      <trkpt lat="60.249602794647217" lon="30.489656925201416">
        <time>2026-08-29T13:37:44Z</time>
      </trkpt>
      <trkpt lat="60.249624252319336" lon="30.489699840545654">
        <time>2026-08-29T13:37:49Z</time>
      </trkpt>
      <trkpt lat="60.249645709991455" lon="30.489656925201416">
        <time>2026-08-29T13:37:52Z</time>
      </trkpt>
      <trkpt lat="60.249817371368408" lon="30.489871501922607">
        <time>2026-08-29T13:38:07Z</time>
      </trkpt>
      <trkpt lat="60.2500319480896" lon="30.490086078643799">
        <time>2026-08-29T13:38:27Z</time>
      </trkpt>
      <trkpt lat="60.250203609466553" lon="30.490279197692871">
        <time>2026-08-29T13:38:44Z</time>
      </trkpt>
      <trkpt lat="60.250396728515625" lon="30.49055814743042">
        <time>2026-08-29T13:38:59Z</time>
      </trkpt>
      <trkpt lat="60.250632762908936" lon="30.490579605102539">
        <time>2026-08-29T13:39:17Z</time>
      </trkpt>
      <trkpt lat="60.250718593597412" lon="30.490493774414063">
        <time>2026-08-29T13:39:27Z</time>
      </trkpt>
      <trkpt lat="60.250933170318604" lon="30.490322113037109">
        <time>2026-08-29T13:39:44Z</time>
      </trkpt>
      <trkpt lat="60.25101900100708" lon="30.490236282348633">
        <time>2026-08-29T13:39:47Z</time>
      </trkpt>
      <trkpt lat="60.251104831695557" lon="30.490150451660156">
        <time>2026-08-29T13:39:49Z</time>
      </trkpt>
      <trkpt lat="60.251147747039795" lon="30.490107536315918">
        <time>2026-08-29T13:39:52Z</time>
      </trkpt>
      <trkpt lat="60.251169204711914" lon="30.49006462097168">
        <time>2026-08-29T13:39:54Z</time>
      </trkpt>
      <trkpt lat="60.251190662384033" lon="30.490000247955322">
        <time>2026-08-29T13:39:57Z</time>
      </trkpt>
      <trkpt lat="60.251233577728271" lon="30.489935874938965">
        <time>2026-08-29T13:39:59Z</time>
      </trkpt>
      <trkpt lat="60.251255035400391" lon="30.489871501922607">
        <time>2026-08-29T13:40:02Z</time>
      </trkpt>
      <trkpt lat="60.251297950744629" lon="30.48980712890625">
        <time>2026-08-29T13:40:04Z</time>
      </trkpt>
      <trkpt lat="60.251319408416748" lon="30.489742755889893">
        <time>2026-08-29T13:40:07Z</time>
      </trkpt>
      <trkpt lat="60.251405239105225" lon="30.489506721496582">
        <time>2026-08-29T13:40:29Z</time>
      </trkpt>
      <trkpt lat="60.251426696777344" lon="30.489442348480225">
        <time>2026-08-29T13:40:32Z</time>
      </trkpt>
      <trkpt lat="60.251555442810059" lon="30.489292144775391">
        <time>2026-08-29T13:40:47Z</time>
      </trkpt>
      <trkpt lat="60.251576900482178" lon="30.489227771759033">
        <time>2026-08-29T13:40:49Z</time>
      </trkpt>
      <trkpt lat="60.251684188842773" lon="30.489120483398437">
        <time>2026-08-29T13:40:54Z</time>
      </trkpt>
      <trkpt lat="60.251727104187012" lon="30.489034652709961">
        <time>2026-08-29T13:40:57Z</time>
      </trkpt>
      <trkpt lat="60.251748561859131" lon="30.488905906677246">
        <time>2026-08-29T13:40:59Z</time>
      </trkpt>
      <trkpt lat="60.25177001953125" lon="30.488948822021484">
        <time>2026-08-29T13:41:02Z</time>
      </trkpt>
      <trkpt lat="60.251812934875488" lon="30.488970279693604">
        <time>2026-08-29T13:41:04Z</time>
      </trkpt>
      <trkpt lat="60.251834392547607" lon="30.488970279693604">
        <time>2026-08-29T13:41:07Z</time>
      </trkpt>
      <trkpt lat="60.251984596252441" lon="30.488884449005127">
        <time>2026-08-29T13:41:22Z</time>
      </trkpt>
      <trkpt lat="60.252199172973633" lon="30.48879861831665">
        <time>2026-08-29T13:41:49Z</time>
      </trkpt>
      <trkpt lat="60.252435207366943" lon="30.488734245300293">
        <time>2026-08-29T13:42:04Z</time>
      </trkpt>
      <trkpt lat="60.252585411071777" lon="30.488669872283936">
        <time>2026-08-29T13:42:12Z</time>
      </trkpt>
      <trkpt lat="60.252799987792969" lon="30.488669872283936">
        <time>2026-08-29T13:42:27Z</time>
      </trkpt>
      <trkpt lat="60.253057479858398" lon="30.488626956939697">
        <time>2026-08-29T13:42:44Z</time>
      </trkpt>
      <trkpt lat="60.25327205657959" lon="30.488519668579102">
        <time>2026-08-29T13:42:54Z</time>
      </trkpt>
      <trkpt lat="60.253314971923828" lon="30.488455295562744">
        <time>2026-08-29T13:42:57Z</time>
      </trkpt>
      <trkpt lat="60.253357887268066" lon="30.488412380218506">
        <time>2026-08-29T13:42:59Z</time>
      </trkpt>
      <trkpt lat="60.253379344940186" lon="30.488369464874268">
        <time>2026-08-29T13:43:02Z</time>
      </trkpt>
      <trkpt lat="60.253593921661377" lon="30.488154888153076">
        <time>2026-08-29T13:43:19Z</time>
      </trkpt>
      <trkpt lat="60.253636837005615" lon="30.4880690574646">
        <time>2026-08-29T13:43:22Z</time>
      </trkpt>
      <trkpt lat="60.253722667694092" lon="30.4880690574646">
        <time>2026-08-29T13:43:24Z</time>
      </trkpt>
      <trkpt lat="60.25376558303833" lon="30.487961769104004">
        <time>2026-08-29T13:43:29Z</time>
      </trkpt>
      <trkpt lat="60.253808498382568" lon="30.487875938415527">
        <time>2026-08-29T13:43:42Z</time>
      </trkpt>
      <trkpt lat="60.253744125366211" lon="30.487940311431885">
        <time>2026-08-29T13:43:47Z</time>
      </trkpt>
      <trkpt lat="60.253722667694092" lon="30.487983226776123">
        <time>2026-08-29T13:43:49Z</time>
      </trkpt>
      <trkpt lat="60.253894329071045" lon="30.487875938415527">
        <time>2026-08-29T13:44:04Z</time>
      </trkpt>
      <trkpt lat="60.254087448120117" lon="30.487854480743408">
        <time>2026-08-29T13:44:19Z</time>
      </trkpt>
      <trkpt lat="60.254108905792236" lon="30.487833023071289">
        <time>2026-08-29T13:44:22Z</time>
      </trkpt>
      <trkpt lat="60.254344940185547" lon="30.487897396087646">
        <time>2026-08-29T13:44:37Z</time>
      </trkpt>
      <trkpt lat="60.254580974578857" lon="30.487918853759766">
        <time>2026-08-29T13:44:54Z</time>
      </trkpt>
      <trkpt lat="60.254817008972168" lon="30.487940311431885">
        <time>2026-08-29T13:45:04Z</time>
      </trkpt>
      <trkpt lat="60.254945755004883" lon="30.487918853759766">
        <time>2026-08-29T13:45:09Z</time>
      </trkpt>
      <trkpt lat="60.254945755004883" lon="30.48781156539917">
        <time>2026-08-29T13:45:12Z</time>
      </trkpt>
      <trkpt lat="60.254881381988525" lon="30.487704277038574">
        <time>2026-08-29T13:45:14Z</time>
      </trkpt>
      <trkpt lat="60.254859924316406" lon="30.487661361694336">
        <time>2026-08-29T13:45:17Z</time>
      </trkpt>
      <trkpt lat="60.254945755004883" lon="30.487768650054932">
        <time>2026-08-29T13:45:22Z</time>
      </trkpt>
      <trkpt lat="60.254967212677002" lon="30.487854480743408">
        <time>2026-08-29T13:45:24Z</time>
      </trkpt>
      <trkpt lat="60.254967212677002" lon="30.487918853759766">
        <time>2026-08-29T13:45:27Z</time>
      </trkpt>
      <trkpt lat="60.254967212677002" lon="30.48781156539917">
        <time>2026-08-29T13:45:32Z</time>
      </trkpt>
      <trkpt lat="60.254945755004883" lon="30.487704277038574">
        <time>2026-08-29T13:46:02Z</time>
      </trkpt>
      <trkpt lat="60.254945755004883" lon="30.487747192382813">
        <time>2026-08-29T13:46:07Z</time>
      </trkpt>
      <trkpt lat="60.254924297332764" lon="30.487725734710693">
        <time>2026-08-29T13:46:37Z</time>
      </trkpt>
      <trkpt lat="60.254924297332764" lon="30.487725734710693">
        <time>2026-08-29T13:47:07Z</time>
      </trkpt>
      <trkpt lat="60.254924297332764" lon="30.487747192382813">
        <time>2026-08-29T13:47:37Z</time>
      </trkpt>
      <trkpt lat="60.254924297332764" lon="30.487747192382813">
        <time>2026-08-29T13:48:07Z</time>
      </trkpt>
      <trkpt lat="60.254945755004883" lon="30.48781156539917">
        <time>2026-08-29T13:48:19Z</time>
      </trkpt>
      <trkpt lat="60.254924297332764" lon="30.487961769104004">
        <time>2026-08-29T13:48:24Z</time>
      </trkpt>
      <trkpt lat="60.254924297332764" lon="30.488026142120361">
        <time>2026-08-29T13:48:27Z</time>
      </trkpt>
      <trkpt lat="60.254924297332764" lon="30.488026142120361">
        <time>2026-08-29T13:48:29Z</time>
      </trkpt>
      <trkpt lat="60.254924297332764" lon="30.4880690574646">
        <time>2026-08-29T13:48:59Z</time>
      </trkpt>
      <trkpt lat="60.254924297332764" lon="30.488154888153076">
        <time>2026-08-29T13:49:02Z</time>
      </trkpt>
      <trkpt lat="60.254924297332764" lon="30.488240718841553">
        <time>2026-08-29T13:49:04Z</time>
      </trkpt>
    </trkseg>
  </trk>

</gpx>